<?xml version="1.0" encoding="UTF-8" standalone="no" ?>
<gpx xmlns="http://www.topografix.com/GPX/1/1" xmlns:xsi="http://www.w3.org/2001/XMLSchema-instance" xsi:schemaLocation="http://www.topografix.com/GPX/1/1 http://www.topografix.com/GPX/1/1/gpx.xsd" version="1.1" creator="VisuGPX - https://www.visugpx.com">
  <metadata>
    <name>FOOTING 02 12 2018 BORDS DE SAÔNE AVEC CLAUDE ET NATALIE</name>
    <desc><![CDATA[FOOTING 02 12 2018 BORDS DE SAÔNE AVEC CLAUDE ET NATALIE]]></desc>
  </metadata>
  <trk>
    <name><![CDATA[FOOTING 02 12 2018 BORDS DE SAÔNE AVEC CLAUDE ET NATALIE_1]]></name>
    <trkseg>
      <trkpt lat="45.76799" lon="4.80317">
        <ele>259.7</ele>
        <time>2018-12-02T09:52:51Z</time>
      </trkpt>
      <trkpt lat="45.76796" lon="4.80317">
        <ele>259.5</ele>
        <time>2018-12-02T09:52:53Z</time>
      </trkpt>
      <trkpt lat="45.76811" lon="4.80318">
        <ele>256.8</ele>
        <time>2018-12-02T09:53:20Z</time>
      </trkpt>
      <trkpt lat="45.7682" lon="4.80349">
        <ele>248.1</ele>
        <time>2018-12-02T09:53:55Z</time>
      </trkpt>
      <trkpt lat="45.76822" lon="4.8036">
        <ele>246</ele>
        <time>2018-12-02T09:53:59Z</time>
      </trkpt>
      <trkpt lat="45.76823" lon="4.80372">
        <ele>244.1</ele>
        <time>2018-12-02T09:54:03Z</time>
      </trkpt>
      <trkpt lat="45.76828" lon="4.80375">
        <ele>241.2</ele>
        <time>2018-12-02T09:54:10Z</time>
      </trkpt>
      <trkpt lat="45.76836" lon="4.8038">
        <ele>239.6</ele>
        <time>2018-12-02T09:54:17Z</time>
      </trkpt>
      <trkpt lat="45.76845" lon="4.80381">
        <ele>238.9</ele>
        <time>2018-12-02T09:54:21Z</time>
      </trkpt>
      <trkpt lat="45.76853" lon="4.80382">
        <ele>238</ele>
        <time>2018-12-02T09:54:26Z</time>
      </trkpt>
      <trkpt lat="45.76861" lon="4.80382">
        <ele>237</ele>
        <time>2018-12-02T09:54:32Z</time>
      </trkpt>
      <trkpt lat="45.76871" lon="4.80379">
        <ele>236.6</ele>
        <time>2018-12-02T09:54:36Z</time>
      </trkpt>
      <trkpt lat="45.76879" lon="4.8038">
        <ele>236.3</ele>
        <time>2018-12-02T09:54:39Z</time>
      </trkpt>
      <trkpt lat="45.76886" lon="4.8038">
        <ele>235.7</ele>
        <time>2018-12-02T09:54:42Z</time>
      </trkpt>
      <trkpt lat="45.76894" lon="4.80379">
        <ele>234.9</ele>
        <time>2018-12-02T09:54:46Z</time>
      </trkpt>
      <trkpt lat="45.76902" lon="4.80377">
        <ele>234.3</ele>
        <time>2018-12-02T09:54:49Z</time>
      </trkpt>
      <trkpt lat="45.76912" lon="4.80372">
        <ele>233.9</ele>
        <time>2018-12-02T09:54:52Z</time>
      </trkpt>
      <trkpt lat="45.76921" lon="4.80367">
        <ele>233.6</ele>
        <time>2018-12-02T09:54:55Z</time>
      </trkpt>
      <trkpt lat="45.76928" lon="4.80364">
        <ele>233.3</ele>
        <time>2018-12-02T09:54:58Z</time>
      </trkpt>
      <trkpt lat="45.76936" lon="4.80361">
        <ele>233</ele>
        <time>2018-12-02T09:55:01Z</time>
      </trkpt>
      <trkpt lat="45.76943" lon="4.80358">
        <ele>232.5</ele>
        <time>2018-12-02T09:55:04Z</time>
      </trkpt>
      <trkpt lat="45.76951" lon="4.80353">
        <ele>232</ele>
        <time>2018-12-02T09:55:07Z</time>
      </trkpt>
      <trkpt lat="45.76958" lon="4.80348">
        <ele>231.3</ele>
        <time>2018-12-02T09:55:12Z</time>
      </trkpt>
      <trkpt lat="45.76966" lon="4.80343">
        <ele>230.7</ele>
        <time>2018-12-02T09:55:16Z</time>
      </trkpt>
      <trkpt lat="45.76973" lon="4.80341">
        <ele>230.1</ele>
        <time>2018-12-02T09:55:20Z</time>
      </trkpt>
      <trkpt lat="45.76981" lon="4.80333">
        <ele>229.1</ele>
        <time>2018-12-02T09:55:26Z</time>
      </trkpt>
      <trkpt lat="45.76984" lon="4.80323">
        <ele>227.5</ele>
        <time>2018-12-02T09:55:31Z</time>
      </trkpt>
      <trkpt lat="45.76991" lon="4.80319">
        <ele>226.2</ele>
        <time>2018-12-02T09:55:34Z</time>
      </trkpt>
      <trkpt lat="45.76998" lon="4.80316">
        <ele>224.9</ele>
        <time>2018-12-02T09:55:37Z</time>
      </trkpt>
      <trkpt lat="45.77007" lon="4.80313">
        <ele>223.3</ele>
        <time>2018-12-02T09:55:41Z</time>
      </trkpt>
      <trkpt lat="45.77015" lon="4.80309">
        <ele>222.2</ele>
        <time>2018-12-02T09:55:44Z</time>
      </trkpt>
      <trkpt lat="45.77022" lon="4.80304">
        <ele>221.1</ele>
        <time>2018-12-02T09:55:47Z</time>
      </trkpt>
      <trkpt lat="45.77031" lon="4.80298">
        <ele>219.8</ele>
        <time>2018-12-02T09:55:51Z</time>
      </trkpt>
      <trkpt lat="45.77038" lon="4.80294">
        <ele>218.9</ele>
        <time>2018-12-02T09:55:54Z</time>
      </trkpt>
      <trkpt lat="45.77046" lon="4.80288">
        <ele>217.8</ele>
        <time>2018-12-02T09:55:58Z</time>
      </trkpt>
      <trkpt lat="45.77053" lon="4.80282">
        <ele>217.1</ele>
        <time>2018-12-02T09:56:01Z</time>
      </trkpt>
      <trkpt lat="45.77061" lon="4.80277">
        <ele>216</ele>
        <time>2018-12-02T09:56:05Z</time>
      </trkpt>
      <trkpt lat="45.77068" lon="4.80271">
        <ele>214.9</ele>
        <time>2018-12-02T09:56:09Z</time>
      </trkpt>
      <trkpt lat="45.77076" lon="4.80266">
        <ele>213.9</ele>
        <time>2018-12-02T09:56:13Z</time>
      </trkpt>
      <trkpt lat="45.77083" lon="4.8026">
        <ele>212.7</ele>
        <time>2018-12-02T09:56:18Z</time>
      </trkpt>
      <trkpt lat="45.7709" lon="4.80254">
        <ele>211.7</ele>
        <time>2018-12-02T09:56:23Z</time>
      </trkpt>
      <trkpt lat="45.77096" lon="4.80244">
        <ele>211.1</ele>
        <time>2018-12-02T09:56:27Z</time>
      </trkpt>
      <trkpt lat="45.77103" lon="4.80236">
        <ele>210.3</ele>
        <time>2018-12-02T09:56:31Z</time>
      </trkpt>
      <trkpt lat="45.77113" lon="4.80234">
        <ele>209.3</ele>
        <time>2018-12-02T09:56:35Z</time>
      </trkpt>
      <trkpt lat="45.7712" lon="4.80231">
        <ele>208.3</ele>
        <time>2018-12-02T09:56:39Z</time>
      </trkpt>
      <trkpt lat="45.77128" lon="4.80228">
        <ele>207.2</ele>
        <time>2018-12-02T09:56:43Z</time>
      </trkpt>
      <trkpt lat="45.77136" lon="4.80225">
        <ele>206.2</ele>
        <time>2018-12-02T09:56:46Z</time>
      </trkpt>
      <trkpt lat="45.77143" lon="4.80219">
        <ele>205.7</ele>
        <time>2018-12-02T09:56:48Z</time>
      </trkpt>
      <trkpt lat="45.77152" lon="4.80216">
        <ele>204.9</ele>
        <time>2018-12-02T09:56:52Z</time>
      </trkpt>
      <trkpt lat="45.77159" lon="4.80214">
        <ele>203.9</ele>
        <time>2018-12-02T09:56:56Z</time>
      </trkpt>
      <trkpt lat="45.77167" lon="4.80209">
        <ele>202.7</ele>
        <time>2018-12-02T09:57:02Z</time>
      </trkpt>
      <trkpt lat="45.77177" lon="4.80206">
        <ele>202.1</ele>
        <time>2018-12-02T09:57:06Z</time>
      </trkpt>
      <trkpt lat="45.77185" lon="4.80204">
        <ele>201.8</ele>
        <time>2018-12-02T09:57:08Z</time>
      </trkpt>
      <trkpt lat="45.77193" lon="4.802">
        <ele>201.4</ele>
        <time>2018-12-02T09:57:11Z</time>
      </trkpt>
      <trkpt lat="45.772" lon="4.80199">
        <ele>200.8</ele>
        <time>2018-12-02T09:57:16Z</time>
      </trkpt>
      <trkpt lat="45.77208" lon="4.802">
        <ele>200.5</ele>
        <time>2018-12-02T09:57:19Z</time>
      </trkpt>
      <trkpt lat="45.77217" lon="4.80199">
        <ele>200.2</ele>
        <time>2018-12-02T09:57:22Z</time>
      </trkpt>
      <trkpt lat="45.77224" lon="4.80197">
        <ele>199.9</ele>
        <time>2018-12-02T09:57:25Z</time>
      </trkpt>
      <trkpt lat="45.77233" lon="4.80198">
        <ele>199.3</ele>
        <time>2018-12-02T09:57:29Z</time>
      </trkpt>
      <trkpt lat="45.77241" lon="4.80193">
        <ele>198.5</ele>
        <time>2018-12-02T09:57:34Z</time>
      </trkpt>
      <trkpt lat="45.77248" lon="4.80187">
        <ele>198.3</ele>
        <time>2018-12-02T09:57:37Z</time>
      </trkpt>
      <trkpt lat="45.77255" lon="4.8018">
        <ele>198.3</ele>
        <time>2018-12-02T09:57:40Z</time>
      </trkpt>
      <trkpt lat="45.77263" lon="4.80173">
        <ele>198.5</ele>
        <time>2018-12-02T09:57:43Z</time>
      </trkpt>
      <trkpt lat="45.77269" lon="4.80166">
        <ele>198.8</ele>
        <time>2018-12-02T09:57:47Z</time>
      </trkpt>
      <trkpt lat="45.77276" lon="4.80159">
        <ele>198.8</ele>
        <time>2018-12-02T09:57:51Z</time>
      </trkpt>
      <trkpt lat="45.77282" lon="4.80153">
        <ele>198.8</ele>
        <time>2018-12-02T09:57:54Z</time>
      </trkpt>
      <trkpt lat="45.77289" lon="4.80146">
        <ele>198.7</ele>
        <time>2018-12-02T09:57:58Z</time>
      </trkpt>
      <trkpt lat="45.77297" lon="4.80139">
        <ele>198.5</ele>
        <time>2018-12-02T09:58:01Z</time>
      </trkpt>
      <trkpt lat="45.77304" lon="4.80131">
        <ele>198.3</ele>
        <time>2018-12-02T09:58:05Z</time>
      </trkpt>
      <trkpt lat="45.77309" lon="4.80123">
        <ele>198.3</ele>
        <time>2018-12-02T09:58:08Z</time>
      </trkpt>
      <trkpt lat="45.77315" lon="4.80116">
        <ele>198.3</ele>
        <time>2018-12-02T09:58:12Z</time>
      </trkpt>
      <trkpt lat="45.77321" lon="4.80108">
        <ele>198.4</ele>
        <time>2018-12-02T09:58:15Z</time>
      </trkpt>
      <trkpt lat="45.77326" lon="4.801">
        <ele>198.6</ele>
        <time>2018-12-02T09:58:18Z</time>
      </trkpt>
      <trkpt lat="45.77331" lon="4.80089">
        <ele>198.7</ele>
        <time>2018-12-02T09:58:22Z</time>
      </trkpt>
      <trkpt lat="45.77335" lon="4.80082">
        <ele>198.8</ele>
        <time>2018-12-02T09:58:26Z</time>
      </trkpt>
      <trkpt lat="45.77341" lon="4.80073">
        <ele>198.9</ele>
        <time>2018-12-02T09:58:30Z</time>
      </trkpt>
      <trkpt lat="45.77347" lon="4.80063">
        <ele>199.1</ele>
        <time>2018-12-02T09:58:34Z</time>
      </trkpt>
      <trkpt lat="45.77352" lon="4.80057">
        <ele>199.2</ele>
        <time>2018-12-02T09:58:38Z</time>
      </trkpt>
      <trkpt lat="45.77359" lon="4.80059">
        <ele>199.4</ele>
        <time>2018-12-02T09:58:41Z</time>
      </trkpt>
      <trkpt lat="45.77369" lon="4.80064">
        <ele>200</ele>
        <time>2018-12-02T09:58:45Z</time>
      </trkpt>
      <trkpt lat="45.77376" lon="4.80072">
        <ele>200.7</ele>
        <time>2018-12-02T09:58:49Z</time>
      </trkpt>
      <trkpt lat="45.77382" lon="4.80077">
        <ele>201.4</ele>
        <time>2018-12-02T09:58:53Z</time>
      </trkpt>
      <trkpt lat="45.7739" lon="4.80085">
        <ele>202.3</ele>
        <time>2018-12-02T09:58:58Z</time>
      </trkpt>
      <trkpt lat="45.77397" lon="4.80093">
        <ele>203</ele>
        <time>2018-12-02T09:59:02Z</time>
      </trkpt>
      <trkpt lat="45.77403" lon="4.80101">
        <ele>203.8</ele>
        <time>2018-12-02T09:59:06Z</time>
      </trkpt>
      <trkpt lat="45.77409" lon="4.80111">
        <ele>204.6</ele>
        <time>2018-12-02T09:59:10Z</time>
      </trkpt>
      <trkpt lat="45.77415" lon="4.8012">
        <ele>205.4</ele>
        <time>2018-12-02T09:59:14Z</time>
      </trkpt>
      <trkpt lat="45.7742" lon="4.80131">
        <ele>206.3</ele>
        <time>2018-12-02T09:59:18Z</time>
      </trkpt>
      <trkpt lat="45.77425" lon="4.80143">
        <ele>207.1</ele>
        <time>2018-12-02T09:59:22Z</time>
      </trkpt>
      <trkpt lat="45.77429" lon="4.80152">
        <ele>207.5</ele>
        <time>2018-12-02T09:59:25Z</time>
      </trkpt>
      <trkpt lat="45.77435" lon="4.80159">
        <ele>208.2</ele>
        <time>2018-12-02T09:59:31Z</time>
      </trkpt>
      <trkpt lat="45.77443" lon="4.80156">
        <ele>208.3</ele>
        <time>2018-12-02T09:59:36Z</time>
      </trkpt>
      <trkpt lat="45.77448" lon="4.80148">
        <ele>208.4</ele>
        <time>2018-12-02T09:59:39Z</time>
      </trkpt>
      <trkpt lat="45.77452" lon="4.80136">
        <ele>208.4</ele>
        <time>2018-12-02T09:59:42Z</time>
      </trkpt>
      <trkpt lat="45.77455" lon="4.80126">
        <ele>208.4</ele>
        <time>2018-12-02T09:59:46Z</time>
      </trkpt>
      <trkpt lat="45.77463" lon="4.80125">
        <ele>208.5</ele>
        <time>2018-12-02T09:59:50Z</time>
      </trkpt>
      <trkpt lat="45.7747" lon="4.80125">
        <ele>208.7</ele>
        <time>2018-12-02T09:59:55Z</time>
      </trkpt>
      <trkpt lat="45.77479" lon="4.80129">
        <ele>208.8</ele>
        <time>2018-12-02T10:00:00Z</time>
      </trkpt>
      <trkpt lat="45.77488" lon="4.80133">
        <ele>208.7</ele>
        <time>2018-12-02T10:00:04Z</time>
      </trkpt>
      <trkpt lat="45.77496" lon="4.80137">
        <ele>208.7</ele>
        <time>2018-12-02T10:00:07Z</time>
      </trkpt>
      <trkpt lat="45.77503" lon="4.80144">
        <ele>208.6</ele>
        <time>2018-12-02T10:00:10Z</time>
      </trkpt>
      <trkpt lat="45.7751" lon="4.80149">
        <ele>208.5</ele>
        <time>2018-12-02T10:00:13Z</time>
      </trkpt>
      <trkpt lat="45.77515" lon="4.80157">
        <ele>208.4</ele>
        <time>2018-12-02T10:00:16Z</time>
      </trkpt>
      <trkpt lat="45.77522" lon="4.80163">
        <ele>208.5</ele>
        <time>2018-12-02T10:00:20Z</time>
      </trkpt>
      <trkpt lat="45.77529" lon="4.80169">
        <ele>208.7</ele>
        <time>2018-12-02T10:00:23Z</time>
      </trkpt>
      <trkpt lat="45.77536" lon="4.80176">
        <ele>209.1</ele>
        <time>2018-12-02T10:00:27Z</time>
      </trkpt>
      <trkpt lat="45.77541" lon="4.80186">
        <ele>209.5</ele>
        <time>2018-12-02T10:00:31Z</time>
      </trkpt>
      <trkpt lat="45.77549" lon="4.80192">
        <ele>209.9</ele>
        <time>2018-12-02T10:00:35Z</time>
      </trkpt>
      <trkpt lat="45.77557" lon="4.80197">
        <ele>210.4</ele>
        <time>2018-12-02T10:00:39Z</time>
      </trkpt>
      <trkpt lat="45.77565" lon="4.80202">
        <ele>210.6</ele>
        <time>2018-12-02T10:00:42Z</time>
      </trkpt>
      <trkpt lat="45.77573" lon="4.80203">
        <ele>210.8</ele>
        <time>2018-12-02T10:00:48Z</time>
      </trkpt>
      <trkpt lat="45.77581" lon="4.80205">
        <ele>211</ele>
        <time>2018-12-02T10:00:54Z</time>
      </trkpt>
      <trkpt lat="45.77589" lon="4.80208">
        <ele>211.1</ele>
        <time>2018-12-02T10:00:57Z</time>
      </trkpt>
      <trkpt lat="45.77596" lon="4.80211">
        <ele>211.1</ele>
        <time>2018-12-02T10:01:00Z</time>
      </trkpt>
      <trkpt lat="45.77604" lon="4.80219">
        <ele>211.1</ele>
        <time>2018-12-02T10:01:04Z</time>
      </trkpt>
      <trkpt lat="45.77612" lon="4.80228">
        <ele>211.2</ele>
        <time>2018-12-02T10:01:07Z</time>
      </trkpt>
      <trkpt lat="45.77617" lon="4.80236">
        <ele>211.4</ele>
        <time>2018-12-02T10:01:10Z</time>
      </trkpt>
      <trkpt lat="45.77624" lon="4.80245">
        <ele>211.4</ele>
        <time>2018-12-02T10:01:14Z</time>
      </trkpt>
      <trkpt lat="45.77629" lon="4.80254">
        <ele>211.1</ele>
        <time>2018-12-02T10:01:18Z</time>
      </trkpt>
      <trkpt lat="45.77636" lon="4.80261">
        <ele>210.9</ele>
        <time>2018-12-02T10:01:21Z</time>
      </trkpt>
      <trkpt lat="45.77642" lon="4.80268">
        <ele>210.7</ele>
        <time>2018-12-02T10:01:24Z</time>
      </trkpt>
      <trkpt lat="45.77647" lon="4.80275">
        <ele>210.7</ele>
        <time>2018-12-02T10:01:27Z</time>
      </trkpt>
      <trkpt lat="45.77654" lon="4.80282">
        <ele>210.9</ele>
        <time>2018-12-02T10:01:32Z</time>
      </trkpt>
      <trkpt lat="45.7766" lon="4.80291">
        <ele>211.2</ele>
        <time>2018-12-02T10:01:37Z</time>
      </trkpt>
      <trkpt lat="45.77666" lon="4.80297">
        <ele>211.3</ele>
        <time>2018-12-02T10:01:40Z</time>
      </trkpt>
      <trkpt lat="45.77672" lon="4.80307">
        <ele>211.3</ele>
        <time>2018-12-02T10:01:44Z</time>
      </trkpt>
      <trkpt lat="45.77678" lon="4.80315">
        <ele>211.2</ele>
        <time>2018-12-02T10:01:47Z</time>
      </trkpt>
      <trkpt lat="45.77683" lon="4.80324">
        <ele>211.1</ele>
        <time>2018-12-02T10:01:50Z</time>
      </trkpt>
      <trkpt lat="45.7769" lon="4.8033">
        <ele>210.9</ele>
        <time>2018-12-02T10:01:54Z</time>
      </trkpt>
      <trkpt lat="45.77697" lon="4.80336">
        <ele>210.8</ele>
        <time>2018-12-02T10:01:58Z</time>
      </trkpt>
      <trkpt lat="45.77701" lon="4.80347">
        <ele>210.7</ele>
        <time>2018-12-02T10:02:02Z</time>
      </trkpt>
      <trkpt lat="45.77706" lon="4.80356">
        <ele>210.6</ele>
        <time>2018-12-02T10:02:08Z</time>
      </trkpt>
      <trkpt lat="45.77713" lon="4.80362">
        <ele>211</ele>
        <time>2018-12-02T10:02:13Z</time>
      </trkpt>
      <trkpt lat="45.7772" lon="4.80368">
        <ele>211.5</ele>
        <time>2018-12-02T10:02:16Z</time>
      </trkpt>
      <trkpt lat="45.77728" lon="4.80376">
        <ele>212.2</ele>
        <time>2018-12-02T10:02:20Z</time>
      </trkpt>
      <trkpt lat="45.77734" lon="4.80385">
        <ele>212.6</ele>
        <time>2018-12-02T10:02:23Z</time>
      </trkpt>
      <trkpt lat="45.7774" lon="4.80394">
        <ele>212.9</ele>
        <time>2018-12-02T10:02:26Z</time>
      </trkpt>
      <trkpt lat="45.77746" lon="4.80402">
        <ele>213.2</ele>
        <time>2018-12-02T10:02:30Z</time>
      </trkpt>
      <trkpt lat="45.7775" lon="4.80414">
        <ele>213.5</ele>
        <time>2018-12-02T10:02:34Z</time>
      </trkpt>
      <trkpt lat="45.77755" lon="4.80422">
        <ele>213.8</ele>
        <time>2018-12-02T10:02:37Z</time>
      </trkpt>
      <trkpt lat="45.77759" lon="4.80432">
        <ele>214.2</ele>
        <time>2018-12-02T10:02:41Z</time>
      </trkpt>
      <trkpt lat="45.77763" lon="4.80444">
        <ele>214.5</ele>
        <time>2018-12-02T10:02:45Z</time>
      </trkpt>
      <trkpt lat="45.77769" lon="4.80454">
        <ele>214.8</ele>
        <time>2018-12-02T10:02:49Z</time>
      </trkpt>
      <trkpt lat="45.77774" lon="4.80463">
        <ele>215</ele>
        <time>2018-12-02T10:02:52Z</time>
      </trkpt>
      <trkpt lat="45.7778" lon="4.80472">
        <ele>215.3</ele>
        <time>2018-12-02T10:02:56Z</time>
      </trkpt>
      <trkpt lat="45.77786" lon="4.80481">
        <ele>215.6</ele>
        <time>2018-12-02T10:03:00Z</time>
      </trkpt>
      <trkpt lat="45.77788" lon="4.8049">
        <ele>215.8</ele>
        <time>2018-12-02T10:03:03Z</time>
      </trkpt>
      <trkpt lat="45.77789" lon="4.80502">
        <ele>216.2</ele>
        <time>2018-12-02T10:03:06Z</time>
      </trkpt>
      <trkpt lat="45.77794" lon="4.80514">
        <ele>216.8</ele>
        <time>2018-12-02T10:03:11Z</time>
      </trkpt>
      <trkpt lat="45.77796" lon="4.80524">
        <ele>217.6</ele>
        <time>2018-12-02T10:03:15Z</time>
      </trkpt>
      <trkpt lat="45.77794" lon="4.80535">
        <ele>218.3</ele>
        <time>2018-12-02T10:03:22Z</time>
      </trkpt>
      <trkpt lat="45.77791" lon="4.80533">
        <ele>218.8</ele>
        <time>2018-12-02T10:03:29Z</time>
      </trkpt>
      <trkpt lat="45.77791" lon="4.80544">
        <ele>219.8</ele>
        <time>2018-12-02T10:03:36Z</time>
      </trkpt>
      <trkpt lat="45.77795" lon="4.80555">
        <ele>220.3</ele>
        <time>2018-12-02T10:03:40Z</time>
      </trkpt>
      <trkpt lat="45.77802" lon="4.80564">
        <ele>220.7</ele>
        <time>2018-12-02T10:03:44Z</time>
      </trkpt>
      <trkpt lat="45.77807" lon="4.80573">
        <ele>220.8</ele>
        <time>2018-12-02T10:03:48Z</time>
      </trkpt>
      <trkpt lat="45.77814" lon="4.80578">
        <ele>221</ele>
        <time>2018-12-02T10:03:52Z</time>
      </trkpt>
      <trkpt lat="45.77821" lon="4.80584">
        <ele>221.3</ele>
        <time>2018-12-02T10:03:57Z</time>
      </trkpt>
      <trkpt lat="45.77825" lon="4.80594">
        <ele>221.4</ele>
        <time>2018-12-02T10:04:02Z</time>
      </trkpt>
      <trkpt lat="45.77828" lon="4.80604">
        <ele>221.4</ele>
        <time>2018-12-02T10:04:05Z</time>
      </trkpt>
      <trkpt lat="45.77832" lon="4.80615">
        <ele>221.4</ele>
        <time>2018-12-02T10:04:10Z</time>
      </trkpt>
      <trkpt lat="45.77837" lon="4.80624">
        <ele>221.3</ele>
        <time>2018-12-02T10:04:14Z</time>
      </trkpt>
      <trkpt lat="45.77841" lon="4.80634">
        <ele>220.9</ele>
        <time>2018-12-02T10:04:18Z</time>
      </trkpt>
      <trkpt lat="45.77846" lon="4.80646">
        <ele>220.4</ele>
        <time>2018-12-02T10:04:22Z</time>
      </trkpt>
      <trkpt lat="45.7785" lon="4.80655">
        <ele>220</ele>
        <time>2018-12-02T10:04:26Z</time>
      </trkpt>
      <trkpt lat="45.77853" lon="4.80668">
        <ele>219.6</ele>
        <time>2018-12-02T10:04:31Z</time>
      </trkpt>
      <trkpt lat="45.77856" lon="4.80681">
        <ele>219.2</ele>
        <time>2018-12-02T10:04:35Z</time>
      </trkpt>
      <trkpt lat="45.77857" lon="4.80694">
        <ele>218.8</ele>
        <time>2018-12-02T10:04:39Z</time>
      </trkpt>
      <trkpt lat="45.77855" lon="4.80705">
        <ele>218.6</ele>
        <time>2018-12-02T10:04:42Z</time>
      </trkpt>
      <trkpt lat="45.77857" lon="4.80715">
        <ele>218.2</ele>
        <time>2018-12-02T10:04:46Z</time>
      </trkpt>
      <trkpt lat="45.77859" lon="4.80727">
        <ele>218.2</ele>
        <time>2018-12-02T10:04:50Z</time>
      </trkpt>
      <trkpt lat="45.7786" lon="4.80738">
        <ele>218.3</ele>
        <time>2018-12-02T10:04:54Z</time>
      </trkpt>
      <trkpt lat="45.7786" lon="4.80751">
        <ele>218.7</ele>
        <time>2018-12-02T10:04:58Z</time>
      </trkpt>
      <trkpt lat="45.7786" lon="4.80763">
        <ele>219.2</ele>
        <time>2018-12-02T10:05:02Z</time>
      </trkpt>
      <trkpt lat="45.77861" lon="4.80775">
        <ele>219.6</ele>
        <time>2018-12-02T10:05:08Z</time>
      </trkpt>
      <trkpt lat="45.77858" lon="4.80785">
        <ele>219.4</ele>
        <time>2018-12-02T10:05:13Z</time>
      </trkpt>
      <trkpt lat="45.77859" lon="4.80798">
        <ele>219.1</ele>
        <time>2018-12-02T10:05:17Z</time>
      </trkpt>
      <trkpt lat="45.77857" lon="4.80811">
        <ele>218.8</ele>
        <time>2018-12-02T10:05:20Z</time>
      </trkpt>
      <trkpt lat="45.77855" lon="4.80822">
        <ele>218.5</ele>
        <time>2018-12-02T10:05:23Z</time>
      </trkpt>
      <trkpt lat="45.77853" lon="4.80832">
        <ele>218.2</ele>
        <time>2018-12-02T10:05:26Z</time>
      </trkpt>
      <trkpt lat="45.7785" lon="4.80843">
        <ele>218</ele>
        <time>2018-12-02T10:05:29Z</time>
      </trkpt>
      <trkpt lat="45.77848" lon="4.80854">
        <ele>217.9</ele>
        <time>2018-12-02T10:05:32Z</time>
      </trkpt>
      <trkpt lat="45.77845" lon="4.80864">
        <ele>217.8</ele>
        <time>2018-12-02T10:05:35Z</time>
      </trkpt>
      <trkpt lat="45.77843" lon="4.80876">
        <ele>217.7</ele>
        <time>2018-12-02T10:05:39Z</time>
      </trkpt>
      <trkpt lat="45.7784" lon="4.80888">
        <ele>217.7</ele>
        <time>2018-12-02T10:05:43Z</time>
      </trkpt>
      <trkpt lat="45.7784" lon="4.80898">
        <ele>217.7</ele>
        <time>2018-12-02T10:05:47Z</time>
      </trkpt>
      <trkpt lat="45.77839" lon="4.8091">
        <ele>217.8</ele>
        <time>2018-12-02T10:05:51Z</time>
      </trkpt>
      <trkpt lat="45.77837" lon="4.80921">
        <ele>217.9</ele>
        <time>2018-12-02T10:05:55Z</time>
      </trkpt>
      <trkpt lat="45.77834" lon="4.80932">
        <ele>218</ele>
        <time>2018-12-02T10:05:58Z</time>
      </trkpt>
      <trkpt lat="45.77832" lon="4.80943">
        <ele>218</ele>
        <time>2018-12-02T10:06:01Z</time>
      </trkpt>
      <trkpt lat="45.77831" lon="4.80955">
        <ele>218</ele>
        <time>2018-12-02T10:06:04Z</time>
      </trkpt>
      <trkpt lat="45.77829" lon="4.80965">
        <ele>218</ele>
        <time>2018-12-02T10:06:07Z</time>
      </trkpt>
      <trkpt lat="45.77826" lon="4.80975">
        <ele>218.1</ele>
        <time>2018-12-02T10:06:10Z</time>
      </trkpt>
      <trkpt lat="45.77825" lon="4.80985">
        <ele>218.2</ele>
        <time>2018-12-02T10:06:13Z</time>
      </trkpt>
      <trkpt lat="45.77823" lon="4.80997">
        <ele>218.4</ele>
        <time>2018-12-02T10:06:17Z</time>
      </trkpt>
      <trkpt lat="45.77821" lon="4.8101">
        <ele>218.6</ele>
        <time>2018-12-02T10:06:21Z</time>
      </trkpt>
      <trkpt lat="45.77819" lon="4.81023">
        <ele>218.8</ele>
        <time>2018-12-02T10:06:25Z</time>
      </trkpt>
      <trkpt lat="45.77817" lon="4.81035">
        <ele>219</ele>
        <time>2018-12-02T10:06:29Z</time>
      </trkpt>
      <trkpt lat="45.77814" lon="4.81046">
        <ele>219.2</ele>
        <time>2018-12-02T10:06:32Z</time>
      </trkpt>
      <trkpt lat="45.77814" lon="4.81057">
        <ele>219.3</ele>
        <time>2018-12-02T10:06:36Z</time>
      </trkpt>
      <trkpt lat="45.7782" lon="4.81064">
        <ele>219.4</ele>
        <time>2018-12-02T10:06:40Z</time>
      </trkpt>
      <trkpt lat="45.77826" lon="4.8107">
        <ele>219.4</ele>
        <time>2018-12-02T10:06:43Z</time>
      </trkpt>
      <trkpt lat="45.77833" lon="4.81077">
        <ele>219.4</ele>
        <time>2018-12-02T10:06:46Z</time>
      </trkpt>
      <trkpt lat="45.7784" lon="4.81087">
        <ele>219.5</ele>
        <time>2018-12-02T10:06:50Z</time>
      </trkpt>
      <trkpt lat="45.77847" lon="4.81092">
        <ele>219.6</ele>
        <time>2018-12-02T10:06:53Z</time>
      </trkpt>
      <trkpt lat="45.77856" lon="4.81097">
        <ele>219.9</ele>
        <time>2018-12-02T10:06:57Z</time>
      </trkpt>
      <trkpt lat="45.77863" lon="4.811">
        <ele>220.3</ele>
        <time>2018-12-02T10:07:01Z</time>
      </trkpt>
      <trkpt lat="45.77871" lon="4.81101">
        <ele>220.7</ele>
        <time>2018-12-02T10:07:04Z</time>
      </trkpt>
      <trkpt lat="45.77879" lon="4.81103">
        <ele>221.1</ele>
        <time>2018-12-02T10:07:07Z</time>
      </trkpt>
      <trkpt lat="45.77887" lon="4.81105">
        <ele>221.5</ele>
        <time>2018-12-02T10:07:10Z</time>
      </trkpt>
      <trkpt lat="45.77895" lon="4.81108">
        <ele>221.9</ele>
        <time>2018-12-02T10:07:13Z</time>
      </trkpt>
      <trkpt lat="45.77902" lon="4.8111">
        <ele>222.1</ele>
        <time>2018-12-02T10:07:16Z</time>
      </trkpt>
      <trkpt lat="45.7791" lon="4.81111">
        <ele>222.3</ele>
        <time>2018-12-02T10:07:20Z</time>
      </trkpt>
      <trkpt lat="45.77904" lon="4.81101">
        <ele>222.4</ele>
        <time>2018-12-02T10:07:26Z</time>
      </trkpt>
      <trkpt lat="45.77895" lon="4.81095">
        <ele>222.3</ele>
        <time>2018-12-02T10:07:30Z</time>
      </trkpt>
      <trkpt lat="45.77889" lon="4.81089">
        <ele>222.2</ele>
        <time>2018-12-02T10:07:33Z</time>
      </trkpt>
      <trkpt lat="45.77881" lon="4.81083">
        <ele>222</ele>
        <time>2018-12-02T10:07:37Z</time>
      </trkpt>
      <trkpt lat="45.77874" lon="4.81077">
        <ele>221.9</ele>
        <time>2018-12-02T10:07:40Z</time>
      </trkpt>
      <trkpt lat="45.77867" lon="4.81071">
        <ele>221.7</ele>
        <time>2018-12-02T10:07:43Z</time>
      </trkpt>
      <trkpt lat="45.77861" lon="4.81067">
        <ele>221.6</ele>
        <time>2018-12-02T10:07:46Z</time>
      </trkpt>
      <trkpt lat="45.77852" lon="4.8106">
        <ele>221.3</ele>
        <time>2018-12-02T10:07:50Z</time>
      </trkpt>
      <trkpt lat="45.77844" lon="4.81053">
        <ele>220.8</ele>
        <time>2018-12-02T10:07:54Z</time>
      </trkpt>
      <trkpt lat="45.77837" lon="4.81048">
        <ele>220.3</ele>
        <time>2018-12-02T10:07:57Z</time>
      </trkpt>
      <trkpt lat="45.77828" lon="4.81044">
        <ele>219.5</ele>
        <time>2018-12-02T10:08:01Z</time>
      </trkpt>
      <trkpt lat="45.77822" lon="4.81038">
        <ele>219</ele>
        <time>2018-12-02T10:08:04Z</time>
      </trkpt>
      <trkpt lat="45.77813" lon="4.81037">
        <ele>218.5</ele>
        <time>2018-12-02T10:08:08Z</time>
      </trkpt>
      <trkpt lat="45.77804" lon="4.81033">
        <ele>218.2</ele>
        <time>2018-12-02T10:08:12Z</time>
      </trkpt>
      <trkpt lat="45.77796" lon="4.81031">
        <ele>218.1</ele>
        <time>2018-12-02T10:08:16Z</time>
      </trkpt>
      <trkpt lat="45.77788" lon="4.81029">
        <ele>218.1</ele>
        <time>2018-12-02T10:08:20Z</time>
      </trkpt>
      <trkpt lat="45.77781" lon="4.81027">
        <ele>218.1</ele>
        <time>2018-12-02T10:08:24Z</time>
      </trkpt>
      <trkpt lat="45.77774" lon="4.81028">
        <ele>218.1</ele>
        <time>2018-12-02T10:08:28Z</time>
      </trkpt>
      <trkpt lat="45.77766" lon="4.81026">
        <ele>218.1</ele>
        <time>2018-12-02T10:08:32Z</time>
      </trkpt>
      <trkpt lat="45.77758" lon="4.81023">
        <ele>217.8</ele>
        <time>2018-12-02T10:08:36Z</time>
      </trkpt>
      <trkpt lat="45.7775" lon="4.81021">
        <ele>217.6</ele>
        <time>2018-12-02T10:08:40Z</time>
      </trkpt>
      <trkpt lat="45.77742" lon="4.8102">
        <ele>217.1</ele>
        <time>2018-12-02T10:08:44Z</time>
      </trkpt>
      <trkpt lat="45.77733" lon="4.81019">
        <ele>216.4</ele>
        <time>2018-12-02T10:08:49Z</time>
      </trkpt>
      <trkpt lat="45.77725" lon="4.81014">
        <ele>215.9</ele>
        <time>2018-12-02T10:08:53Z</time>
      </trkpt>
      <trkpt lat="45.77716" lon="4.81012">
        <ele>215.6</ele>
        <time>2018-12-02T10:08:57Z</time>
      </trkpt>
      <trkpt lat="45.77707" lon="4.81011">
        <ele>215.4</ele>
        <time>2018-12-02T10:09:01Z</time>
      </trkpt>
      <trkpt lat="45.777" lon="4.81008">
        <ele>215.3</ele>
        <time>2018-12-02T10:09:05Z</time>
      </trkpt>
      <trkpt lat="45.77693" lon="4.81007">
        <ele>215.4</ele>
        <time>2018-12-02T10:09:08Z</time>
      </trkpt>
      <trkpt lat="45.77685" lon="4.81007">
        <ele>215.5</ele>
        <time>2018-12-02T10:09:11Z</time>
      </trkpt>
      <trkpt lat="45.77678" lon="4.81005">
        <ele>215.8</ele>
        <time>2018-12-02T10:09:15Z</time>
      </trkpt>
      <trkpt lat="45.77669" lon="4.81006">
        <ele>216</ele>
        <time>2018-12-02T10:09:19Z</time>
      </trkpt>
      <trkpt lat="45.7766" lon="4.81007">
        <ele>216.2</ele>
        <time>2018-12-02T10:09:23Z</time>
      </trkpt>
      <trkpt lat="45.77651" lon="4.81009">
        <ele>216.2</ele>
        <time>2018-12-02T10:09:27Z</time>
      </trkpt>
      <trkpt lat="45.77642" lon="4.81009">
        <ele>216.1</ele>
        <time>2018-12-02T10:09:31Z</time>
      </trkpt>
      <trkpt lat="45.77635" lon="4.81008">
        <ele>215.9</ele>
        <time>2018-12-02T10:09:34Z</time>
      </trkpt>
      <trkpt lat="45.77627" lon="4.81008">
        <ele>215.7</ele>
        <time>2018-12-02T10:09:37Z</time>
      </trkpt>
      <trkpt lat="45.77619" lon="4.81007">
        <ele>215.5</ele>
        <time>2018-12-02T10:09:40Z</time>
      </trkpt>
      <trkpt lat="45.7761" lon="4.81008">
        <ele>215.1</ele>
        <time>2018-12-02T10:09:44Z</time>
      </trkpt>
      <trkpt lat="45.77602" lon="4.81009">
        <ele>215</ele>
        <time>2018-12-02T10:09:48Z</time>
      </trkpt>
      <trkpt lat="45.77592" lon="4.81008">
        <ele>214.9</ele>
        <time>2018-12-02T10:09:52Z</time>
      </trkpt>
      <trkpt lat="45.77584" lon="4.81008">
        <ele>215</ele>
        <time>2018-12-02T10:09:56Z</time>
      </trkpt>
      <trkpt lat="45.77577" lon="4.81008">
        <ele>215</ele>
        <time>2018-12-02T10:09:59Z</time>
      </trkpt>
      <trkpt lat="45.77568" lon="4.81009">
        <ele>215</ele>
        <time>2018-12-02T10:10:03Z</time>
      </trkpt>
      <trkpt lat="45.77559" lon="4.81009">
        <ele>215.1</ele>
        <time>2018-12-02T10:10:07Z</time>
      </trkpt>
      <trkpt lat="45.77552" lon="4.81011">
        <ele>215.2</ele>
        <time>2018-12-02T10:10:11Z</time>
      </trkpt>
      <trkpt lat="45.77544" lon="4.81014">
        <ele>215.4</ele>
        <time>2018-12-02T10:10:15Z</time>
      </trkpt>
      <trkpt lat="45.77536" lon="4.81016">
        <ele>215.9</ele>
        <time>2018-12-02T10:10:19Z</time>
      </trkpt>
      <trkpt lat="45.77528" lon="4.81019">
        <ele>216.4</ele>
        <time>2018-12-02T10:10:23Z</time>
      </trkpt>
      <trkpt lat="45.77521" lon="4.8102">
        <ele>216.8</ele>
        <time>2018-12-02T10:10:26Z</time>
      </trkpt>
      <trkpt lat="45.77512" lon="4.81023">
        <ele>217.3</ele>
        <time>2018-12-02T10:10:30Z</time>
      </trkpt>
      <trkpt lat="45.77505" lon="4.81028">
        <ele>217.5</ele>
        <time>2018-12-02T10:10:33Z</time>
      </trkpt>
      <trkpt lat="45.77498" lon="4.81032">
        <ele>217.7</ele>
        <time>2018-12-02T10:10:37Z</time>
      </trkpt>
      <trkpt lat="45.7749" lon="4.81034">
        <ele>217.6</ele>
        <time>2018-12-02T10:10:42Z</time>
      </trkpt>
      <trkpt lat="45.77484" lon="4.81041">
        <ele>217.4</ele>
        <time>2018-12-02T10:10:47Z</time>
      </trkpt>
      <trkpt lat="45.77477" lon="4.81048">
        <ele>217.4</ele>
        <time>2018-12-02T10:10:51Z</time>
      </trkpt>
      <trkpt lat="45.77471" lon="4.81053">
        <ele>217.5</ele>
        <time>2018-12-02T10:10:53Z</time>
      </trkpt>
      <trkpt lat="45.77462" lon="4.81058">
        <ele>217.5</ele>
        <time>2018-12-02T10:10:56Z</time>
      </trkpt>
      <trkpt lat="45.77455" lon="4.81062">
        <ele>217.5</ele>
        <time>2018-12-02T10:10:59Z</time>
      </trkpt>
      <trkpt lat="45.77448" lon="4.81067">
        <ele>217.6</ele>
        <time>2018-12-02T10:11:02Z</time>
      </trkpt>
      <trkpt lat="45.77442" lon="4.81075">
        <ele>217.6</ele>
        <time>2018-12-02T10:11:05Z</time>
      </trkpt>
      <trkpt lat="45.77434" lon="4.81079">
        <ele>217.6</ele>
        <time>2018-12-02T10:11:09Z</time>
      </trkpt>
      <trkpt lat="45.77425" lon="4.81085">
        <ele>217.6</ele>
        <time>2018-12-02T10:11:13Z</time>
      </trkpt>
      <trkpt lat="45.77419" lon="4.81092">
        <ele>217.5</ele>
        <time>2018-12-02T10:11:17Z</time>
      </trkpt>
      <trkpt lat="45.77411" lon="4.81099">
        <ele>217.4</ele>
        <time>2018-12-02T10:11:21Z</time>
      </trkpt>
      <trkpt lat="45.77406" lon="4.81106">
        <ele>217.4</ele>
        <time>2018-12-02T10:11:24Z</time>
      </trkpt>
      <trkpt lat="45.774" lon="4.81116">
        <ele>217.5</ele>
        <time>2018-12-02T10:11:28Z</time>
      </trkpt>
      <trkpt lat="45.77394" lon="4.81125">
        <ele>217.6</ele>
        <time>2018-12-02T10:11:32Z</time>
      </trkpt>
      <trkpt lat="45.77389" lon="4.81135">
        <ele>217.6</ele>
        <time>2018-12-02T10:11:36Z</time>
      </trkpt>
      <trkpt lat="45.77384" lon="4.81146">
        <ele>217.5</ele>
        <time>2018-12-02T10:11:40Z</time>
      </trkpt>
      <trkpt lat="45.77378" lon="4.81156">
        <ele>217.5</ele>
        <time>2018-12-02T10:11:44Z</time>
      </trkpt>
      <trkpt lat="45.77371" lon="4.81165">
        <ele>217.5</ele>
        <time>2018-12-02T10:11:48Z</time>
      </trkpt>
      <trkpt lat="45.77366" lon="4.81174">
        <ele>217.5</ele>
        <time>2018-12-02T10:11:52Z</time>
      </trkpt>
      <trkpt lat="45.7736" lon="4.81183">
        <ele>217.5</ele>
        <time>2018-12-02T10:11:56Z</time>
      </trkpt>
      <trkpt lat="45.77353" lon="4.81193">
        <ele>217.4</ele>
        <time>2018-12-02T10:12:00Z</time>
      </trkpt>
      <trkpt lat="45.77348" lon="4.81199">
        <ele>217.4</ele>
        <time>2018-12-02T10:12:03Z</time>
      </trkpt>
      <trkpt lat="45.77341" lon="4.81207">
        <ele>217.3</ele>
        <time>2018-12-02T10:12:07Z</time>
      </trkpt>
      <trkpt lat="45.77334" lon="4.81216">
        <ele>217.1</ele>
        <time>2018-12-02T10:12:11Z</time>
      </trkpt>
      <trkpt lat="45.77329" lon="4.81223">
        <ele>216.9</ele>
        <time>2018-12-02T10:12:14Z</time>
      </trkpt>
      <trkpt lat="45.77324" lon="4.81231">
        <ele>216.6</ele>
        <time>2018-12-02T10:12:18Z</time>
      </trkpt>
      <trkpt lat="45.77318" lon="4.81239">
        <ele>216.1</ele>
        <time>2018-12-02T10:12:22Z</time>
      </trkpt>
      <trkpt lat="45.77311" lon="4.81247">
        <ele>215.7</ele>
        <time>2018-12-02T10:12:26Z</time>
      </trkpt>
      <trkpt lat="45.77305" lon="4.81255">
        <ele>215.3</ele>
        <time>2018-12-02T10:12:30Z</time>
      </trkpt>
      <trkpt lat="45.77298" lon="4.81263">
        <ele>215</ele>
        <time>2018-12-02T10:12:34Z</time>
      </trkpt>
      <trkpt lat="45.7729" lon="4.81271">
        <ele>214.6</ele>
        <time>2018-12-02T10:12:38Z</time>
      </trkpt>
      <trkpt lat="45.77283" lon="4.81278">
        <ele>214.4</ele>
        <time>2018-12-02T10:12:42Z</time>
      </trkpt>
      <trkpt lat="45.77277" lon="4.81284">
        <ele>214.1</ele>
        <time>2018-12-02T10:12:46Z</time>
      </trkpt>
      <trkpt lat="45.7727" lon="4.81291">
        <ele>213.9</ele>
        <time>2018-12-02T10:12:51Z</time>
      </trkpt>
      <trkpt lat="45.77264" lon="4.81297">
        <ele>213.8</ele>
        <time>2018-12-02T10:12:55Z</time>
      </trkpt>
      <trkpt lat="45.77255" lon="4.81302">
        <ele>213.7</ele>
        <time>2018-12-02T10:12:59Z</time>
      </trkpt>
      <trkpt lat="45.77247" lon="4.81309">
        <ele>213.6</ele>
        <time>2018-12-02T10:13:03Z</time>
      </trkpt>
      <trkpt lat="45.7724" lon="4.81314">
        <ele>213.5</ele>
        <time>2018-12-02T10:13:07Z</time>
      </trkpt>
      <trkpt lat="45.77231" lon="4.81319">
        <ele>213.5</ele>
        <time>2018-12-02T10:13:11Z</time>
      </trkpt>
      <trkpt lat="45.77222" lon="4.81323">
        <ele>213.5</ele>
        <time>2018-12-02T10:13:15Z</time>
      </trkpt>
      <trkpt lat="45.77214" lon="4.81329">
        <ele>213.5</ele>
        <time>2018-12-02T10:13:19Z</time>
      </trkpt>
      <trkpt lat="45.77207" lon="4.81333">
        <ele>213.5</ele>
        <time>2018-12-02T10:13:23Z</time>
      </trkpt>
      <trkpt lat="45.77199" lon="4.81336">
        <ele>213.7</ele>
        <time>2018-12-02T10:13:27Z</time>
      </trkpt>
      <trkpt lat="45.77191" lon="4.81341">
        <ele>213.9</ele>
        <time>2018-12-02T10:13:31Z</time>
      </trkpt>
      <trkpt lat="45.77183" lon="4.81346">
        <ele>213.9</ele>
        <time>2018-12-02T10:13:34Z</time>
      </trkpt>
      <trkpt lat="45.77175" lon="4.8135">
        <ele>213.9</ele>
        <time>2018-12-02T10:13:38Z</time>
      </trkpt>
      <trkpt lat="45.77167" lon="4.81354">
        <ele>213.8</ele>
        <time>2018-12-02T10:13:42Z</time>
      </trkpt>
      <trkpt lat="45.77159" lon="4.81358">
        <ele>213.6</ele>
        <time>2018-12-02T10:13:46Z</time>
      </trkpt>
      <trkpt lat="45.7715" lon="4.81359">
        <ele>213.5</ele>
        <time>2018-12-02T10:13:51Z</time>
      </trkpt>
      <trkpt lat="45.77141" lon="4.81361">
        <ele>213.6</ele>
        <time>2018-12-02T10:13:55Z</time>
      </trkpt>
      <trkpt lat="45.77133" lon="4.81365">
        <ele>213.8</ele>
        <time>2018-12-02T10:13:59Z</time>
      </trkpt>
      <trkpt lat="45.77124" lon="4.81368">
        <ele>214.2</ele>
        <time>2018-12-02T10:14:03Z</time>
      </trkpt>
      <trkpt lat="45.77116" lon="4.81371">
        <ele>214.7</ele>
        <time>2018-12-02T10:14:07Z</time>
      </trkpt>
      <trkpt lat="45.77109" lon="4.81375">
        <ele>215.1</ele>
        <time>2018-12-02T10:14:10Z</time>
      </trkpt>
      <trkpt lat="45.77101" lon="4.81379">
        <ele>215.5</ele>
        <time>2018-12-02T10:14:14Z</time>
      </trkpt>
      <trkpt lat="45.77094" lon="4.81383">
        <ele>215.8</ele>
        <time>2018-12-02T10:14:18Z</time>
      </trkpt>
      <trkpt lat="45.77086" lon="4.8139">
        <ele>216</ele>
        <time>2018-12-02T10:14:22Z</time>
      </trkpt>
      <trkpt lat="45.77078" lon="4.81393">
        <ele>216.1</ele>
        <time>2018-12-02T10:14:25Z</time>
      </trkpt>
      <trkpt lat="45.77071" lon="4.81395">
        <ele>216.2</ele>
        <time>2018-12-02T10:14:28Z</time>
      </trkpt>
      <trkpt lat="45.77063" lon="4.81396">
        <ele>216.3</ele>
        <time>2018-12-02T10:14:32Z</time>
      </trkpt>
      <trkpt lat="45.77054" lon="4.81398">
        <ele>216.3</ele>
        <time>2018-12-02T10:14:36Z</time>
      </trkpt>
      <trkpt lat="45.77045" lon="4.81398">
        <ele>216.4</ele>
        <time>2018-12-02T10:14:40Z</time>
      </trkpt>
      <trkpt lat="45.77038" lon="4.81403">
        <ele>216.5</ele>
        <time>2018-12-02T10:14:44Z</time>
      </trkpt>
      <trkpt lat="45.7703" lon="4.81407">
        <ele>216.8</ele>
        <time>2018-12-02T10:14:49Z</time>
      </trkpt>
      <trkpt lat="45.77021" lon="4.81407">
        <ele>217.2</ele>
        <time>2018-12-02T10:14:53Z</time>
      </trkpt>
      <trkpt lat="45.77013" lon="4.81406">
        <ele>217.6</ele>
        <time>2018-12-02T10:14:56Z</time>
      </trkpt>
      <trkpt lat="45.77006" lon="4.81408">
        <ele>218.2</ele>
        <time>2018-12-02T10:14:59Z</time>
      </trkpt>
      <trkpt lat="45.76999" lon="4.81412">
        <ele>218.7</ele>
        <time>2018-12-02T10:15:02Z</time>
      </trkpt>
      <trkpt lat="45.76992" lon="4.8142">
        <ele>219.3</ele>
        <time>2018-12-02T10:15:06Z</time>
      </trkpt>
      <trkpt lat="45.76984" lon="4.81425">
        <ele>219.8</ele>
        <time>2018-12-02T10:15:10Z</time>
      </trkpt>
      <trkpt lat="45.76977" lon="4.81431">
        <ele>220.1</ele>
        <time>2018-12-02T10:15:14Z</time>
      </trkpt>
      <trkpt lat="45.76969" lon="4.81436">
        <ele>220.2</ele>
        <time>2018-12-02T10:15:18Z</time>
      </trkpt>
      <trkpt lat="45.76962" lon="4.8144">
        <ele>220.3</ele>
        <time>2018-12-02T10:15:21Z</time>
      </trkpt>
      <trkpt lat="45.76954" lon="4.81444">
        <ele>220.4</ele>
        <time>2018-12-02T10:15:25Z</time>
      </trkpt>
      <trkpt lat="45.76946" lon="4.81447">
        <ele>220.3</ele>
        <time>2018-12-02T10:15:29Z</time>
      </trkpt>
      <trkpt lat="45.76937" lon="4.81451">
        <ele>220.2</ele>
        <time>2018-12-02T10:15:33Z</time>
      </trkpt>
      <trkpt lat="45.76929" lon="4.81455">
        <ele>220.1</ele>
        <time>2018-12-02T10:15:37Z</time>
      </trkpt>
      <trkpt lat="45.76921" lon="4.81458">
        <ele>220</ele>
        <time>2018-12-02T10:15:40Z</time>
      </trkpt>
      <trkpt lat="45.76913" lon="4.81462">
        <ele>219.9</ele>
        <time>2018-12-02T10:15:44Z</time>
      </trkpt>
      <trkpt lat="45.76905" lon="4.81465">
        <ele>219.7</ele>
        <time>2018-12-02T10:15:47Z</time>
      </trkpt>
      <trkpt lat="45.76897" lon="4.81468">
        <ele>219.5</ele>
        <time>2018-12-02T10:15:51Z</time>
      </trkpt>
      <trkpt lat="45.7689" lon="4.81472">
        <ele>219.4</ele>
        <time>2018-12-02T10:15:55Z</time>
      </trkpt>
      <trkpt lat="45.76882" lon="4.81478">
        <ele>219.3</ele>
        <time>2018-12-02T10:15:58Z</time>
      </trkpt>
      <trkpt lat="45.76873" lon="4.81482">
        <ele>219.3</ele>
        <time>2018-12-02T10:16:02Z</time>
      </trkpt>
      <trkpt lat="45.76867" lon="4.81489">
        <ele>219.3</ele>
        <time>2018-12-02T10:16:06Z</time>
      </trkpt>
      <trkpt lat="45.7686" lon="4.81496">
        <ele>219.5</ele>
        <time>2018-12-02T10:16:10Z</time>
      </trkpt>
      <trkpt lat="45.76854" lon="4.81504">
        <ele>219.6</ele>
        <time>2018-12-02T10:16:14Z</time>
      </trkpt>
      <trkpt lat="45.76848" lon="4.81512">
        <ele>219.6</ele>
        <time>2018-12-02T10:16:18Z</time>
      </trkpt>
      <trkpt lat="45.76842" lon="4.81518">
        <ele>219.7</ele>
        <time>2018-12-02T10:16:21Z</time>
      </trkpt>
      <trkpt lat="45.76836" lon="4.81526">
        <ele>219.7</ele>
        <time>2018-12-02T10:16:24Z</time>
      </trkpt>
      <trkpt lat="45.76831" lon="4.81534">
        <ele>219.7</ele>
        <time>2018-12-02T10:16:28Z</time>
      </trkpt>
      <trkpt lat="45.76828" lon="4.81546">
        <ele>219.8</ele>
        <time>2018-12-02T10:16:32Z</time>
      </trkpt>
      <trkpt lat="45.76825" lon="4.81557">
        <ele>219.9</ele>
        <time>2018-12-02T10:16:35Z</time>
      </trkpt>
      <trkpt lat="45.7682" lon="4.81566">
        <ele>220</ele>
        <time>2018-12-02T10:16:38Z</time>
      </trkpt>
      <trkpt lat="45.76815" lon="4.81577">
        <ele>220.1</ele>
        <time>2018-12-02T10:16:42Z</time>
      </trkpt>
      <trkpt lat="45.7681" lon="4.81585">
        <ele>220.2</ele>
        <time>2018-12-02T10:16:45Z</time>
      </trkpt>
      <trkpt lat="45.76807" lon="4.81596">
        <ele>220.4</ele>
        <time>2018-12-02T10:16:49Z</time>
      </trkpt>
      <trkpt lat="45.76804" lon="4.81606">
        <ele>220.4</ele>
        <time>2018-12-02T10:16:53Z</time>
      </trkpt>
      <trkpt lat="45.76801" lon="4.81617">
        <ele>220.3</ele>
        <time>2018-12-02T10:16:57Z</time>
      </trkpt>
      <trkpt lat="45.76799" lon="4.8163">
        <ele>220</ele>
        <time>2018-12-02T10:17:01Z</time>
      </trkpt>
      <trkpt lat="45.76795" lon="4.81639">
        <ele>219.3</ele>
        <time>2018-12-02T10:17:06Z</time>
      </trkpt>
      <trkpt lat="45.7679" lon="4.81647">
        <ele>218.7</ele>
        <time>2018-12-02T10:17:09Z</time>
      </trkpt>
      <trkpt lat="45.76788" lon="4.81657">
        <ele>218.2</ele>
        <time>2018-12-02T10:17:12Z</time>
      </trkpt>
      <trkpt lat="45.76784" lon="4.81668">
        <ele>217.5</ele>
        <time>2018-12-02T10:17:16Z</time>
      </trkpt>
      <trkpt lat="45.7678" lon="4.8168">
        <ele>216.8</ele>
        <time>2018-12-02T10:17:20Z</time>
      </trkpt>
      <trkpt lat="45.76778" lon="4.81692">
        <ele>216.3</ele>
        <time>2018-12-02T10:17:24Z</time>
      </trkpt>
      <trkpt lat="45.76777" lon="4.81702">
        <ele>215.9</ele>
        <time>2018-12-02T10:17:27Z</time>
      </trkpt>
      <trkpt lat="45.76775" lon="4.81713">
        <ele>215.5</ele>
        <time>2018-12-02T10:17:30Z</time>
      </trkpt>
      <trkpt lat="45.76773" lon="4.81725">
        <ele>215</ele>
        <time>2018-12-02T10:17:34Z</time>
      </trkpt>
      <trkpt lat="45.76768" lon="4.81736">
        <ele>214.5</ele>
        <time>2018-12-02T10:17:38Z</time>
      </trkpt>
      <trkpt lat="45.76767" lon="4.81747">
        <ele>214.2</ele>
        <time>2018-12-02T10:17:42Z</time>
      </trkpt>
      <trkpt lat="45.76763" lon="4.81757">
        <ele>213.9</ele>
        <time>2018-12-02T10:17:47Z</time>
      </trkpt>
      <trkpt lat="45.76761" lon="4.81767">
        <ele>213.8</ele>
        <time>2018-12-02T10:17:50Z</time>
      </trkpt>
      <trkpt lat="45.76758" lon="4.8178">
        <ele>213.5</ele>
        <time>2018-12-02T10:17:54Z</time>
      </trkpt>
      <trkpt lat="45.76757" lon="4.81793">
        <ele>213.3</ele>
        <time>2018-12-02T10:17:58Z</time>
      </trkpt>
      <trkpt lat="45.76756" lon="4.81804">
        <ele>213.2</ele>
        <time>2018-12-02T10:18:02Z</time>
      </trkpt>
      <trkpt lat="45.76754" lon="4.81816">
        <ele>213.1</ele>
        <time>2018-12-02T10:18:06Z</time>
      </trkpt>
      <trkpt lat="45.76752" lon="4.81827">
        <ele>213.1</ele>
        <time>2018-12-02T10:18:09Z</time>
      </trkpt>
      <trkpt lat="45.76751" lon="4.81838">
        <ele>213.2</ele>
        <time>2018-12-02T10:18:12Z</time>
      </trkpt>
      <trkpt lat="45.76751" lon="4.81849">
        <ele>213.3</ele>
        <time>2018-12-02T10:18:16Z</time>
      </trkpt>
      <trkpt lat="45.7675" lon="4.81859">
        <ele>213.3</ele>
        <time>2018-12-02T10:18:20Z</time>
      </trkpt>
      <trkpt lat="45.7675" lon="4.81872">
        <ele>213.4</ele>
        <time>2018-12-02T10:18:24Z</time>
      </trkpt>
      <trkpt lat="45.76751" lon="4.81882">
        <ele>213.3</ele>
        <time>2018-12-02T10:18:27Z</time>
      </trkpt>
      <trkpt lat="45.76753" lon="4.81895">
        <ele>213.2</ele>
        <time>2018-12-02T10:18:31Z</time>
      </trkpt>
      <trkpt lat="45.76754" lon="4.81906">
        <ele>213.2</ele>
        <time>2018-12-02T10:18:35Z</time>
      </trkpt>
      <trkpt lat="45.76755" lon="4.81917">
        <ele>213.1</ele>
        <time>2018-12-02T10:18:39Z</time>
      </trkpt>
      <trkpt lat="45.76757" lon="4.81927">
        <ele>213.1</ele>
        <time>2018-12-02T10:18:42Z</time>
      </trkpt>
      <trkpt lat="45.76759" lon="4.8194">
        <ele>213.1</ele>
        <time>2018-12-02T10:18:46Z</time>
      </trkpt>
      <trkpt lat="45.76762" lon="4.81952">
        <ele>213.2</ele>
        <time>2018-12-02T10:18:50Z</time>
      </trkpt>
      <trkpt lat="45.76764" lon="4.81964">
        <ele>213.2</ele>
        <time>2018-12-02T10:18:54Z</time>
      </trkpt>
      <trkpt lat="45.76766" lon="4.81976">
        <ele>213.1</ele>
        <time>2018-12-02T10:18:58Z</time>
      </trkpt>
      <trkpt lat="45.76768" lon="4.81988">
        <ele>213.1</ele>
        <time>2018-12-02T10:19:02Z</time>
      </trkpt>
      <trkpt lat="45.76771" lon="4.82">
        <ele>213</ele>
        <time>2018-12-02T10:19:06Z</time>
      </trkpt>
      <trkpt lat="45.76773" lon="4.82011">
        <ele>212.7</ele>
        <time>2018-12-02T10:19:10Z</time>
      </trkpt>
      <trkpt lat="45.76777" lon="4.82023">
        <ele>212.4</ele>
        <time>2018-12-02T10:19:14Z</time>
      </trkpt>
      <trkpt lat="45.76779" lon="4.82033">
        <ele>211.9</ele>
        <time>2018-12-02T10:19:18Z</time>
      </trkpt>
      <trkpt lat="45.76781" lon="4.82044">
        <ele>211.4</ele>
        <time>2018-12-02T10:19:22Z</time>
      </trkpt>
      <trkpt lat="45.76784" lon="4.82057">
        <ele>210.9</ele>
        <time>2018-12-02T10:19:26Z</time>
      </trkpt>
      <trkpt lat="45.76785" lon="4.82069">
        <ele>210.4</ele>
        <time>2018-12-02T10:19:30Z</time>
      </trkpt>
      <trkpt lat="45.76785" lon="4.82082">
        <ele>210</ele>
        <time>2018-12-02T10:19:34Z</time>
      </trkpt>
      <trkpt lat="45.76786" lon="4.82093">
        <ele>209.8</ele>
        <time>2018-12-02T10:19:37Z</time>
      </trkpt>
      <trkpt lat="45.76789" lon="4.82105">
        <ele>209.8</ele>
        <time>2018-12-02T10:19:41Z</time>
      </trkpt>
      <trkpt lat="45.76792" lon="4.82115">
        <ele>209.8</ele>
        <time>2018-12-02T10:19:44Z</time>
      </trkpt>
      <trkpt lat="45.76794" lon="4.82125">
        <ele>209.8</ele>
        <time>2018-12-02T10:19:47Z</time>
      </trkpt>
      <trkpt lat="45.76796" lon="4.82136">
        <ele>209.8</ele>
        <time>2018-12-02T10:19:51Z</time>
      </trkpt>
      <trkpt lat="45.76799" lon="4.82146">
        <ele>209.8</ele>
        <time>2018-12-02T10:19:55Z</time>
      </trkpt>
      <trkpt lat="45.76802" lon="4.82156">
        <ele>209.9</ele>
        <time>2018-12-02T10:19:58Z</time>
      </trkpt>
      <trkpt lat="45.76803" lon="4.82167">
        <ele>210</ele>
        <time>2018-12-02T10:20:02Z</time>
      </trkpt>
      <trkpt lat="45.76805" lon="4.8218">
        <ele>210.1</ele>
        <time>2018-12-02T10:20:06Z</time>
      </trkpt>
      <trkpt lat="45.76808" lon="4.82191">
        <ele>210.2</ele>
        <time>2018-12-02T10:20:10Z</time>
      </trkpt>
      <trkpt lat="45.76813" lon="4.82202">
        <ele>210.1</ele>
        <time>2018-12-02T10:20:14Z</time>
      </trkpt>
      <trkpt lat="45.76816" lon="4.82213">
        <ele>210.1</ele>
        <time>2018-12-02T10:20:18Z</time>
      </trkpt>
      <trkpt lat="45.7682" lon="4.82224">
        <ele>210</ele>
        <time>2018-12-02T10:20:22Z</time>
      </trkpt>
      <trkpt lat="45.76822" lon="4.82236">
        <ele>209.8</ele>
        <time>2018-12-02T10:20:26Z</time>
      </trkpt>
      <trkpt lat="45.76822" lon="4.82249">
        <ele>209.6</ele>
        <time>2018-12-02T10:20:30Z</time>
      </trkpt>
      <trkpt lat="45.76824" lon="4.82263">
        <ele>209.4</ele>
        <time>2018-12-02T10:20:34Z</time>
      </trkpt>
      <trkpt lat="45.76825" lon="4.82275">
        <ele>209.3</ele>
        <time>2018-12-02T10:20:38Z</time>
      </trkpt>
      <trkpt lat="45.76827" lon="4.82287">
        <ele>209.2</ele>
        <time>2018-12-02T10:20:42Z</time>
      </trkpt>
      <trkpt lat="45.76826" lon="4.82299">
        <ele>209.1</ele>
        <time>2018-12-02T10:20:46Z</time>
      </trkpt>
      <trkpt lat="45.76825" lon="4.8231">
        <ele>209</ele>
        <time>2018-12-02T10:20:49Z</time>
      </trkpt>
      <trkpt lat="45.76826" lon="4.82322">
        <ele>208.9</ele>
        <time>2018-12-02T10:20:53Z</time>
      </trkpt>
      <trkpt lat="45.76826" lon="4.82335">
        <ele>208.8</ele>
        <time>2018-12-02T10:20:57Z</time>
      </trkpt>
      <trkpt lat="45.76826" lon="4.82348">
        <ele>208.8</ele>
        <time>2018-12-02T10:21:01Z</time>
      </trkpt>
      <trkpt lat="45.76827" lon="4.8236">
        <ele>208.9</ele>
        <time>2018-12-02T10:21:05Z</time>
      </trkpt>
      <trkpt lat="45.76828" lon="4.82373">
        <ele>208.9</ele>
        <time>2018-12-02T10:21:09Z</time>
      </trkpt>
      <trkpt lat="45.76827" lon="4.82385">
        <ele>209.1</ele>
        <time>2018-12-02T10:21:13Z</time>
      </trkpt>
      <trkpt lat="45.76829" lon="4.82396">
        <ele>209.2</ele>
        <time>2018-12-02T10:21:17Z</time>
      </trkpt>
      <trkpt lat="45.76833" lon="4.82409">
        <ele>209.2</ele>
        <time>2018-12-02T10:21:21Z</time>
      </trkpt>
      <trkpt lat="45.76835" lon="4.82421">
        <ele>209.3</ele>
        <time>2018-12-02T10:21:25Z</time>
      </trkpt>
      <trkpt lat="45.76836" lon="4.82433">
        <ele>209.3</ele>
        <time>2018-12-02T10:21:30Z</time>
      </trkpt>
      <trkpt lat="45.76837" lon="4.82446">
        <ele>209.3</ele>
        <time>2018-12-02T10:21:34Z</time>
      </trkpt>
      <trkpt lat="45.76838" lon="4.8246">
        <ele>209.3</ele>
        <time>2018-12-02T10:21:39Z</time>
      </trkpt>
      <trkpt lat="45.76839" lon="4.82471">
        <ele>209.3</ele>
        <time>2018-12-02T10:21:43Z</time>
      </trkpt>
      <trkpt lat="45.76839" lon="4.82483">
        <ele>209.4</ele>
        <time>2018-12-02T10:21:47Z</time>
      </trkpt>
      <trkpt lat="45.7684" lon="4.82495">
        <ele>209.5</ele>
        <time>2018-12-02T10:21:51Z</time>
      </trkpt>
      <trkpt lat="45.76841" lon="4.82507">
        <ele>209.5</ele>
        <time>2018-12-02T10:21:55Z</time>
      </trkpt>
      <trkpt lat="45.76839" lon="4.82519">
        <ele>209.6</ele>
        <time>2018-12-02T10:21:59Z</time>
      </trkpt>
      <trkpt lat="45.76838" lon="4.82532">
        <ele>209.8</ele>
        <time>2018-12-02T10:22:03Z</time>
      </trkpt>
      <trkpt lat="45.76837" lon="4.82545">
        <ele>209.9</ele>
        <time>2018-12-02T10:22:07Z</time>
      </trkpt>
      <trkpt lat="45.76837" lon="4.82557">
        <ele>209.8</ele>
        <time>2018-12-02T10:22:11Z</time>
      </trkpt>
      <trkpt lat="45.76837" lon="4.8257">
        <ele>209.8</ele>
        <time>2018-12-02T10:22:15Z</time>
      </trkpt>
      <trkpt lat="45.76838" lon="4.82584">
        <ele>209.8</ele>
        <time>2018-12-02T10:22:19Z</time>
      </trkpt>
      <trkpt lat="45.76837" lon="4.82595">
        <ele>210</ele>
        <time>2018-12-02T10:22:23Z</time>
      </trkpt>
      <trkpt lat="45.76834" lon="4.82607">
        <ele>210.2</ele>
        <time>2018-12-02T10:22:27Z</time>
      </trkpt>
      <trkpt lat="45.76833" lon="4.82619">
        <ele>210.5</ele>
        <time>2018-12-02T10:22:31Z</time>
      </trkpt>
      <trkpt lat="45.76831" lon="4.8263">
        <ele>210.7</ele>
        <time>2018-12-02T10:22:35Z</time>
      </trkpt>
      <trkpt lat="45.76829" lon="4.82642">
        <ele>211</ele>
        <time>2018-12-02T10:22:39Z</time>
      </trkpt>
      <trkpt lat="45.76827" lon="4.82653">
        <ele>211.2</ele>
        <time>2018-12-02T10:22:43Z</time>
      </trkpt>
      <trkpt lat="45.76826" lon="4.82665">
        <ele>211.3</ele>
        <time>2018-12-02T10:22:47Z</time>
      </trkpt>
      <trkpt lat="45.76823" lon="4.82677">
        <ele>211.4</ele>
        <time>2018-12-02T10:22:51Z</time>
      </trkpt>
      <trkpt lat="45.7682" lon="4.82687">
        <ele>211.5</ele>
        <time>2018-12-02T10:22:55Z</time>
      </trkpt>
      <trkpt lat="45.76818" lon="4.82699">
        <ele>211.7</ele>
        <time>2018-12-02T10:22:59Z</time>
      </trkpt>
      <trkpt lat="45.76816" lon="4.82711">
        <ele>211.9</ele>
        <time>2018-12-02T10:23:03Z</time>
      </trkpt>
      <trkpt lat="45.76813" lon="4.82722">
        <ele>212.1</ele>
        <time>2018-12-02T10:23:07Z</time>
      </trkpt>
      <trkpt lat="45.7681" lon="4.82732">
        <ele>212.3</ele>
        <time>2018-12-02T10:23:11Z</time>
      </trkpt>
      <trkpt lat="45.76806" lon="4.82744">
        <ele>212.5</ele>
        <time>2018-12-02T10:23:15Z</time>
      </trkpt>
      <trkpt lat="45.76803" lon="4.82755">
        <ele>212.5</ele>
        <time>2018-12-02T10:23:19Z</time>
      </trkpt>
      <trkpt lat="45.768" lon="4.82767">
        <ele>212.5</ele>
        <time>2018-12-02T10:23:23Z</time>
      </trkpt>
      <trkpt lat="45.76796" lon="4.82779">
        <ele>212.5</ele>
        <time>2018-12-02T10:23:27Z</time>
      </trkpt>
      <trkpt lat="45.76794" lon="4.8279">
        <ele>212.5</ele>
        <time>2018-12-02T10:23:30Z</time>
      </trkpt>
      <trkpt lat="45.76791" lon="4.828">
        <ele>212.4</ele>
        <time>2018-12-02T10:23:34Z</time>
      </trkpt>
      <trkpt lat="45.76788" lon="4.8281">
        <ele>212.4</ele>
        <time>2018-12-02T10:23:39Z</time>
      </trkpt>
      <trkpt lat="45.76785" lon="4.82824">
        <ele>212.2</ele>
        <time>2018-12-02T10:23:43Z</time>
      </trkpt>
      <trkpt lat="45.76782" lon="4.82836">
        <ele>212.1</ele>
        <time>2018-12-02T10:23:47Z</time>
      </trkpt>
      <trkpt lat="45.76779" lon="4.82847">
        <ele>212.1</ele>
        <time>2018-12-02T10:23:51Z</time>
      </trkpt>
      <trkpt lat="45.76773" lon="4.82857">
        <ele>212.1</ele>
        <time>2018-12-02T10:23:55Z</time>
      </trkpt>
      <trkpt lat="45.76766" lon="4.82864">
        <ele>212.1</ele>
        <time>2018-12-02T10:23:59Z</time>
      </trkpt>
      <trkpt lat="45.76759" lon="4.82871">
        <ele>212.2</ele>
        <time>2018-12-02T10:24:03Z</time>
      </trkpt>
      <trkpt lat="45.76755" lon="4.82879">
        <ele>212.3</ele>
        <time>2018-12-02T10:24:06Z</time>
      </trkpt>
      <trkpt lat="45.76749" lon="4.82889">
        <ele>212.3</ele>
        <time>2018-12-02T10:24:10Z</time>
      </trkpt>
      <trkpt lat="45.76744" lon="4.82897">
        <ele>212.4</ele>
        <time>2018-12-02T10:24:14Z</time>
      </trkpt>
      <trkpt lat="45.7674" lon="4.82909">
        <ele>212.5</ele>
        <time>2018-12-02T10:24:18Z</time>
      </trkpt>
      <trkpt lat="45.76735" lon="4.82925">
        <ele>212.7</ele>
        <time>2018-12-02T10:24:24Z</time>
      </trkpt>
      <trkpt lat="45.7673" lon="4.82935">
        <ele>212.8</ele>
        <time>2018-12-02T10:24:29Z</time>
      </trkpt>
      <trkpt lat="45.76723" lon="4.82942">
        <ele>212.8</ele>
        <time>2018-12-02T10:24:33Z</time>
      </trkpt>
      <trkpt lat="45.76718" lon="4.82951">
        <ele>212.7</ele>
        <time>2018-12-02T10:24:38Z</time>
      </trkpt>
      <trkpt lat="45.76713" lon="4.82961">
        <ele>212.6</ele>
        <time>2018-12-02T10:24:43Z</time>
      </trkpt>
      <trkpt lat="45.76707" lon="4.8297">
        <ele>212.5</ele>
        <time>2018-12-02T10:24:47Z</time>
      </trkpt>
      <trkpt lat="45.767" lon="4.82976">
        <ele>212.6</ele>
        <time>2018-12-02T10:24:51Z</time>
      </trkpt>
      <trkpt lat="45.76694" lon="4.82984">
        <ele>212.8</ele>
        <time>2018-12-02T10:24:55Z</time>
      </trkpt>
      <trkpt lat="45.76687" lon="4.82991">
        <ele>213</ele>
        <time>2018-12-02T10:24:59Z</time>
      </trkpt>
      <trkpt lat="45.76679" lon="4.8299">
        <ele>213.2</ele>
        <time>2018-12-02T10:25:04Z</time>
      </trkpt>
      <trkpt lat="45.76673" lon="4.82983">
        <ele>213.5</ele>
        <time>2018-12-02T10:25:08Z</time>
      </trkpt>
      <trkpt lat="45.76665" lon="4.82976">
        <ele>213.8</ele>
        <time>2018-12-02T10:25:12Z</time>
      </trkpt>
      <trkpt lat="45.76658" lon="4.8297">
        <ele>214.2</ele>
        <time>2018-12-02T10:25:16Z</time>
      </trkpt>
      <trkpt lat="45.76654" lon="4.82961">
        <ele>214.5</ele>
        <time>2018-12-02T10:25:19Z</time>
      </trkpt>
      <trkpt lat="45.7665" lon="4.82951">
        <ele>215.2</ele>
        <time>2018-12-02T10:25:23Z</time>
      </trkpt>
      <trkpt lat="45.76647" lon="4.82941">
        <ele>215.9</ele>
        <time>2018-12-02T10:25:27Z</time>
      </trkpt>
      <trkpt lat="45.76643" lon="4.8293">
        <ele>216.7</ele>
        <time>2018-12-02T10:25:31Z</time>
      </trkpt>
      <trkpt lat="45.7664" lon="4.82919">
        <ele>217.4</ele>
        <time>2018-12-02T10:25:35Z</time>
      </trkpt>
      <trkpt lat="45.76637" lon="4.82909">
        <ele>217.9</ele>
        <time>2018-12-02T10:25:39Z</time>
      </trkpt>
      <trkpt lat="45.76633" lon="4.82899">
        <ele>218.2</ele>
        <time>2018-12-02T10:25:42Z</time>
      </trkpt>
      <trkpt lat="45.76629" lon="4.8289">
        <ele>218.3</ele>
        <time>2018-12-02T10:25:46Z</time>
      </trkpt>
      <trkpt lat="45.7662" lon="4.82897">
        <ele>218.2</ele>
        <time>2018-12-02T10:25:50Z</time>
      </trkpt>
      <trkpt lat="45.76613" lon="4.829">
        <ele>218</ele>
        <time>2018-12-02T10:25:53Z</time>
      </trkpt>
      <trkpt lat="45.76605" lon="4.829">
        <ele>217.4</ele>
        <time>2018-12-02T10:25:57Z</time>
      </trkpt>
      <trkpt lat="45.76596" lon="4.82901">
        <ele>216.7</ele>
        <time>2018-12-02T10:26:01Z</time>
      </trkpt>
      <trkpt lat="45.76589" lon="4.82903">
        <ele>216.1</ele>
        <time>2018-12-02T10:26:04Z</time>
      </trkpt>
      <trkpt lat="45.76581" lon="4.82905">
        <ele>215.4</ele>
        <time>2018-12-02T10:26:07Z</time>
      </trkpt>
      <trkpt lat="45.76571" lon="4.82907">
        <ele>214.6</ele>
        <time>2018-12-02T10:26:11Z</time>
      </trkpt>
      <trkpt lat="45.76563" lon="4.8291">
        <ele>213.8</ele>
        <time>2018-12-02T10:26:15Z</time>
      </trkpt>
      <trkpt lat="45.76554" lon="4.82912">
        <ele>213.1</ele>
        <time>2018-12-02T10:26:19Z</time>
      </trkpt>
      <trkpt lat="45.76546" lon="4.82912">
        <ele>212.6</ele>
        <time>2018-12-02T10:26:25Z</time>
      </trkpt>
      <trkpt lat="45.76537" lon="4.82912">
        <ele>212.5</ele>
        <time>2018-12-02T10:26:28Z</time>
      </trkpt>
      <trkpt lat="45.76528" lon="4.82908">
        <ele>212.5</ele>
        <time>2018-12-02T10:26:32Z</time>
      </trkpt>
      <trkpt lat="45.7652" lon="4.82907">
        <ele>212.7</ele>
        <time>2018-12-02T10:26:37Z</time>
      </trkpt>
      <trkpt lat="45.76513" lon="4.82906">
        <ele>212.8</ele>
        <time>2018-12-02T10:26:42Z</time>
      </trkpt>
      <trkpt lat="45.76505" lon="4.82909">
        <ele>213.1</ele>
        <time>2018-12-02T10:26:46Z</time>
      </trkpt>
      <trkpt lat="45.76497" lon="4.8291">
        <ele>213.4</ele>
        <time>2018-12-02T10:26:49Z</time>
      </trkpt>
      <trkpt lat="45.7649" lon="4.82911">
        <ele>213.8</ele>
        <time>2018-12-02T10:26:53Z</time>
      </trkpt>
      <trkpt lat="45.76482" lon="4.82915">
        <ele>214.1</ele>
        <time>2018-12-02T10:26:56Z</time>
      </trkpt>
      <trkpt lat="45.76474" lon="4.8292">
        <ele>214.4</ele>
        <time>2018-12-02T10:27:00Z</time>
      </trkpt>
      <trkpt lat="45.76466" lon="4.82923">
        <ele>214.6</ele>
        <time>2018-12-02T10:27:05Z</time>
      </trkpt>
      <trkpt lat="45.76458" lon="4.82924">
        <ele>214.7</ele>
        <time>2018-12-02T10:27:09Z</time>
      </trkpt>
      <trkpt lat="45.7645" lon="4.82925">
        <ele>214.8</ele>
        <time>2018-12-02T10:27:13Z</time>
      </trkpt>
      <trkpt lat="45.76442" lon="4.82923">
        <ele>214.6</ele>
        <time>2018-12-02T10:27:18Z</time>
      </trkpt>
      <trkpt lat="45.76434" lon="4.82923">
        <ele>214.4</ele>
        <time>2018-12-02T10:27:21Z</time>
      </trkpt>
      <trkpt lat="45.76425" lon="4.82923">
        <ele>214.2</ele>
        <time>2018-12-02T10:27:25Z</time>
      </trkpt>
      <trkpt lat="45.76416" lon="4.82921">
        <ele>213.9</ele>
        <time>2018-12-02T10:27:29Z</time>
      </trkpt>
      <trkpt lat="45.76408" lon="4.82921">
        <ele>213.6</ele>
        <time>2018-12-02T10:27:33Z</time>
      </trkpt>
      <trkpt lat="45.764" lon="4.82923">
        <ele>213.4</ele>
        <time>2018-12-02T10:27:37Z</time>
      </trkpt>
      <trkpt lat="45.76392" lon="4.82925">
        <ele>213.3</ele>
        <time>2018-12-02T10:27:40Z</time>
      </trkpt>
      <trkpt lat="45.76384" lon="4.82927">
        <ele>213.1</ele>
        <time>2018-12-02T10:27:43Z</time>
      </trkpt>
      <trkpt lat="45.76376" lon="4.82927">
        <ele>213.2</ele>
        <time>2018-12-02T10:27:46Z</time>
      </trkpt>
      <trkpt lat="45.76369" lon="4.82928">
        <ele>213.2</ele>
        <time>2018-12-02T10:27:49Z</time>
      </trkpt>
      <trkpt lat="45.76359" lon="4.82926">
        <ele>213.2</ele>
        <time>2018-12-02T10:27:53Z</time>
      </trkpt>
      <trkpt lat="45.76351" lon="4.82925">
        <ele>213.3</ele>
        <time>2018-12-02T10:27:56Z</time>
      </trkpt>
      <trkpt lat="45.76343" lon="4.82924">
        <ele>213.5</ele>
        <time>2018-12-02T10:28:00Z</time>
      </trkpt>
      <trkpt lat="45.76336" lon="4.82923">
        <ele>213.5</ele>
        <time>2018-12-02T10:28:03Z</time>
      </trkpt>
      <trkpt lat="45.76328" lon="4.82924">
        <ele>213.6</ele>
        <time>2018-12-02T10:28:07Z</time>
      </trkpt>
      <trkpt lat="45.7632" lon="4.82923">
        <ele>213.9</ele>
        <time>2018-12-02T10:28:11Z</time>
      </trkpt>
      <trkpt lat="45.76312" lon="4.82923">
        <ele>214.1</ele>
        <time>2018-12-02T10:28:15Z</time>
      </trkpt>
      <trkpt lat="45.76303" lon="4.82921">
        <ele>214.2</ele>
        <time>2018-12-02T10:28:20Z</time>
      </trkpt>
      <trkpt lat="45.76295" lon="4.82919">
        <ele>214.2</ele>
        <time>2018-12-02T10:28:23Z</time>
      </trkpt>
      <trkpt lat="45.76288" lon="4.82916">
        <ele>214</ele>
        <time>2018-12-02T10:28:26Z</time>
      </trkpt>
      <trkpt lat="45.7628" lon="4.82915">
        <ele>213.7</ele>
        <time>2018-12-02T10:28:30Z</time>
      </trkpt>
      <trkpt lat="45.76272" lon="4.82911">
        <ele>213.4</ele>
        <time>2018-12-02T10:28:35Z</time>
      </trkpt>
      <trkpt lat="45.76264" lon="4.82909">
        <ele>213.2</ele>
        <time>2018-12-02T10:28:39Z</time>
      </trkpt>
      <trkpt lat="45.76256" lon="4.82905">
        <ele>213.1</ele>
        <time>2018-12-02T10:28:43Z</time>
      </trkpt>
      <trkpt lat="45.76248" lon="4.82902">
        <ele>213</ele>
        <time>2018-12-02T10:28:46Z</time>
      </trkpt>
      <trkpt lat="45.76241" lon="4.82897">
        <ele>212.8</ele>
        <time>2018-12-02T10:28:49Z</time>
      </trkpt>
      <trkpt lat="45.76233" lon="4.82893">
        <ele>212.2</ele>
        <time>2018-12-02T10:28:55Z</time>
      </trkpt>
      <trkpt lat="45.76224" lon="4.8289">
        <ele>211.9</ele>
        <time>2018-12-02T10:29:00Z</time>
      </trkpt>
      <trkpt lat="45.76216" lon="4.82888">
        <ele>211.8</ele>
        <time>2018-12-02T10:29:03Z</time>
      </trkpt>
      <trkpt lat="45.76207" lon="4.82885">
        <ele>211.9</ele>
        <time>2018-12-02T10:29:07Z</time>
      </trkpt>
      <trkpt lat="45.76199" lon="4.8288">
        <ele>212.1</ele>
        <time>2018-12-02T10:29:11Z</time>
      </trkpt>
      <trkpt lat="45.76192" lon="4.82872">
        <ele>212.2</ele>
        <time>2018-12-02T10:29:16Z</time>
      </trkpt>
      <trkpt lat="45.76186" lon="4.82863">
        <ele>212.3</ele>
        <time>2018-12-02T10:29:20Z</time>
      </trkpt>
      <trkpt lat="45.76181" lon="4.82856">
        <ele>212.4</ele>
        <time>2018-12-02T10:29:22Z</time>
      </trkpt>
      <trkpt lat="45.76173" lon="4.82849">
        <ele>212.6</ele>
        <time>2018-12-02T10:29:25Z</time>
      </trkpt>
      <trkpt lat="45.76166" lon="4.82844">
        <ele>212.9</ele>
        <time>2018-12-02T10:29:29Z</time>
      </trkpt>
      <trkpt lat="45.76158" lon="4.82838">
        <ele>213.2</ele>
        <time>2018-12-02T10:29:33Z</time>
      </trkpt>
      <trkpt lat="45.76151" lon="4.82831">
        <ele>213.4</ele>
        <time>2018-12-02T10:29:37Z</time>
      </trkpt>
      <trkpt lat="45.76146" lon="4.82824">
        <ele>213.7</ele>
        <time>2018-12-02T10:29:42Z</time>
      </trkpt>
      <trkpt lat="45.76145" lon="4.82813">
        <ele>214</ele>
        <time>2018-12-02T10:29:48Z</time>
      </trkpt>
      <trkpt lat="45.76148" lon="4.82804">
        <ele>214</ele>
        <time>2018-12-02T10:29:53Z</time>
      </trkpt>
      <trkpt lat="45.76153" lon="4.82793">
        <ele>213.7</ele>
        <time>2018-12-02T10:29:58Z</time>
      </trkpt>
      <trkpt lat="45.76159" lon="4.82783">
        <ele>213.3</ele>
        <time>2018-12-02T10:30:03Z</time>
      </trkpt>
      <trkpt lat="45.76163" lon="4.82773">
        <ele>213.2</ele>
        <time>2018-12-02T10:30:07Z</time>
      </trkpt>
      <trkpt lat="45.76169" lon="4.82764">
        <ele>212.7</ele>
        <time>2018-12-02T10:30:13Z</time>
      </trkpt>
      <trkpt lat="45.76174" lon="4.82755">
        <ele>211.2</ele>
        <time>2018-12-02T10:30:20Z</time>
      </trkpt>
      <trkpt lat="45.76178" lon="4.82745">
        <ele>210.1</ele>
        <time>2018-12-02T10:30:25Z</time>
      </trkpt>
      <trkpt lat="45.76184" lon="4.82737">
        <ele>208.1</ele>
        <time>2018-12-02T10:30:32Z</time>
      </trkpt>
      <trkpt lat="45.76186" lon="4.82726">
        <ele>207.8</ele>
        <time>2018-12-02T10:30:34Z</time>
      </trkpt>
      <trkpt lat="45.76187" lon="4.82715">
        <ele>207.7</ele>
        <time>2018-12-02T10:30:37Z</time>
      </trkpt>
      <trkpt lat="45.76188" lon="4.82704">
        <ele>208.1</ele>
        <time>2018-12-02T10:30:41Z</time>
      </trkpt>
      <trkpt lat="45.76188" lon="4.82693">
        <ele>208.4</ele>
        <time>2018-12-02T10:30:46Z</time>
      </trkpt>
      <trkpt lat="45.76191" lon="4.82682">
        <ele>208.5</ele>
        <time>2018-12-02T10:30:51Z</time>
      </trkpt>
      <trkpt lat="45.76195" lon="4.82671">
        <ele>208.4</ele>
        <time>2018-12-02T10:30:53Z</time>
      </trkpt>
      <trkpt lat="45.76199" lon="4.82662">
        <ele>208.2</ele>
        <time>2018-12-02T10:30:57Z</time>
      </trkpt>
      <trkpt lat="45.76201" lon="4.82652">
        <ele>206.8</ele>
        <time>2018-12-02T10:31:04Z</time>
      </trkpt>
      <trkpt lat="45.762" lon="4.82646">
        <ele>205.5</ele>
        <time>2018-12-02T10:31:11Z</time>
      </trkpt>
      <trkpt lat="45.76199" lon="4.8263">
        <ele>204.7</ele>
        <time>2018-12-02T10:31:15Z</time>
      </trkpt>
      <trkpt lat="45.76201" lon="4.82619">
        <ele>204.4</ele>
        <time>2018-12-02T10:31:19Z</time>
      </trkpt>
      <trkpt lat="45.76203" lon="4.82608">
        <ele>204.2</ele>
        <time>2018-12-02T10:31:23Z</time>
      </trkpt>
      <trkpt lat="45.76203" lon="4.82595">
        <ele>204.7</ele>
        <time>2018-12-02T10:31:29Z</time>
      </trkpt>
      <trkpt lat="45.76201" lon="4.82582">
        <ele>205.8</ele>
        <time>2018-12-02T10:31:33Z</time>
      </trkpt>
      <trkpt lat="45.76198" lon="4.82571">
        <ele>207.7</ele>
        <time>2018-12-02T10:31:38Z</time>
      </trkpt>
      <trkpt lat="45.76193" lon="4.82562">
        <ele>209.6</ele>
        <time>2018-12-02T10:31:44Z</time>
      </trkpt>
      <trkpt lat="45.76187" lon="4.82554">
        <ele>211.3</ele>
        <time>2018-12-02T10:31:49Z</time>
      </trkpt>
      <trkpt lat="45.76181" lon="4.82546">
        <ele>212.8</ele>
        <time>2018-12-02T10:31:54Z</time>
      </trkpt>
      <trkpt lat="45.76176" lon="4.82538">
        <ele>214.4</ele>
        <time>2018-12-02T10:31:59Z</time>
      </trkpt>
      <trkpt lat="45.76169" lon="4.82533">
        <ele>215.8</ele>
        <time>2018-12-02T10:32:04Z</time>
      </trkpt>
      <trkpt lat="45.76162" lon="4.82528">
        <ele>217.4</ele>
        <time>2018-12-02T10:32:10Z</time>
      </trkpt>
      <trkpt lat="45.76155" lon="4.82521">
        <ele>218.9</ele>
        <time>2018-12-02T10:32:16Z</time>
      </trkpt>
      <trkpt lat="45.76148" lon="4.82516">
        <ele>220.7</ele>
        <time>2018-12-02T10:32:23Z</time>
      </trkpt>
      <trkpt lat="45.76141" lon="4.82512">
        <ele>221.5</ele>
        <time>2018-12-02T10:32:27Z</time>
      </trkpt>
      <trkpt lat="45.76133" lon="4.82512">
        <ele>222.9</ele>
        <time>2018-12-02T10:32:32Z</time>
      </trkpt>
      <trkpt lat="45.76126" lon="4.82508">
        <ele>224.5</ele>
        <time>2018-12-02T10:32:38Z</time>
      </trkpt>
      <trkpt lat="45.76118" lon="4.82505">
        <ele>226.2</ele>
        <time>2018-12-02T10:32:45Z</time>
      </trkpt>
      <trkpt lat="45.76111" lon="4.82503">
        <ele>227.2</ele>
        <time>2018-12-02T10:32:49Z</time>
      </trkpt>
      <trkpt lat="45.76103" lon="4.825">
        <ele>228.2</ele>
        <time>2018-12-02T10:32:53Z</time>
      </trkpt>
      <trkpt lat="45.76095" lon="4.82497">
        <ele>229.9</ele>
        <time>2018-12-02T10:32:59Z</time>
      </trkpt>
      <trkpt lat="45.76089" lon="4.82494">
        <ele>231.9</ele>
        <time>2018-12-02T10:33:06Z</time>
      </trkpt>
      <trkpt lat="45.7608" lon="4.82493">
        <ele>233.7</ele>
        <time>2018-12-02T10:33:12Z</time>
      </trkpt>
      <trkpt lat="45.76074" lon="4.82489">
        <ele>235.8</ele>
        <time>2018-12-02T10:33:19Z</time>
      </trkpt>
      <trkpt lat="45.76068" lon="4.82485">
        <ele>238.3</ele>
        <time>2018-12-02T10:33:26Z</time>
      </trkpt>
      <trkpt lat="45.76061" lon="4.82482">
        <ele>240.3</ele>
        <time>2018-12-02T10:33:31Z</time>
      </trkpt>
      <trkpt lat="45.76056" lon="4.8248">
        <ele>243.2</ele>
        <time>2018-12-02T10:33:38Z</time>
      </trkpt>
      <trkpt lat="45.76049" lon="4.82476">
        <ele>244.5</ele>
        <time>2018-12-02T10:33:42Z</time>
      </trkpt>
      <trkpt lat="45.76041" lon="4.82471">
        <ele>246.7</ele>
        <time>2018-12-02T10:33:49Z</time>
      </trkpt>
      <trkpt lat="45.76034" lon="4.82468">
        <ele>248.5</ele>
        <time>2018-12-02T10:33:55Z</time>
      </trkpt>
      <trkpt lat="45.76028" lon="4.82464">
        <ele>250.2</ele>
        <time>2018-12-02T10:34:02Z</time>
      </trkpt>
      <trkpt lat="45.76019" lon="4.8246">
        <ele>251.4</ele>
        <time>2018-12-02T10:34:07Z</time>
      </trkpt>
      <trkpt lat="45.76013" lon="4.82455">
        <ele>252.6</ele>
        <time>2018-12-02T10:34:12Z</time>
      </trkpt>
      <trkpt lat="45.76006" lon="4.8245">
        <ele>254.1</ele>
        <time>2018-12-02T10:34:18Z</time>
      </trkpt>
      <trkpt lat="45.75998" lon="4.82445">
        <ele>255.4</ele>
        <time>2018-12-02T10:34:23Z</time>
      </trkpt>
      <trkpt lat="45.75991" lon="4.82437">
        <ele>256.6</ele>
        <time>2018-12-02T10:34:29Z</time>
      </trkpt>
      <trkpt lat="45.75984" lon="4.82431">
        <ele>257.5</ele>
        <time>2018-12-02T10:34:34Z</time>
      </trkpt>
      <trkpt lat="45.75976" lon="4.82428">
        <ele>258.3</ele>
        <time>2018-12-02T10:34:39Z</time>
      </trkpt>
      <trkpt lat="45.75968" lon="4.82427">
        <ele>259.4</ele>
        <time>2018-12-02T10:34:46Z</time>
      </trkpt>
      <trkpt lat="45.75962" lon="4.82424">
        <ele>260.8</ele>
        <time>2018-12-02T10:34:53Z</time>
      </trkpt>
      <trkpt lat="45.75956" lon="4.82419">
        <ele>262</ele>
        <time>2018-12-02T10:35:00Z</time>
      </trkpt>
      <trkpt lat="45.75949" lon="4.82414">
        <ele>263.1</ele>
        <time>2018-12-02T10:35:07Z</time>
      </trkpt>
      <trkpt lat="45.75941" lon="4.8241">
        <ele>264</ele>
        <time>2018-12-02T10:35:13Z</time>
      </trkpt>
      <trkpt lat="45.75934" lon="4.82403">
        <ele>264.6</ele>
        <time>2018-12-02T10:35:18Z</time>
      </trkpt>
      <trkpt lat="45.75928" lon="4.82398">
        <ele>265.2</ele>
        <time>2018-12-02T10:35:23Z</time>
      </trkpt>
      <trkpt lat="45.75922" lon="4.82391">
        <ele>265.6</ele>
        <time>2018-12-02T10:35:27Z</time>
      </trkpt>
      <trkpt lat="45.75916" lon="4.82384">
        <ele>265.6</ele>
        <time>2018-12-02T10:35:34Z</time>
      </trkpt>
      <trkpt lat="45.75909" lon="4.82376">
        <ele>265.2</ele>
        <time>2018-12-02T10:35:39Z</time>
      </trkpt>
      <trkpt lat="45.75902" lon="4.82368">
        <ele>264.6</ele>
        <time>2018-12-02T10:35:44Z</time>
      </trkpt>
      <trkpt lat="45.75897" lon="4.8236">
        <ele>264</ele>
        <time>2018-12-02T10:35:49Z</time>
      </trkpt>
      <trkpt lat="45.75889" lon="4.82362">
        <ele>263.7</ele>
        <time>2018-12-02T10:35:53Z</time>
      </trkpt>
      <trkpt lat="45.7588" lon="4.82366">
        <ele>264</ele>
        <time>2018-12-02T10:35:55Z</time>
      </trkpt>
      <trkpt lat="45.75871" lon="4.82365">
        <ele>264.7</ele>
        <time>2018-12-02T10:35:58Z</time>
      </trkpt>
      <trkpt lat="45.75863" lon="4.8236">
        <ele>265.7</ele>
        <time>2018-12-02T10:36:02Z</time>
      </trkpt>
      <trkpt lat="45.75858" lon="4.8235">
        <ele>267.1</ele>
        <time>2018-12-02T10:36:07Z</time>
      </trkpt>
      <trkpt lat="45.75857" lon="4.82338">
        <ele>268.5</ele>
        <time>2018-12-02T10:36:12Z</time>
      </trkpt>
      <trkpt lat="45.75854" lon="4.82327">
        <ele>269.8</ele>
        <time>2018-12-02T10:36:17Z</time>
      </trkpt>
      <trkpt lat="45.75852" lon="4.82315">
        <ele>271</ele>
        <time>2018-12-02T10:36:22Z</time>
      </trkpt>
      <trkpt lat="45.75847" lon="4.82306">
        <ele>272.6</ele>
        <time>2018-12-02T10:36:27Z</time>
      </trkpt>
      <trkpt lat="45.75842" lon="4.82299">
        <ele>273.8</ele>
        <time>2018-12-02T10:36:32Z</time>
      </trkpt>
      <trkpt lat="45.75838" lon="4.82289">
        <ele>274.6</ele>
        <time>2018-12-02T10:36:37Z</time>
      </trkpt>
      <trkpt lat="45.75834" lon="4.8228">
        <ele>275</ele>
        <time>2018-12-02T10:36:42Z</time>
      </trkpt>
      <trkpt lat="45.7583" lon="4.8227">
        <ele>275.3</ele>
        <time>2018-12-02T10:36:46Z</time>
      </trkpt>
      <trkpt lat="45.75826" lon="4.8226">
        <ele>275.7</ele>
        <time>2018-12-02T10:36:51Z</time>
      </trkpt>
      <trkpt lat="45.75822" lon="4.82248">
        <ele>276</ele>
        <time>2018-12-02T10:36:56Z</time>
      </trkpt>
      <trkpt lat="45.7582" lon="4.82238">
        <ele>276.3</ele>
        <time>2018-12-02T10:37:01Z</time>
      </trkpt>
      <trkpt lat="45.7582" lon="4.82226">
        <ele>276.5</ele>
        <time>2018-12-02T10:37:05Z</time>
      </trkpt>
      <trkpt lat="45.75819" lon="4.82213">
        <ele>276.7</ele>
        <time>2018-12-02T10:37:10Z</time>
      </trkpt>
      <trkpt lat="45.7582" lon="4.82203">
        <ele>277.4</ele>
        <time>2018-12-02T10:37:15Z</time>
      </trkpt>
      <trkpt lat="45.75825" lon="4.82201">
        <ele>278.2</ele>
        <time>2018-12-02T10:37:22Z</time>
      </trkpt>
      <trkpt lat="45.75831" lon="4.82208">
        <ele>278.6</ele>
        <time>2018-12-02T10:37:27Z</time>
      </trkpt>
      <trkpt lat="45.75838" lon="4.82213">
        <ele>278.8</ele>
        <time>2018-12-02T10:37:32Z</time>
      </trkpt>
      <trkpt lat="45.75845" lon="4.82216">
        <ele>278.9</ele>
        <time>2018-12-02T10:37:36Z</time>
      </trkpt>
      <trkpt lat="45.75854" lon="4.82218">
        <ele>279.1</ele>
        <time>2018-12-02T10:37:40Z</time>
      </trkpt>
      <trkpt lat="45.75862" lon="4.82219">
        <ele>279.4</ele>
        <time>2018-12-02T10:37:44Z</time>
      </trkpt>
      <trkpt lat="45.7587" lon="4.82222">
        <ele>280.3</ele>
        <time>2018-12-02T10:37:51Z</time>
      </trkpt>
      <trkpt lat="45.75877" lon="4.82226">
        <ele>281</ele>
        <time>2018-12-02T10:37:57Z</time>
      </trkpt>
      <trkpt lat="45.75885" lon="4.82228">
        <ele>281.4</ele>
        <time>2018-12-02T10:38:03Z</time>
      </trkpt>
      <trkpt lat="45.7589" lon="4.8223">
        <ele>281.9</ele>
        <time>2018-12-02T10:38:10Z</time>
      </trkpt>
      <trkpt lat="45.75898" lon="4.82231">
        <ele>282.6</ele>
        <time>2018-12-02T10:38:15Z</time>
      </trkpt>
      <trkpt lat="45.75905" lon="4.82232">
        <ele>283.7</ele>
        <time>2018-12-02T10:38:22Z</time>
      </trkpt>
      <trkpt lat="45.75912" lon="4.82236">
        <ele>284.8</ele>
        <time>2018-12-02T10:38:28Z</time>
      </trkpt>
      <trkpt lat="45.75921" lon="4.82238">
        <ele>286.4</ele>
        <time>2018-12-02T10:38:34Z</time>
      </trkpt>
      <trkpt lat="45.75929" lon="4.82239">
        <ele>287.7</ele>
        <time>2018-12-02T10:38:39Z</time>
      </trkpt>
      <trkpt lat="45.75936" lon="4.82238">
        <ele>288.8</ele>
        <time>2018-12-02T10:38:44Z</time>
      </trkpt>
      <trkpt lat="45.75941" lon="4.82239">
        <ele>290.3</ele>
        <time>2018-12-02T10:38:51Z</time>
      </trkpt>
      <trkpt lat="45.75947" lon="4.8224">
        <ele>292.4</ele>
        <time>2018-12-02T10:38:58Z</time>
      </trkpt>
      <trkpt lat="45.75954" lon="4.8224">
        <ele>294.2</ele>
        <time>2018-12-02T10:39:05Z</time>
      </trkpt>
      <trkpt lat="45.75962" lon="4.82243">
        <ele>295.2</ele>
        <time>2018-12-02T10:39:11Z</time>
      </trkpt>
      <trkpt lat="45.75969" lon="4.8225">
        <ele>296.3</ele>
        <time>2018-12-02T10:39:16Z</time>
      </trkpt>
      <trkpt lat="45.75976" lon="4.82256">
        <ele>297</ele>
        <time>2018-12-02T10:39:20Z</time>
      </trkpt>
      <trkpt lat="45.75981" lon="4.82248">
        <ele>297.8</ele>
        <time>2018-12-02T10:39:25Z</time>
      </trkpt>
      <trkpt lat="45.75987" lon="4.82248">
        <ele>299.6</ele>
        <time>2018-12-02T10:39:32Z</time>
      </trkpt>
      <trkpt lat="45.75989" lon="4.82251">
        <ele>301.6</ele>
        <time>2018-12-02T10:39:39Z</time>
      </trkpt>
      <trkpt lat="45.75993" lon="4.82255">
        <ele>303.2</ele>
        <time>2018-12-02T10:39:46Z</time>
      </trkpt>
      <trkpt lat="45.75994" lon="4.82259">
        <ele>303.2</ele>
        <time>2018-12-02T10:39:53Z</time>
      </trkpt>
      <trkpt lat="45.76002" lon="4.82262">
        <ele>303.5</ele>
        <time>2018-12-02T10:40:00Z</time>
      </trkpt>
      <trkpt lat="45.76007" lon="4.82262">
        <ele>304.3</ele>
        <time>2018-12-02T10:40:07Z</time>
      </trkpt>
      <trkpt lat="45.76011" lon="4.82259">
        <ele>304.7</ele>
        <time>2018-12-02T10:40:14Z</time>
      </trkpt>
      <trkpt lat="45.76016" lon="4.8226">
        <ele>304.9</ele>
        <time>2018-12-02T10:40:21Z</time>
      </trkpt>
      <trkpt lat="45.76024" lon="4.82266">
        <ele>305.1</ele>
        <time>2018-12-02T10:40:26Z</time>
      </trkpt>
      <trkpt lat="45.76029" lon="4.82277">
        <ele>305.3</ele>
        <time>2018-12-02T10:40:30Z</time>
      </trkpt>
      <trkpt lat="45.7603" lon="4.82287">
        <ele>305.5</ele>
        <time>2018-12-02T10:40:33Z</time>
      </trkpt>
      <trkpt lat="45.76034" lon="4.823">
        <ele>306</ele>
        <time>2018-12-02T10:40:38Z</time>
      </trkpt>
      <trkpt lat="45.76037" lon="4.82309">
        <ele>306.3</ele>
        <time>2018-12-02T10:40:42Z</time>
      </trkpt>
      <trkpt lat="45.76043" lon="4.82315">
        <ele>306.8</ele>
        <time>2018-12-02T10:40:48Z</time>
      </trkpt>
      <trkpt lat="45.76051" lon="4.82319">
        <ele>307.1</ele>
        <time>2018-12-02T10:40:52Z</time>
      </trkpt>
      <trkpt lat="45.76059" lon="4.82325">
        <ele>307.6</ele>
        <time>2018-12-02T10:40:56Z</time>
      </trkpt>
      <trkpt lat="45.76068" lon="4.82329">
        <ele>308</ele>
        <time>2018-12-02T10:41:00Z</time>
      </trkpt>
      <trkpt lat="45.76076" lon="4.82331">
        <ele>308.5</ele>
        <time>2018-12-02T10:41:04Z</time>
      </trkpt>
      <trkpt lat="45.76084" lon="4.82331">
        <ele>309.1</ele>
        <time>2018-12-02T10:41:09Z</time>
      </trkpt>
      <trkpt lat="45.76092" lon="4.82331">
        <ele>309.8</ele>
        <time>2018-12-02T10:41:15Z</time>
      </trkpt>
      <trkpt lat="45.76102" lon="4.82331">
        <ele>310.3</ele>
        <time>2018-12-02T10:41:21Z</time>
      </trkpt>
      <trkpt lat="45.76109" lon="4.8233">
        <ele>310.5</ele>
        <time>2018-12-02T10:41:25Z</time>
      </trkpt>
      <trkpt lat="45.76117" lon="4.82324">
        <ele>310.8</ele>
        <time>2018-12-02T10:41:29Z</time>
      </trkpt>
      <trkpt lat="45.76125" lon="4.82318">
        <ele>311.1</ele>
        <time>2018-12-02T10:41:33Z</time>
      </trkpt>
      <trkpt lat="45.76131" lon="4.82313">
        <ele>311.7</ele>
        <time>2018-12-02T10:41:38Z</time>
      </trkpt>
      <trkpt lat="45.76138" lon="4.82308">
        <ele>312.2</ele>
        <time>2018-12-02T10:41:45Z</time>
      </trkpt>
      <trkpt lat="45.76145" lon="4.82306">
        <ele>312.7</ele>
        <time>2018-12-02T10:41:51Z</time>
      </trkpt>
      <trkpt lat="45.7615" lon="4.82308">
        <ele>313.4</ele>
        <time>2018-12-02T10:41:58Z</time>
      </trkpt>
      <trkpt lat="45.76157" lon="4.82304">
        <ele>313.8</ele>
        <time>2018-12-02T10:42:03Z</time>
      </trkpt>
      <trkpt lat="45.76165" lon="4.823">
        <ele>314.2</ele>
        <time>2018-12-02T10:42:09Z</time>
      </trkpt>
      <trkpt lat="45.76171" lon="4.82298">
        <ele>314.4</ele>
        <time>2018-12-02T10:42:16Z</time>
      </trkpt>
      <trkpt lat="45.76174" lon="4.82299">
        <ele>314.6</ele>
        <time>2018-12-02T10:42:23Z</time>
      </trkpt>
      <trkpt lat="45.76182" lon="4.82299">
        <ele>315.3</ele>
        <time>2018-12-02T10:42:30Z</time>
      </trkpt>
      <trkpt lat="45.76188" lon="4.82298">
        <ele>315.9</ele>
        <time>2018-12-02T10:42:37Z</time>
      </trkpt>
      <trkpt lat="45.76195" lon="4.82299">
        <ele>316.3</ele>
        <time>2018-12-02T10:42:42Z</time>
      </trkpt>
      <trkpt lat="45.76204" lon="4.823">
        <ele>316.7</ele>
        <time>2018-12-02T10:42:48Z</time>
      </trkpt>
      <trkpt lat="45.76212" lon="4.82302">
        <ele>317.1</ele>
        <time>2018-12-02T10:42:52Z</time>
      </trkpt>
      <trkpt lat="45.76219" lon="4.823">
        <ele>317.2</ele>
        <time>2018-12-02T10:42:59Z</time>
      </trkpt>
      <trkpt lat="45.76226" lon="4.823">
        <ele>317.5</ele>
        <time>2018-12-02T10:43:06Z</time>
      </trkpt>
      <trkpt lat="45.76234" lon="4.82295">
        <ele>318</ele>
        <time>2018-12-02T10:43:13Z</time>
      </trkpt>
      <trkpt lat="45.76242" lon="4.82295">
        <ele>318.4</ele>
        <time>2018-12-02T10:43:19Z</time>
      </trkpt>
      <trkpt lat="45.76249" lon="4.82297">
        <ele>318.8</ele>
        <time>2018-12-02T10:43:24Z</time>
      </trkpt>
      <trkpt lat="45.76256" lon="4.82298">
        <ele>320.2</ele>
        <time>2018-12-02T10:43:31Z</time>
      </trkpt>
      <trkpt lat="45.7626" lon="4.82297">
        <ele>321.8</ele>
        <time>2018-12-02T10:43:38Z</time>
      </trkpt>
      <trkpt lat="45.76264" lon="4.823">
        <ele>324.4</ele>
        <time>2018-12-02T10:43:47Z</time>
      </trkpt>
      <trkpt lat="45.76266" lon="4.82302">
        <ele>325.7</ele>
        <time>2018-12-02T10:43:54Z</time>
      </trkpt>
      <trkpt lat="45.76266" lon="4.82304">
        <ele>327.4</ele>
        <time>2018-12-02T10:44:05Z</time>
      </trkpt>
      <trkpt lat="45.7627" lon="4.82306">
        <ele>328.5</ele>
        <time>2018-12-02T10:44:17Z</time>
      </trkpt>
      <trkpt lat="45.76272" lon="4.82306">
        <ele>328.7</ele>
        <time>2018-12-02T10:44:24Z</time>
      </trkpt>
      <trkpt lat="45.76274" lon="4.82296">
        <ele>329.3</ele>
        <time>2018-12-02T10:44:40Z</time>
      </trkpt>
      <trkpt lat="45.76278" lon="4.82287">
        <ele>329.9</ele>
        <time>2018-12-02T10:44:47Z</time>
      </trkpt>
      <trkpt lat="45.76277" lon="4.82282">
        <ele>330.4</ele>
        <time>2018-12-02T10:44:54Z</time>
      </trkpt>
      <trkpt lat="45.76274" lon="4.82271">
        <ele>330.6</ele>
        <time>2018-12-02T10:44:58Z</time>
      </trkpt>
      <trkpt lat="45.76274" lon="4.82261">
        <ele>330.8</ele>
        <time>2018-12-02T10:45:03Z</time>
      </trkpt>
      <trkpt lat="45.76274" lon="4.82246">
        <ele>330.7</ele>
        <time>2018-12-02T10:45:07Z</time>
      </trkpt>
      <trkpt lat="45.76272" lon="4.82235">
        <ele>330.7</ele>
        <time>2018-12-02T10:45:11Z</time>
      </trkpt>
      <trkpt lat="45.76271" lon="4.82225">
        <ele>330.9</ele>
        <time>2018-12-02T10:45:16Z</time>
      </trkpt>
      <trkpt lat="45.76276" lon="4.82221">
        <ele>331.1</ele>
        <time>2018-12-02T10:45:23Z</time>
      </trkpt>
      <trkpt lat="45.76283" lon="4.8222">
        <ele>330.8</ele>
        <time>2018-12-02T10:45:29Z</time>
      </trkpt>
      <trkpt lat="45.76291" lon="4.8222">
        <ele>330.3</ele>
        <time>2018-12-02T10:45:34Z</time>
      </trkpt>
      <trkpt lat="45.763" lon="4.82222">
        <ele>329.6</ele>
        <time>2018-12-02T10:45:41Z</time>
      </trkpt>
      <trkpt lat="45.76308" lon="4.82225">
        <ele>329.4</ele>
        <time>2018-12-02T10:45:44Z</time>
      </trkpt>
      <trkpt lat="45.76316" lon="4.82226">
        <ele>329.4</ele>
        <time>2018-12-02T10:45:47Z</time>
      </trkpt>
      <trkpt lat="45.76323" lon="4.82229">
        <ele>329.2</ele>
        <time>2018-12-02T10:45:52Z</time>
      </trkpt>
      <trkpt lat="45.76331" lon="4.82232">
        <ele>328.9</ele>
        <time>2018-12-02T10:45:56Z</time>
      </trkpt>
      <trkpt lat="45.76338" lon="4.82235">
        <ele>328.8</ele>
        <time>2018-12-02T10:45:59Z</time>
      </trkpt>
      <trkpt lat="45.76346" lon="4.82235">
        <ele>328.7</ele>
        <time>2018-12-02T10:46:01Z</time>
      </trkpt>
      <trkpt lat="45.76351" lon="4.82226">
        <ele>328.5</ele>
        <time>2018-12-02T10:46:04Z</time>
      </trkpt>
      <trkpt lat="45.76355" lon="4.82216">
        <ele>328.1</ele>
        <time>2018-12-02T10:46:09Z</time>
      </trkpt>
      <trkpt lat="45.76358" lon="4.82205">
        <ele>328</ele>
        <time>2018-12-02T10:46:12Z</time>
      </trkpt>
      <trkpt lat="45.76359" lon="4.82192">
        <ele>328.1</ele>
        <time>2018-12-02T10:46:16Z</time>
      </trkpt>
      <trkpt lat="45.76356" lon="4.82182">
        <ele>328.2</ele>
        <time>2018-12-02T10:46:19Z</time>
      </trkpt>
      <trkpt lat="45.76351" lon="4.82172">
        <ele>328.3</ele>
        <time>2018-12-02T10:46:22Z</time>
      </trkpt>
      <trkpt lat="45.76346" lon="4.82162">
        <ele>328.5</ele>
        <time>2018-12-02T10:46:25Z</time>
      </trkpt>
      <trkpt lat="45.76339" lon="4.82157">
        <ele>328.9</ele>
        <time>2018-12-02T10:46:28Z</time>
      </trkpt>
      <trkpt lat="45.76333" lon="4.82151">
        <ele>329.4</ele>
        <time>2018-12-02T10:46:31Z</time>
      </trkpt>
      <trkpt lat="45.76327" lon="4.82144">
        <ele>330.2</ele>
        <time>2018-12-02T10:46:35Z</time>
      </trkpt>
      <trkpt lat="45.76324" lon="4.82134">
        <ele>330.9</ele>
        <time>2018-12-02T10:46:39Z</time>
      </trkpt>
      <trkpt lat="45.76321" lon="4.82124">
        <ele>331.3</ele>
        <time>2018-12-02T10:46:42Z</time>
      </trkpt>
      <trkpt lat="45.76319" lon="4.82115">
        <ele>331.7</ele>
        <time>2018-12-02T10:46:45Z</time>
      </trkpt>
      <trkpt lat="45.76316" lon="4.82105">
        <ele>332</ele>
        <time>2018-12-02T10:46:48Z</time>
      </trkpt>
      <trkpt lat="45.76313" lon="4.82093">
        <ele>332.3</ele>
        <time>2018-12-02T10:46:52Z</time>
      </trkpt>
      <trkpt lat="45.7631" lon="4.82081">
        <ele>332.5</ele>
        <time>2018-12-02T10:46:56Z</time>
      </trkpt>
      <trkpt lat="45.76307" lon="4.8207">
        <ele>332.5</ele>
        <time>2018-12-02T10:47:00Z</time>
      </trkpt>
      <trkpt lat="45.76303" lon="4.82056">
        <ele>332.4</ele>
        <time>2018-12-02T10:47:04Z</time>
      </trkpt>
      <trkpt lat="45.763" lon="4.82045">
        <ele>332</ele>
        <time>2018-12-02T10:47:08Z</time>
      </trkpt>
      <trkpt lat="45.76297" lon="4.82033">
        <ele>331.4</ele>
        <time>2018-12-02T10:47:12Z</time>
      </trkpt>
      <trkpt lat="45.76296" lon="4.82021">
        <ele>330.8</ele>
        <time>2018-12-02T10:47:16Z</time>
      </trkpt>
      <trkpt lat="45.76295" lon="4.82009">
        <ele>330.4</ele>
        <time>2018-12-02T10:47:19Z</time>
      </trkpt>
      <trkpt lat="45.76297" lon="4.81998">
        <ele>329.9</ele>
        <time>2018-12-02T10:47:22Z</time>
      </trkpt>
      <trkpt lat="45.76299" lon="4.81984">
        <ele>329.5</ele>
        <time>2018-12-02T10:47:25Z</time>
      </trkpt>
      <trkpt lat="45.76303" lon="4.81975">
        <ele>329.1</ele>
        <time>2018-12-02T10:47:28Z</time>
      </trkpt>
      <trkpt lat="45.76307" lon="4.81965">
        <ele>328.6</ele>
        <time>2018-12-02T10:47:31Z</time>
      </trkpt>
      <trkpt lat="45.76312" lon="4.81956">
        <ele>328.2</ele>
        <time>2018-12-02T10:47:34Z</time>
      </trkpt>
      <trkpt lat="45.76315" lon="4.81945">
        <ele>327.8</ele>
        <time>2018-12-02T10:47:37Z</time>
      </trkpt>
      <trkpt lat="45.76319" lon="4.81936">
        <ele>327.6</ele>
        <time>2018-12-02T10:47:40Z</time>
      </trkpt>
      <trkpt lat="45.76322" lon="4.81924">
        <ele>327.5</ele>
        <time>2018-12-02T10:47:44Z</time>
      </trkpt>
      <trkpt lat="45.76325" lon="4.81912">
        <ele>327.2</ele>
        <time>2018-12-02T10:47:48Z</time>
      </trkpt>
      <trkpt lat="45.76328" lon="4.81901">
        <ele>327.1</ele>
        <time>2018-12-02T10:47:52Z</time>
      </trkpt>
      <trkpt lat="45.76331" lon="4.81888">
        <ele>327</ele>
        <time>2018-12-02T10:47:56Z</time>
      </trkpt>
      <trkpt lat="45.76333" lon="4.81878">
        <ele>326.8</ele>
        <time>2018-12-02T10:47:59Z</time>
      </trkpt>
      <trkpt lat="45.76335" lon="4.81866">
        <ele>326.5</ele>
        <time>2018-12-02T10:48:04Z</time>
      </trkpt>
      <trkpt lat="45.76336" lon="4.81856">
        <ele>326.3</ele>
        <time>2018-12-02T10:48:07Z</time>
      </trkpt>
      <trkpt lat="45.76337" lon="4.81843">
        <ele>326.1</ele>
        <time>2018-12-02T10:48:11Z</time>
      </trkpt>
      <trkpt lat="45.76336" lon="4.81831">
        <ele>326</ele>
        <time>2018-12-02T10:48:15Z</time>
      </trkpt>
      <trkpt lat="45.76336" lon="4.81818">
        <ele>325.8</ele>
        <time>2018-12-02T10:48:19Z</time>
      </trkpt>
      <trkpt lat="45.76335" lon="4.81807">
        <ele>325.8</ele>
        <time>2018-12-02T10:48:22Z</time>
      </trkpt>
      <trkpt lat="45.76334" lon="4.81797">
        <ele>325.6</ele>
        <time>2018-12-02T10:48:25Z</time>
      </trkpt>
      <trkpt lat="45.76333" lon="4.81785">
        <ele>325.5</ele>
        <time>2018-12-02T10:48:29Z</time>
      </trkpt>
      <trkpt lat="45.76332" lon="4.81774">
        <ele>325.4</ele>
        <time>2018-12-02T10:48:33Z</time>
      </trkpt>
      <trkpt lat="45.76332" lon="4.81762">
        <ele>325.4</ele>
        <time>2018-12-02T10:48:38Z</time>
      </trkpt>
      <trkpt lat="45.76332" lon="4.81752">
        <ele>325.3</ele>
        <time>2018-12-02T10:48:42Z</time>
      </trkpt>
      <trkpt lat="45.76331" lon="4.81739">
        <ele>325.2</ele>
        <time>2018-12-02T10:48:46Z</time>
      </trkpt>
      <trkpt lat="45.76331" lon="4.81726">
        <ele>324.8</ele>
        <time>2018-12-02T10:48:51Z</time>
      </trkpt>
      <trkpt lat="45.7633" lon="4.81715">
        <ele>324.4</ele>
        <time>2018-12-02T10:48:55Z</time>
      </trkpt>
      <trkpt lat="45.76329" lon="4.81704">
        <ele>324.2</ele>
        <time>2018-12-02T10:48:59Z</time>
      </trkpt>
      <trkpt lat="45.76328" lon="4.81694">
        <ele>324</ele>
        <time>2018-12-02T10:49:04Z</time>
      </trkpt>
      <trkpt lat="45.76326" lon="4.81681">
        <ele>323.7</ele>
        <time>2018-12-02T10:49:08Z</time>
      </trkpt>
      <trkpt lat="45.76324" lon="4.81671">
        <ele>323.5</ele>
        <time>2018-12-02T10:49:13Z</time>
      </trkpt>
      <trkpt lat="45.76321" lon="4.81661">
        <ele>323.2</ele>
        <time>2018-12-02T10:49:18Z</time>
      </trkpt>
      <trkpt lat="45.76317" lon="4.8165">
        <ele>322.9</ele>
        <time>2018-12-02T10:49:22Z</time>
      </trkpt>
      <trkpt lat="45.76316" lon="4.81639">
        <ele>322.7</ele>
        <time>2018-12-02T10:49:27Z</time>
      </trkpt>
      <trkpt lat="45.76314" lon="4.81628">
        <ele>322.6</ele>
        <time>2018-12-02T10:49:31Z</time>
      </trkpt>
      <trkpt lat="45.76313" lon="4.81615">
        <ele>322.4</ele>
        <time>2018-12-02T10:49:35Z</time>
      </trkpt>
      <trkpt lat="45.76312" lon="4.81605">
        <ele>322.3</ele>
        <time>2018-12-02T10:49:39Z</time>
      </trkpt>
      <trkpt lat="45.7631" lon="4.81593">
        <ele>322.1</ele>
        <time>2018-12-02T10:49:43Z</time>
      </trkpt>
      <trkpt lat="45.76308" lon="4.81582">
        <ele>322.2</ele>
        <time>2018-12-02T10:49:46Z</time>
      </trkpt>
      <trkpt lat="45.76307" lon="4.81571">
        <ele>322.4</ele>
        <time>2018-12-02T10:49:51Z</time>
      </trkpt>
      <trkpt lat="45.76305" lon="4.8156">
        <ele>322.2</ele>
        <time>2018-12-02T10:49:57Z</time>
      </trkpt>
      <trkpt lat="45.76303" lon="4.81549">
        <ele>321.8</ele>
        <time>2018-12-02T10:50:01Z</time>
      </trkpt>
      <trkpt lat="45.763" lon="4.81539">
        <ele>321.2</ele>
        <time>2018-12-02T10:50:07Z</time>
      </trkpt>
      <trkpt lat="45.76297" lon="4.81527">
        <ele>320.3</ele>
        <time>2018-12-02T10:50:12Z</time>
      </trkpt>
      <trkpt lat="45.76294" lon="4.81518">
        <ele>319.3</ele>
        <time>2018-12-02T10:50:16Z</time>
      </trkpt>
      <trkpt lat="45.76291" lon="4.81507">
        <ele>318</ele>
        <time>2018-12-02T10:50:21Z</time>
      </trkpt>
      <trkpt lat="45.76288" lon="4.81493">
        <ele>316.9</ele>
        <time>2018-12-02T10:50:25Z</time>
      </trkpt>
      <trkpt lat="45.76286" lon="4.8148">
        <ele>315.7</ele>
        <time>2018-12-02T10:50:30Z</time>
      </trkpt>
      <trkpt lat="45.76285" lon="4.81467">
        <ele>314.9</ele>
        <time>2018-12-02T10:50:34Z</time>
      </trkpt>
      <trkpt lat="45.76288" lon="4.81458">
        <ele>314.7</ele>
        <time>2018-12-02T10:50:37Z</time>
      </trkpt>
      <trkpt lat="45.76295" lon="4.81447">
        <ele>314.7</ele>
        <time>2018-12-02T10:50:40Z</time>
      </trkpt>
      <trkpt lat="45.76297" lon="4.81437">
        <ele>314.7</ele>
        <time>2018-12-02T10:50:42Z</time>
      </trkpt>
      <trkpt lat="45.763" lon="4.81425">
        <ele>315.1</ele>
        <time>2018-12-02T10:50:45Z</time>
      </trkpt>
      <trkpt lat="45.763" lon="4.81413">
        <ele>315.9</ele>
        <time>2018-12-02T10:50:49Z</time>
      </trkpt>
      <trkpt lat="45.76299" lon="4.81403">
        <ele>316.7</ele>
        <time>2018-12-02T10:50:53Z</time>
      </trkpt>
      <trkpt lat="45.76298" lon="4.81389">
        <ele>317.5</ele>
        <time>2018-12-02T10:50:57Z</time>
      </trkpt>
      <trkpt lat="45.76298" lon="4.81379">
        <ele>317.9</ele>
        <time>2018-12-02T10:50:59Z</time>
      </trkpt>
      <trkpt lat="45.76296" lon="4.81368">
        <ele>318.7</ele>
        <time>2018-12-02T10:51:02Z</time>
      </trkpt>
      <trkpt lat="45.76294" lon="4.81357">
        <ele>319.9</ele>
        <time>2018-12-02T10:51:07Z</time>
      </trkpt>
      <trkpt lat="45.76295" lon="4.81353">
        <ele>321.1</ele>
        <time>2018-12-02T10:51:14Z</time>
      </trkpt>
      <trkpt lat="45.76303" lon="4.81349">
        <ele>322.6</ele>
        <time>2018-12-02T10:51:23Z</time>
      </trkpt>
      <trkpt lat="45.7631" lon="4.81344">
        <ele>323.4</ele>
        <time>2018-12-02T10:51:27Z</time>
      </trkpt>
      <trkpt lat="45.76318" lon="4.81338">
        <ele>324.2</ele>
        <time>2018-12-02T10:51:31Z</time>
      </trkpt>
      <trkpt lat="45.76326" lon="4.81333">
        <ele>325.3</ele>
        <time>2018-12-02T10:51:38Z</time>
      </trkpt>
      <trkpt lat="45.76333" lon="4.81334">
        <ele>325.7</ele>
        <time>2018-12-02T10:51:41Z</time>
      </trkpt>
      <trkpt lat="45.76341" lon="4.81335">
        <ele>325.9</ele>
        <time>2018-12-02T10:51:44Z</time>
      </trkpt>
      <trkpt lat="45.76349" lon="4.81336">
        <ele>326</ele>
        <time>2018-12-02T10:51:47Z</time>
      </trkpt>
      <trkpt lat="45.76357" lon="4.81336">
        <ele>326</ele>
        <time>2018-12-02T10:51:50Z</time>
      </trkpt>
      <trkpt lat="45.76365" lon="4.81334">
        <ele>326</ele>
        <time>2018-12-02T10:51:53Z</time>
      </trkpt>
      <trkpt lat="45.76373" lon="4.81331">
        <ele>325.9</ele>
        <time>2018-12-02T10:51:56Z</time>
      </trkpt>
      <trkpt lat="45.76381" lon="4.81325">
        <ele>325.6</ele>
        <time>2018-12-02T10:52:00Z</time>
      </trkpt>
      <trkpt lat="45.76386" lon="4.81319">
        <ele>325.3</ele>
        <time>2018-12-02T10:52:03Z</time>
      </trkpt>
      <trkpt lat="45.76392" lon="4.8131">
        <ele>324.9</ele>
        <time>2018-12-02T10:52:07Z</time>
      </trkpt>
      <trkpt lat="45.76397" lon="4.81301">
        <ele>324.7</ele>
        <time>2018-12-02T10:52:11Z</time>
      </trkpt>
      <trkpt lat="45.76404" lon="4.81295">
        <ele>324.5</ele>
        <time>2018-12-02T10:52:15Z</time>
      </trkpt>
      <trkpt lat="45.76412" lon="4.81289">
        <ele>324.5</ele>
        <time>2018-12-02T10:52:19Z</time>
      </trkpt>
      <trkpt lat="45.7642" lon="4.81283">
        <ele>324.5</ele>
        <time>2018-12-02T10:52:23Z</time>
      </trkpt>
      <trkpt lat="45.76426" lon="4.81277">
        <ele>324.5</ele>
        <time>2018-12-02T10:52:26Z</time>
      </trkpt>
      <trkpt lat="45.76433" lon="4.8127">
        <ele>324.3</ele>
        <time>2018-12-02T10:52:29Z</time>
      </trkpt>
      <trkpt lat="45.76439" lon="4.81263">
        <ele>324.2</ele>
        <time>2018-12-02T10:52:32Z</time>
      </trkpt>
      <trkpt lat="45.76445" lon="4.81255">
        <ele>324.1</ele>
        <time>2018-12-02T10:52:36Z</time>
      </trkpt>
      <trkpt lat="45.76452" lon="4.81247">
        <ele>323.8</ele>
        <time>2018-12-02T10:52:40Z</time>
      </trkpt>
      <trkpt lat="45.7646" lon="4.8124">
        <ele>323.4</ele>
        <time>2018-12-02T10:52:44Z</time>
      </trkpt>
      <trkpt lat="45.76465" lon="4.81232">
        <ele>322.9</ele>
        <time>2018-12-02T10:52:48Z</time>
      </trkpt>
      <trkpt lat="45.76473" lon="4.81223">
        <ele>322.3</ele>
        <time>2018-12-02T10:52:52Z</time>
      </trkpt>
      <trkpt lat="45.76478" lon="4.81215">
        <ele>321.8</ele>
        <time>2018-12-02T10:52:55Z</time>
      </trkpt>
      <trkpt lat="45.76482" lon="4.81203">
        <ele>321</ele>
        <time>2018-12-02T10:52:59Z</time>
      </trkpt>
      <trkpt lat="45.76486" lon="4.81192">
        <ele>320.1</ele>
        <time>2018-12-02T10:53:03Z</time>
      </trkpt>
      <trkpt lat="45.7649" lon="4.8118">
        <ele>319</ele>
        <time>2018-12-02T10:53:08Z</time>
      </trkpt>
      <trkpt lat="45.76495" lon="4.81171">
        <ele>318</ele>
        <time>2018-12-02T10:53:12Z</time>
      </trkpt>
      <trkpt lat="45.765" lon="4.81159">
        <ele>317</ele>
        <time>2018-12-02T10:53:16Z</time>
      </trkpt>
      <trkpt lat="45.76504" lon="4.8115">
        <ele>316.1</ele>
        <time>2018-12-02T10:53:19Z</time>
      </trkpt>
      <trkpt lat="45.76508" lon="4.8114">
        <ele>315</ele>
        <time>2018-12-02T10:53:23Z</time>
      </trkpt>
      <trkpt lat="45.76514" lon="4.81131">
        <ele>313.5</ele>
        <time>2018-12-02T10:53:28Z</time>
      </trkpt>
      <trkpt lat="45.76518" lon="4.81116">
        <ele>312.3</ele>
        <time>2018-12-02T10:53:32Z</time>
      </trkpt>
      <trkpt lat="45.76521" lon="4.81105">
        <ele>311.4</ele>
        <time>2018-12-02T10:53:36Z</time>
      </trkpt>
      <trkpt lat="45.76527" lon="4.81096">
        <ele>310</ele>
        <time>2018-12-02T10:53:41Z</time>
      </trkpt>
      <trkpt lat="45.76529" lon="4.81086">
        <ele>308.3</ele>
        <time>2018-12-02T10:53:45Z</time>
      </trkpt>
      <trkpt lat="45.76533" lon="4.81077">
        <ele>306.9</ele>
        <time>2018-12-02T10:53:48Z</time>
      </trkpt>
      <trkpt lat="45.76538" lon="4.81067">
        <ele>305.4</ele>
        <time>2018-12-02T10:53:51Z</time>
      </trkpt>
      <trkpt lat="45.76543" lon="4.81056">
        <ele>304</ele>
        <time>2018-12-02T10:53:54Z</time>
      </trkpt>
      <trkpt lat="45.76548" lon="4.81047">
        <ele>302.7</ele>
        <time>2018-12-02T10:53:57Z</time>
      </trkpt>
      <trkpt lat="45.76554" lon="4.81035">
        <ele>300.9</ele>
        <time>2018-12-02T10:54:01Z</time>
      </trkpt>
      <trkpt lat="45.76561" lon="4.81028">
        <ele>299.9</ele>
        <time>2018-12-02T10:54:04Z</time>
      </trkpt>
      <trkpt lat="45.76566" lon="4.8102">
        <ele>298.6</ele>
        <time>2018-12-02T10:54:08Z</time>
      </trkpt>
      <trkpt lat="45.76572" lon="4.81014">
        <ele>297.2</ele>
        <time>2018-12-02T10:54:12Z</time>
      </trkpt>
      <trkpt lat="45.76579" lon="4.81007">
        <ele>296.1</ele>
        <time>2018-12-02T10:54:15Z</time>
      </trkpt>
      <trkpt lat="45.76587" lon="4.81">
        <ele>294.1</ele>
        <time>2018-12-02T10:54:20Z</time>
      </trkpt>
      <trkpt lat="45.76592" lon="4.80992">
        <ele>292.8</ele>
        <time>2018-12-02T10:54:23Z</time>
      </trkpt>
      <trkpt lat="45.76598" lon="4.80986">
        <ele>291</ele>
        <time>2018-12-02T10:54:27Z</time>
      </trkpt>
      <trkpt lat="45.76605" lon="4.8098">
        <ele>288.5</ele>
        <time>2018-12-02T10:54:32Z</time>
      </trkpt>
      <trkpt lat="45.76612" lon="4.80974">
        <ele>286.1</ele>
        <time>2018-12-02T10:54:36Z</time>
      </trkpt>
      <trkpt lat="45.76619" lon="4.8097">
        <ele>284.2</ele>
        <time>2018-12-02T10:54:39Z</time>
      </trkpt>
      <trkpt lat="45.76628" lon="4.80964">
        <ele>281.9</ele>
        <time>2018-12-02T10:54:43Z</time>
      </trkpt>
      <trkpt lat="45.76636" lon="4.80958">
        <ele>280.3</ele>
        <time>2018-12-02T10:54:46Z</time>
      </trkpt>
      <trkpt lat="45.76643" lon="4.80953">
        <ele>278.8</ele>
        <time>2018-12-02T10:54:49Z</time>
      </trkpt>
      <trkpt lat="45.76651" lon="4.80948">
        <ele>277.4</ele>
        <time>2018-12-02T10:54:52Z</time>
      </trkpt>
      <trkpt lat="45.7666" lon="4.80945">
        <ele>275.9</ele>
        <time>2018-12-02T10:54:55Z</time>
      </trkpt>
      <trkpt lat="45.7667" lon="4.80943">
        <ele>274.1</ele>
        <time>2018-12-02T10:54:59Z</time>
      </trkpt>
      <trkpt lat="45.76677" lon="4.80939">
        <ele>273</ele>
        <time>2018-12-02T10:55:02Z</time>
      </trkpt>
      <trkpt lat="45.76685" lon="4.8094">
        <ele>272</ele>
        <time>2018-12-02T10:55:06Z</time>
      </trkpt>
      <trkpt lat="45.76693" lon="4.80942">
        <ele>270.9</ele>
        <time>2018-12-02T10:55:11Z</time>
      </trkpt>
      <trkpt lat="45.76703" lon="4.80943">
        <ele>270</ele>
        <time>2018-12-02T10:55:15Z</time>
      </trkpt>
      <trkpt lat="45.7671" lon="4.80943">
        <ele>269.4</ele>
        <time>2018-12-02T10:55:18Z</time>
      </trkpt>
      <trkpt lat="45.76718" lon="4.80943">
        <ele>269</ele>
        <time>2018-12-02T10:55:21Z</time>
      </trkpt>
      <trkpt lat="45.76727" lon="4.80944">
        <ele>268.6</ele>
        <time>2018-12-02T10:55:25Z</time>
      </trkpt>
      <trkpt lat="45.76736" lon="4.80948">
        <ele>268.4</ele>
        <time>2018-12-02T10:55:28Z</time>
      </trkpt>
      <trkpt lat="45.76745" lon="4.80953">
        <ele>268.5</ele>
        <time>2018-12-02T10:55:31Z</time>
      </trkpt>
      <trkpt lat="45.76752" lon="4.80957">
        <ele>268.9</ele>
        <time>2018-12-02T10:55:34Z</time>
      </trkpt>
      <trkpt lat="45.7676" lon="4.80957">
        <ele>269.3</ele>
        <time>2018-12-02T10:55:38Z</time>
      </trkpt>
      <trkpt lat="45.76769" lon="4.80958">
        <ele>269.4</ele>
        <time>2018-12-02T10:55:42Z</time>
      </trkpt>
      <trkpt lat="45.76776" lon="4.8096">
        <ele>269.3</ele>
        <time>2018-12-02T10:55:45Z</time>
      </trkpt>
      <trkpt lat="45.76784" lon="4.80961">
        <ele>269.1</ele>
        <time>2018-12-02T10:55:49Z</time>
      </trkpt>
      <trkpt lat="45.76792" lon="4.80962">
        <ele>269</ele>
        <time>2018-12-02T10:55:52Z</time>
      </trkpt>
      <trkpt lat="45.76801" lon="4.80967">
        <ele>269</ele>
        <time>2018-12-02T10:55:55Z</time>
      </trkpt>
      <trkpt lat="45.7681" lon="4.80972">
        <ele>269.1</ele>
        <time>2018-12-02T10:55:58Z</time>
      </trkpt>
      <trkpt lat="45.76818" lon="4.80977">
        <ele>269.2</ele>
        <time>2018-12-02T10:56:02Z</time>
      </trkpt>
      <trkpt lat="45.76827" lon="4.80977">
        <ele>269</ele>
        <time>2018-12-02T10:56:07Z</time>
      </trkpt>
      <trkpt lat="45.76835" lon="4.80975">
        <ele>268.6</ele>
        <time>2018-12-02T10:56:11Z</time>
      </trkpt>
      <trkpt lat="45.76844" lon="4.80977">
        <ele>268.2</ele>
        <time>2018-12-02T10:56:15Z</time>
      </trkpt>
      <trkpt lat="45.76852" lon="4.80978">
        <ele>268</ele>
        <time>2018-12-02T10:56:18Z</time>
      </trkpt>
      <trkpt lat="45.7686" lon="4.80983">
        <ele>267.6</ele>
        <time>2018-12-02T10:56:22Z</time>
      </trkpt>
      <trkpt lat="45.76868" lon="4.80985">
        <ele>267</ele>
        <time>2018-12-02T10:56:26Z</time>
      </trkpt>
      <trkpt lat="45.76878" lon="4.80985">
        <ele>265.8</ele>
        <time>2018-12-02T10:56:31Z</time>
      </trkpt>
      <trkpt lat="45.76886" lon="4.80988">
        <ele>265</ele>
        <time>2018-12-02T10:56:34Z</time>
      </trkpt>
      <trkpt lat="45.76893" lon="4.80995">
        <ele>264</ele>
        <time>2018-12-02T10:56:37Z</time>
      </trkpt>
      <trkpt lat="45.76898" lon="4.81005">
        <ele>262.6</ele>
        <time>2018-12-02T10:56:41Z</time>
      </trkpt>
      <trkpt lat="45.76903" lon="4.81013">
        <ele>261.5</ele>
        <time>2018-12-02T10:56:45Z</time>
      </trkpt>
      <trkpt lat="45.76901" lon="4.81024">
        <ele>260.3</ele>
        <time>2018-12-02T10:56:52Z</time>
      </trkpt>
      <trkpt lat="45.76895" lon="4.81031">
        <ele>259.7</ele>
        <time>2018-12-02T10:56:56Z</time>
      </trkpt>
      <trkpt lat="45.76888" lon="4.81033">
        <ele>259.7</ele>
        <time>2018-12-02T10:56:59Z</time>
      </trkpt>
      <trkpt lat="45.7688" lon="4.81032">
        <ele>259.6</ele>
        <time>2018-12-02T10:57:02Z</time>
      </trkpt>
      <trkpt lat="45.76871" lon="4.81031">
        <ele>259.3</ele>
        <time>2018-12-02T10:57:06Z</time>
      </trkpt>
      <trkpt lat="45.76863" lon="4.81027">
        <ele>258.9</ele>
        <time>2018-12-02T10:57:10Z</time>
      </trkpt>
      <trkpt lat="45.76856" lon="4.81022">
        <ele>258.4</ele>
        <time>2018-12-02T10:57:14Z</time>
      </trkpt>
      <trkpt lat="45.76848" lon="4.81019">
        <ele>258</ele>
        <time>2018-12-02T10:57:18Z</time>
      </trkpt>
      <trkpt lat="45.76841" lon="4.8102">
        <ele>257.8</ele>
        <time>2018-12-02T10:57:21Z</time>
      </trkpt>
      <trkpt lat="45.76833" lon="4.81024">
        <ele>257.3</ele>
        <time>2018-12-02T10:57:25Z</time>
      </trkpt>
      <trkpt lat="45.76826" lon="4.8103">
        <ele>257</ele>
        <time>2018-12-02T10:57:29Z</time>
      </trkpt>
      <trkpt lat="45.7682" lon="4.81039">
        <ele>256.7</ele>
        <time>2018-12-02T10:57:32Z</time>
      </trkpt>
      <trkpt lat="45.76813" lon="4.81044">
        <ele>256.4</ele>
        <time>2018-12-02T10:57:35Z</time>
      </trkpt>
      <trkpt lat="45.76806" lon="4.8105">
        <ele>255.9</ele>
        <time>2018-12-02T10:57:39Z</time>
      </trkpt>
      <trkpt lat="45.76799" lon="4.81054">
        <ele>255.2</ele>
        <time>2018-12-02T10:57:44Z</time>
      </trkpt>
      <trkpt lat="45.76791" lon="4.81059">
        <ele>255</ele>
        <time>2018-12-02T10:57:49Z</time>
      </trkpt>
      <trkpt lat="45.76782" lon="4.8106">
        <ele>255.2</ele>
        <time>2018-12-02T10:57:53Z</time>
      </trkpt>
      <trkpt lat="45.76776" lon="4.81064">
        <ele>255.4</ele>
        <time>2018-12-02T10:57:56Z</time>
      </trkpt>
      <trkpt lat="45.76768" lon="4.81066">
        <ele>256</ele>
        <time>2018-12-02T10:58:02Z</time>
      </trkpt>
      <trkpt lat="45.76761" lon="4.81071">
        <ele>256.4</ele>
        <time>2018-12-02T10:58:06Z</time>
      </trkpt>
      <trkpt lat="45.76754" lon="4.81076">
        <ele>256.7</ele>
        <time>2018-12-02T10:58:09Z</time>
      </trkpt>
      <trkpt lat="45.76747" lon="4.81084">
        <ele>257</ele>
        <time>2018-12-02T10:58:12Z</time>
      </trkpt>
      <trkpt lat="45.76739" lon="4.81093">
        <ele>257.5</ele>
        <time>2018-12-02T10:58:15Z</time>
      </trkpt>
      <trkpt lat="45.76733" lon="4.81101">
        <ele>258.1</ele>
        <time>2018-12-02T10:58:18Z</time>
      </trkpt>
      <trkpt lat="45.76726" lon="4.81108">
        <ele>258.9</ele>
        <time>2018-12-02T10:58:22Z</time>
      </trkpt>
      <trkpt lat="45.7672" lon="4.81113">
        <ele>259.6</ele>
        <time>2018-12-02T10:58:26Z</time>
      </trkpt>
      <trkpt lat="45.76713" lon="4.81121">
        <ele>260.2</ele>
        <time>2018-12-02T10:58:30Z</time>
      </trkpt>
      <trkpt lat="45.76706" lon="4.81131">
        <ele>260.6</ele>
        <time>2018-12-02T10:58:34Z</time>
      </trkpt>
      <trkpt lat="45.76701" lon="4.81139">
        <ele>260.9</ele>
        <time>2018-12-02T10:58:38Z</time>
      </trkpt>
      <trkpt lat="45.76699" lon="4.81149">
        <ele>260.9</ele>
        <time>2018-12-02T10:58:42Z</time>
      </trkpt>
      <trkpt lat="45.76697" lon="4.8116">
        <ele>260.2</ele>
        <time>2018-12-02T10:58:47Z</time>
      </trkpt>
      <trkpt lat="45.767" lon="4.81171">
        <ele>258.5</ele>
        <time>2018-12-02T10:58:52Z</time>
      </trkpt>
      <trkpt lat="45.767" lon="4.81183">
        <ele>256</ele>
        <time>2018-12-02T10:58:59Z</time>
      </trkpt>
      <trkpt lat="45.76698" lon="4.81181">
        <ele>252.1</ele>
        <time>2018-12-02T10:59:06Z</time>
      </trkpt>
      <trkpt lat="45.767" lon="4.81171">
        <ele>249.9</ele>
        <time>2018-12-02T10:59:10Z</time>
      </trkpt>
      <trkpt lat="45.76704" lon="4.81162">
        <ele>247.5</ele>
        <time>2018-12-02T10:59:15Z</time>
      </trkpt>
      <trkpt lat="45.76705" lon="4.81151">
        <ele>245.4</ele>
        <time>2018-12-02T10:59:19Z</time>
      </trkpt>
      <trkpt lat="45.76706" lon="4.81138">
        <ele>243.4</ele>
        <time>2018-12-02T10:59:23Z</time>
      </trkpt>
      <trkpt lat="45.7671" lon="4.81128">
        <ele>241.4</ele>
        <time>2018-12-02T10:59:28Z</time>
      </trkpt>
      <trkpt lat="45.76719" lon="4.81122">
        <ele>239.7</ele>
        <time>2018-12-02T10:59:35Z</time>
      </trkpt>
      <trkpt lat="45.76726" lon="4.8112">
        <ele>239</ele>
        <time>2018-12-02T10:59:39Z</time>
      </trkpt>
      <trkpt lat="45.76735" lon="4.81124">
        <ele>238.6</ele>
        <time>2018-12-02T10:59:43Z</time>
      </trkpt>
      <trkpt lat="45.76743" lon="4.81124">
        <ele>238.8</ele>
        <time>2018-12-02T10:59:45Z</time>
      </trkpt>
      <trkpt lat="45.76751" lon="4.81122">
        <ele>239.6</ele>
        <time>2018-12-02T10:59:48Z</time>
      </trkpt>
      <trkpt lat="45.76757" lon="4.81115">
        <ele>241.1</ele>
        <time>2018-12-02T10:59:53Z</time>
      </trkpt>
      <trkpt lat="45.76763" lon="4.81107">
        <ele>242.3</ele>
        <time>2018-12-02T10:59:58Z</time>
      </trkpt>
      <trkpt lat="45.76769" lon="4.811">
        <ele>242.6</ele>
        <time>2018-12-02T11:00:01Z</time>
      </trkpt>
      <trkpt lat="45.76779" lon="4.81101">
        <ele>242.2</ele>
        <time>2018-12-02T11:00:04Z</time>
      </trkpt>
      <trkpt lat="45.76789" lon="4.81094">
        <ele>241.2</ele>
        <time>2018-12-02T11:00:07Z</time>
      </trkpt>
      <trkpt lat="45.76797" lon="4.81088">
        <ele>240.4</ele>
        <time>2018-12-02T11:00:09Z</time>
      </trkpt>
      <trkpt lat="45.76808" lon="4.81086">
        <ele>238.9</ele>
        <time>2018-12-02T11:00:12Z</time>
      </trkpt>
      <trkpt lat="45.76818" lon="4.81091">
        <ele>237.8</ele>
        <time>2018-12-02T11:00:14Z</time>
      </trkpt>
      <trkpt lat="45.76825" lon="4.81098">
        <ele>236.8</ele>
        <time>2018-12-02T11:00:16Z</time>
      </trkpt>
      <trkpt lat="45.76829" lon="4.81107">
        <ele>235.4</ele>
        <time>2018-12-02T11:00:19Z</time>
      </trkpt>
      <trkpt lat="45.7683" lon="4.81118">
        <ele>233.9</ele>
        <time>2018-12-02T11:00:22Z</time>
      </trkpt>
      <trkpt lat="45.76829" lon="4.8113">
        <ele>232.2</ele>
        <time>2018-12-02T11:00:26Z</time>
      </trkpt>
      <trkpt lat="45.76822" lon="4.81139">
        <ele>230.5</ele>
        <time>2018-12-02T11:00:31Z</time>
      </trkpt>
      <trkpt lat="45.76817" lon="4.81147">
        <ele>229.6</ele>
        <time>2018-12-02T11:00:35Z</time>
      </trkpt>
      <trkpt lat="45.7681" lon="4.8115">
        <ele>228.3</ele>
        <time>2018-12-02T11:00:42Z</time>
      </trkpt>
      <trkpt lat="45.76806" lon="4.81152">
        <ele>226.8</ele>
        <time>2018-12-02T11:00:49Z</time>
      </trkpt>
      <trkpt lat="45.76798" lon="4.81155">
        <ele>225.4</ele>
        <time>2018-12-02T11:00:55Z</time>
      </trkpt>
      <trkpt lat="45.76791" lon="4.81161">
        <ele>224.1</ele>
        <time>2018-12-02T11:01:00Z</time>
      </trkpt>
      <trkpt lat="45.76784" lon="4.81166">
        <ele>223.2</ele>
        <time>2018-12-02T11:01:03Z</time>
      </trkpt>
      <trkpt lat="45.76776" lon="4.81173">
        <ele>222.4</ele>
        <time>2018-12-02T11:01:06Z</time>
      </trkpt>
      <trkpt lat="45.7677" lon="4.81181">
        <ele>222.3</ele>
        <time>2018-12-02T11:01:07Z</time>
      </trkpt>
      <trkpt lat="45.76764" lon="4.81191">
        <ele>221.9</ele>
        <time>2018-12-02T11:01:10Z</time>
      </trkpt>
      <trkpt lat="45.76761" lon="4.81201">
        <ele>221.3</ele>
        <time>2018-12-02T11:01:13Z</time>
      </trkpt>
      <trkpt lat="45.76756" lon="4.81213">
        <ele>220.8</ele>
        <time>2018-12-02T11:01:15Z</time>
      </trkpt>
      <trkpt lat="45.76751" lon="4.81222">
        <ele>220.4</ele>
        <time>2018-12-02T11:01:17Z</time>
      </trkpt>
      <trkpt lat="45.7675" lon="4.81233">
        <ele>218.2</ele>
        <time>2018-12-02T11:01:24Z</time>
      </trkpt>
      <trkpt lat="45.76756" lon="4.81241">
        <ele>215.4</ele>
        <time>2018-12-02T11:01:31Z</time>
      </trkpt>
      <trkpt lat="45.76762" lon="4.8125">
        <ele>213</ele>
        <time>2018-12-02T11:01:36Z</time>
      </trkpt>
      <trkpt lat="45.76767" lon="4.81258">
        <ele>211.6</ele>
        <time>2018-12-02T11:01:39Z</time>
      </trkpt>
      <trkpt lat="45.76769" lon="4.81272">
        <ele>210.2</ele>
        <time>2018-12-02T11:01:42Z</time>
      </trkpt>
      <trkpt lat="45.7677" lon="4.81284">
        <ele>208.5</ele>
        <time>2018-12-02T11:01:46Z</time>
      </trkpt>
      <trkpt lat="45.76772" lon="4.81288">
        <ele>207.9</ele>
        <time>2018-12-02T11:01:53Z</time>
      </trkpt>
      <trkpt lat="45.76778" lon="4.81296">
        <ele>207.1</ele>
        <time>2018-12-02T11:02:04Z</time>
      </trkpt>
      <trkpt lat="45.7678" lon="4.81301">
        <ele>207.1</ele>
        <time>2018-12-02T11:02:11Z</time>
      </trkpt>
      <trkpt lat="45.76779" lon="4.81307">
        <ele>210.2</ele>
        <time>2018-12-02T11:02:47Z</time>
      </trkpt>
      <trkpt lat="45.76771" lon="4.81302">
        <ele>212.1</ele>
        <time>2018-12-02T11:03:08Z</time>
      </trkpt>
      <trkpt lat="45.76763" lon="4.81295">
        <ele>212.9</ele>
        <time>2018-12-02T11:03:12Z</time>
      </trkpt>
      <trkpt lat="45.76754" lon="4.81289">
        <ele>214</ele>
        <time>2018-12-02T11:03:17Z</time>
      </trkpt>
      <trkpt lat="45.76747" lon="4.81286">
        <ele>214.8</ele>
        <time>2018-12-02T11:03:21Z</time>
      </trkpt>
      <trkpt lat="45.76742" lon="4.81275">
        <ele>215.8</ele>
        <time>2018-12-02T11:03:27Z</time>
      </trkpt>
      <trkpt lat="45.7674" lon="4.81265">
        <ele>216.3</ele>
        <time>2018-12-02T11:03:31Z</time>
      </trkpt>
      <trkpt lat="45.76738" lon="4.81254">
        <ele>216.8</ele>
        <time>2018-12-02T11:03:36Z</time>
      </trkpt>
      <trkpt lat="45.76738" lon="4.81239">
        <ele>217.4</ele>
        <time>2018-12-02T11:03:40Z</time>
      </trkpt>
      <trkpt lat="45.76741" lon="4.81227">
        <ele>217.9</ele>
        <time>2018-12-02T11:03:44Z</time>
      </trkpt>
      <trkpt lat="45.76744" lon="4.81216">
        <ele>218.5</ele>
        <time>2018-12-02T11:03:49Z</time>
      </trkpt>
      <trkpt lat="45.76746" lon="4.81206">
        <ele>218.9</ele>
        <time>2018-12-02T11:03:55Z</time>
      </trkpt>
      <trkpt lat="45.76752" lon="4.812">
        <ele>219.1</ele>
        <time>2018-12-02T11:04:01Z</time>
      </trkpt>
      <trkpt lat="45.76758" lon="4.81194">
        <ele>218.9</ele>
        <time>2018-12-02T11:04:07Z</time>
      </trkpt>
      <trkpt lat="45.76765" lon="4.8119">
        <ele>218.7</ele>
        <time>2018-12-02T11:04:12Z</time>
      </trkpt>
      <trkpt lat="45.76771" lon="4.81182">
        <ele>218.3</ele>
        <time>2018-12-02T11:04:18Z</time>
      </trkpt>
      <trkpt lat="45.76779" lon="4.81173">
        <ele>218.5</ele>
        <time>2018-12-02T11:04:21Z</time>
      </trkpt>
      <trkpt lat="45.76784" lon="4.81166">
        <ele>219.5</ele>
        <time>2018-12-02T11:04:25Z</time>
      </trkpt>
      <trkpt lat="45.76789" lon="4.8116">
        <ele>221.6</ele>
        <time>2018-12-02T11:04:32Z</time>
      </trkpt>
      <trkpt lat="45.76795" lon="4.81155">
        <ele>223.3</ele>
        <time>2018-12-02T11:04:37Z</time>
      </trkpt>
      <trkpt lat="45.76802" lon="4.81149">
        <ele>225.4</ele>
        <time>2018-12-02T11:04:44Z</time>
      </trkpt>
      <trkpt lat="45.76808" lon="4.81143">
        <ele>226.8</ele>
        <time>2018-12-02T11:04:50Z</time>
      </trkpt>
      <trkpt lat="45.76815" lon="4.81136">
        <ele>227.4</ele>
        <time>2018-12-02T11:04:55Z</time>
      </trkpt>
      <trkpt lat="45.76822" lon="4.8113">
        <ele>227.9</ele>
        <time>2018-12-02T11:05:00Z</time>
      </trkpt>
      <trkpt lat="45.7683" lon="4.81127">
        <ele>228.4</ele>
        <time>2018-12-02T11:05:05Z</time>
      </trkpt>
      <trkpt lat="45.76838" lon="4.81121">
        <ele>229.4</ele>
        <time>2018-12-02T11:05:12Z</time>
      </trkpt>
      <trkpt lat="45.76836" lon="4.8111">
        <ele>229.8</ele>
        <time>2018-12-02T11:05:17Z</time>
      </trkpt>
      <trkpt lat="45.76831" lon="4.811">
        <ele>230.2</ele>
        <time>2018-12-02T11:05:21Z</time>
      </trkpt>
      <trkpt lat="45.76825" lon="4.81092">
        <ele>230.5</ele>
        <time>2018-12-02T11:05:25Z</time>
      </trkpt>
      <trkpt lat="45.76817" lon="4.8109">
        <ele>230.7</ele>
        <time>2018-12-02T11:05:30Z</time>
      </trkpt>
      <trkpt lat="45.76811" lon="4.81091">
        <ele>230.3</ele>
        <time>2018-12-02T11:05:37Z</time>
      </trkpt>
      <trkpt lat="45.76805" lon="4.8109">
        <ele>229.9</ele>
        <time>2018-12-02T11:05:44Z</time>
      </trkpt>
      <trkpt lat="45.76799" lon="4.81088">
        <ele>229</ele>
        <time>2018-12-02T11:05:51Z</time>
      </trkpt>
      <trkpt lat="45.76791" lon="4.81089">
        <ele>227.6</ele>
        <time>2018-12-02T11:05:58Z</time>
      </trkpt>
      <trkpt lat="45.76784" lon="4.81094">
        <ele>225.8</ele>
        <time>2018-12-02T11:06:04Z</time>
      </trkpt>
      <trkpt lat="45.76781" lon="4.81097">
        <ele>223.4</ele>
        <time>2018-12-02T11:06:11Z</time>
      </trkpt>
      <trkpt lat="45.76775" lon="4.81099">
        <ele>221.4</ele>
        <time>2018-12-02T11:06:18Z</time>
      </trkpt>
      <trkpt lat="45.76772" lon="4.81101">
        <ele>219.1</ele>
        <time>2018-12-02T11:06:25Z</time>
      </trkpt>
      <trkpt lat="45.7677" lon="4.81104">
        <ele>216.4</ele>
        <time>2018-12-02T11:06:32Z</time>
      </trkpt>
      <trkpt lat="45.76761" lon="4.81108">
        <ele>214.6</ele>
        <time>2018-12-02T11:06:36Z</time>
      </trkpt>
      <trkpt lat="45.76754" lon="4.81114">
        <ele>213</ele>
        <time>2018-12-02T11:06:40Z</time>
      </trkpt>
      <trkpt lat="45.76748" lon="4.81119">
        <ele>212.1</ele>
        <time>2018-12-02T11:06:43Z</time>
      </trkpt>
      <trkpt lat="45.76738" lon="4.81124">
        <ele>211.6</ele>
        <time>2018-12-02T11:06:45Z</time>
      </trkpt>
      <trkpt lat="45.76728" lon="4.81134">
        <ele>211.5</ele>
        <time>2018-12-02T11:06:47Z</time>
      </trkpt>
      <trkpt lat="45.76722" lon="4.81143">
        <ele>211.6</ele>
        <time>2018-12-02T11:06:49Z</time>
      </trkpt>
      <trkpt lat="45.76717" lon="4.81154">
        <ele>212</ele>
        <time>2018-12-02T11:06:52Z</time>
      </trkpt>
      <trkpt lat="45.76712" lon="4.81164">
        <ele>212.4</ele>
        <time>2018-12-02T11:06:55Z</time>
      </trkpt>
      <trkpt lat="45.76709" lon="4.81174">
        <ele>213.1</ele>
        <time>2018-12-02T11:06:59Z</time>
      </trkpt>
      <trkpt lat="45.76705" lon="4.81181">
        <ele>214.1</ele>
        <time>2018-12-02T11:07:06Z</time>
      </trkpt>
      <trkpt lat="45.76697" lon="4.8118">
        <ele>214.9</ele>
        <time>2018-12-02T11:07:13Z</time>
      </trkpt>
      <trkpt lat="45.7669" lon="4.81179">
        <ele>215.1</ele>
        <time>2018-12-02T11:07:20Z</time>
      </trkpt>
      <trkpt lat="45.76688" lon="4.81172">
        <ele>215.6</ele>
        <time>2018-12-02T11:07:27Z</time>
      </trkpt>
      <trkpt lat="45.76688" lon="4.81164">
        <ele>216.3</ele>
        <time>2018-12-02T11:07:34Z</time>
      </trkpt>
      <trkpt lat="45.76686" lon="4.81155">
        <ele>217.5</ele>
        <time>2018-12-02T11:07:41Z</time>
      </trkpt>
      <trkpt lat="45.76688" lon="4.81149">
        <ele>218.6</ele>
        <time>2018-12-02T11:07:48Z</time>
      </trkpt>
      <trkpt lat="45.76693" lon="4.81143">
        <ele>219.7</ele>
        <time>2018-12-02T11:07:55Z</time>
      </trkpt>
      <trkpt lat="45.76699" lon="4.81135">
        <ele>220.2</ele>
        <time>2018-12-02T11:08:00Z</time>
      </trkpt>
      <trkpt lat="45.76705" lon="4.81128">
        <ele>220.9</ele>
        <time>2018-12-02T11:08:05Z</time>
      </trkpt>
      <trkpt lat="45.7671" lon="4.8112">
        <ele>221.2</ele>
        <time>2018-12-02T11:08:11Z</time>
      </trkpt>
      <trkpt lat="45.76717" lon="4.81116">
        <ele>221.5</ele>
        <time>2018-12-02T11:08:16Z</time>
      </trkpt>
      <trkpt lat="45.76723" lon="4.81108">
        <ele>223.1</ele>
        <time>2018-12-02T11:08:22Z</time>
      </trkpt>
      <trkpt lat="45.76729" lon="4.81101">
        <ele>224.4</ele>
        <time>2018-12-02T11:08:26Z</time>
      </trkpt>
      <trkpt lat="45.76735" lon="4.81095">
        <ele>225.9</ele>
        <time>2018-12-02T11:08:30Z</time>
      </trkpt>
      <trkpt lat="45.76742" lon="4.81089">
        <ele>227.9</ele>
        <time>2018-12-02T11:08:35Z</time>
      </trkpt>
      <trkpt lat="45.76749" lon="4.81082">
        <ele>229.4</ele>
        <time>2018-12-02T11:08:39Z</time>
      </trkpt>
      <trkpt lat="45.76755" lon="4.81075">
        <ele>230.9</ele>
        <time>2018-12-02T11:08:43Z</time>
      </trkpt>
      <trkpt lat="45.76763" lon="4.81068">
        <ele>233</ele>
        <time>2018-12-02T11:08:49Z</time>
      </trkpt>
      <trkpt lat="45.76769" lon="4.81061">
        <ele>234.6</ele>
        <time>2018-12-02T11:08:53Z</time>
      </trkpt>
      <trkpt lat="45.76775" lon="4.81057">
        <ele>237.7</ele>
        <time>2018-12-02T11:09:00Z</time>
      </trkpt>
      <trkpt lat="45.7678" lon="4.81052">
        <ele>239.9</ele>
        <time>2018-12-02T11:09:07Z</time>
      </trkpt>
      <trkpt lat="45.76787" lon="4.81049">
        <ele>242.4</ele>
        <time>2018-12-02T11:09:14Z</time>
      </trkpt>
      <trkpt lat="45.76794" lon="4.81044">
        <ele>244.2</ele>
        <time>2018-12-02T11:09:20Z</time>
      </trkpt>
      <trkpt lat="45.76801" lon="4.8104">
        <ele>245.5</ele>
        <time>2018-12-02T11:09:27Z</time>
      </trkpt>
      <trkpt lat="45.76808" lon="4.81035">
        <ele>245.8</ele>
        <time>2018-12-02T11:09:31Z</time>
      </trkpt>
      <trkpt lat="45.76819" lon="4.8103">
        <ele>246.3</ele>
        <time>2018-12-02T11:09:38Z</time>
      </trkpt>
      <trkpt lat="45.76831" lon="4.81027">
        <ele>246.5</ele>
        <time>2018-12-02T11:09:46Z</time>
      </trkpt>
      <trkpt lat="45.76839" lon="4.81024">
        <ele>246.5</ele>
        <time>2018-12-02T11:09:52Z</time>
      </trkpt>
      <trkpt lat="45.76846" lon="4.81021">
        <ele>246.6</ele>
        <time>2018-12-02T11:09:59Z</time>
      </trkpt>
      <trkpt lat="45.76853" lon="4.81021">
        <ele>246.5</ele>
        <time>2018-12-02T11:10:05Z</time>
      </trkpt>
      <trkpt lat="45.76861" lon="4.81024">
        <ele>246.2</ele>
        <time>2018-12-02T11:10:11Z</time>
      </trkpt>
      <trkpt lat="45.76869" lon="4.81028">
        <ele>246</ele>
        <time>2018-12-02T11:10:16Z</time>
      </trkpt>
      <trkpt lat="45.76875" lon="4.81034">
        <ele>246.3</ele>
        <time>2018-12-02T11:10:21Z</time>
      </trkpt>
      <trkpt lat="45.76883" lon="4.81038">
        <ele>247.2</ele>
        <time>2018-12-02T11:10:26Z</time>
      </trkpt>
      <trkpt lat="45.76892" lon="4.81041">
        <ele>248.1</ele>
        <time>2018-12-02T11:10:30Z</time>
      </trkpt>
      <trkpt lat="45.76901" lon="4.81042">
        <ele>248.7</ele>
        <time>2018-12-02T11:10:33Z</time>
      </trkpt>
      <trkpt lat="45.76909" lon="4.81041">
        <ele>250</ele>
        <time>2018-12-02T11:10:37Z</time>
      </trkpt>
      <trkpt lat="45.76916" lon="4.8104">
        <ele>252</ele>
        <time>2018-12-02T11:10:42Z</time>
      </trkpt>
      <trkpt lat="45.76923" lon="4.81034">
        <ele>253.9</ele>
        <time>2018-12-02T11:10:46Z</time>
      </trkpt>
      <trkpt lat="45.76928" lon="4.81034">
        <ele>255.4</ele>
        <time>2018-12-02T11:10:53Z</time>
      </trkpt>
      <trkpt lat="45.76932" lon="4.81029">
        <ele>258.5</ele>
        <time>2018-12-02T11:11:12Z</time>
      </trkpt>
      <trkpt lat="45.76929" lon="4.81025">
        <ele>260.2</ele>
        <time>2018-12-02T11:11:19Z</time>
      </trkpt>
      <trkpt lat="45.76932" lon="4.81014">
        <ele>264.8</ele>
        <time>2018-12-02T11:11:53Z</time>
      </trkpt>
      <trkpt lat="45.76925" lon="4.81011">
        <ele>267.3</ele>
        <time>2018-12-02T11:12:10Z</time>
      </trkpt>
      <trkpt lat="45.76919" lon="4.81004">
        <ele>268.3</ele>
        <time>2018-12-02T11:12:14Z</time>
      </trkpt>
      <trkpt lat="45.76912" lon="4.80997">
        <ele>269.5</ele>
        <time>2018-12-02T11:12:18Z</time>
      </trkpt>
      <trkpt lat="45.76905" lon="4.80989">
        <ele>270.8</ele>
        <time>2018-12-02T11:12:22Z</time>
      </trkpt>
      <trkpt lat="45.76897" lon="4.80982">
        <ele>272.2</ele>
        <time>2018-12-02T11:12:26Z</time>
      </trkpt>
      <trkpt lat="45.7689" lon="4.80978">
        <ele>273.5</ele>
        <time>2018-12-02T11:12:30Z</time>
      </trkpt>
      <trkpt lat="45.76883" lon="4.80972">
        <ele>275.1</ele>
        <time>2018-12-02T11:12:36Z</time>
      </trkpt>
      <trkpt lat="45.76877" lon="4.80965">
        <ele>276.5</ele>
        <time>2018-12-02T11:12:43Z</time>
      </trkpt>
      <trkpt lat="45.76868" lon="4.8096">
        <ele>277.3</ele>
        <time>2018-12-02T11:12:47Z</time>
      </trkpt>
      <trkpt lat="45.7686" lon="4.80965">
        <ele>278.5</ele>
        <time>2018-12-02T11:12:51Z</time>
      </trkpt>
      <trkpt lat="45.76852" lon="4.80969">
        <ele>279.9</ele>
        <time>2018-12-02T11:12:55Z</time>
      </trkpt>
      <trkpt lat="45.76845" lon="4.80972">
        <ele>281.3</ele>
        <time>2018-12-02T11:12:59Z</time>
      </trkpt>
      <trkpt lat="45.76837" lon="4.80968">
        <ele>283</ele>
        <time>2018-12-02T11:13:04Z</time>
      </trkpt>
      <trkpt lat="45.76828" lon="4.80965">
        <ele>284.2</ele>
        <time>2018-12-02T11:13:08Z</time>
      </trkpt>
      <trkpt lat="45.7682" lon="4.80959">
        <ele>285.4</ele>
        <time>2018-12-02T11:13:12Z</time>
      </trkpt>
      <trkpt lat="45.76813" lon="4.80956">
        <ele>286.7</ele>
        <time>2018-12-02T11:13:17Z</time>
      </trkpt>
      <trkpt lat="45.76805" lon="4.80955">
        <ele>287.4</ele>
        <time>2018-12-02T11:13:20Z</time>
      </trkpt>
      <trkpt lat="45.76797" lon="4.80957">
        <ele>288.4</ele>
        <time>2018-12-02T11:13:25Z</time>
      </trkpt>
      <trkpt lat="45.76789" lon="4.80958">
        <ele>289.3</ele>
        <time>2018-12-02T11:13:30Z</time>
      </trkpt>
      <trkpt lat="45.76781" lon="4.80957">
        <ele>290.1</ele>
        <time>2018-12-02T11:13:35Z</time>
      </trkpt>
      <trkpt lat="45.76774" lon="4.80956">
        <ele>290.8</ele>
        <time>2018-12-02T11:13:39Z</time>
      </trkpt>
      <trkpt lat="45.76765" lon="4.80953">
        <ele>291.5</ele>
        <time>2018-12-02T11:13:44Z</time>
      </trkpt>
      <trkpt lat="45.76758" lon="4.80948">
        <ele>292</ele>
        <time>2018-12-02T11:13:48Z</time>
      </trkpt>
      <trkpt lat="45.76751" lon="4.80943">
        <ele>292.7</ele>
        <time>2018-12-02T11:13:53Z</time>
      </trkpt>
      <trkpt lat="45.76743" lon="4.80944">
        <ele>293.7</ele>
        <time>2018-12-02T11:13:58Z</time>
      </trkpt>
      <trkpt lat="45.76736" lon="4.80944">
        <ele>294.9</ele>
        <time>2018-12-02T11:14:02Z</time>
      </trkpt>
      <trkpt lat="45.76728" lon="4.80943">
        <ele>296.6</ele>
        <time>2018-12-02T11:14:07Z</time>
      </trkpt>
      <trkpt lat="45.76721" lon="4.80946">
        <ele>298.4</ele>
        <time>2018-12-02T11:14:12Z</time>
      </trkpt>
      <trkpt lat="45.76713" lon="4.80948">
        <ele>299.7</ele>
        <time>2018-12-02T11:14:16Z</time>
      </trkpt>
      <trkpt lat="45.76705" lon="4.80948">
        <ele>301.1</ele>
        <time>2018-12-02T11:14:22Z</time>
      </trkpt>
      <trkpt lat="45.76698" lon="4.80948">
        <ele>301.9</ele>
        <time>2018-12-02T11:14:29Z</time>
      </trkpt>
      <trkpt lat="45.76692" lon="4.80945">
        <ele>302.5</ele>
        <time>2018-12-02T11:14:36Z</time>
      </trkpt>
      <trkpt lat="45.76687" lon="4.80946">
        <ele>302.9</ele>
        <time>2018-12-02T11:14:43Z</time>
      </trkpt>
      <trkpt lat="45.7668" lon="4.80946">
        <ele>303.3</ele>
        <time>2018-12-02T11:14:48Z</time>
      </trkpt>
      <trkpt lat="45.76671" lon="4.80947">
        <ele>303.8</ele>
        <time>2018-12-02T11:14:54Z</time>
      </trkpt>
      <trkpt lat="45.76663" lon="4.80953">
        <ele>304.1</ele>
        <time>2018-12-02T11:15:00Z</time>
      </trkpt>
      <trkpt lat="45.76656" lon="4.80958">
        <ele>304.3</ele>
        <time>2018-12-02T11:15:04Z</time>
      </trkpt>
      <trkpt lat="45.76648" lon="4.80963">
        <ele>304.6</ele>
        <time>2018-12-02T11:15:10Z</time>
      </trkpt>
      <trkpt lat="45.76641" lon="4.80968">
        <ele>305</ele>
        <time>2018-12-02T11:15:15Z</time>
      </trkpt>
      <trkpt lat="45.76634" lon="4.80973">
        <ele>305.5</ele>
        <time>2018-12-02T11:15:22Z</time>
      </trkpt>
      <trkpt lat="45.76628" lon="4.8098">
        <ele>306.1</ele>
        <time>2018-12-02T11:15:29Z</time>
      </trkpt>
      <trkpt lat="45.76621" lon="4.80985">
        <ele>306.8</ele>
        <time>2018-12-02T11:15:36Z</time>
      </trkpt>
      <trkpt lat="45.76613" lon="4.8099">
        <ele>307.3</ele>
        <time>2018-12-02T11:15:40Z</time>
      </trkpt>
      <trkpt lat="45.76607" lon="4.80995">
        <ele>307.9</ele>
        <time>2018-12-02T11:15:44Z</time>
      </trkpt>
      <trkpt lat="45.766" lon="4.81">
        <ele>308.6</ele>
        <time>2018-12-02T11:15:49Z</time>
      </trkpt>
      <trkpt lat="45.76593" lon="4.81004">
        <ele>309</ele>
        <time>2018-12-02T11:15:53Z</time>
      </trkpt>
      <trkpt lat="45.76586" lon="4.81009">
        <ele>309.5</ele>
        <time>2018-12-02T11:15:59Z</time>
      </trkpt>
      <trkpt lat="45.76581" lon="4.81012">
        <ele>310.3</ele>
        <time>2018-12-02T11:16:06Z</time>
      </trkpt>
      <trkpt lat="45.76575" lon="4.81017">
        <ele>311</ele>
        <time>2018-12-02T11:16:11Z</time>
      </trkpt>
      <trkpt lat="45.76568" lon="4.81024">
        <ele>311.1</ele>
        <time>2018-12-02T11:16:13Z</time>
      </trkpt>
      <trkpt lat="45.76561" lon="4.81031">
        <ele>311.1</ele>
        <time>2018-12-02T11:16:17Z</time>
      </trkpt>
      <trkpt lat="45.76553" lon="4.81036">
        <ele>311.1</ele>
        <time>2018-12-02T11:16:21Z</time>
      </trkpt>
      <trkpt lat="45.76545" lon="4.8104">
        <ele>311</ele>
        <time>2018-12-02T11:16:25Z</time>
      </trkpt>
      <trkpt lat="45.76538" lon="4.81044">
        <ele>310.6</ele>
        <time>2018-12-02T11:16:30Z</time>
      </trkpt>
      <trkpt lat="45.76529" lon="4.81044">
        <ele>310.1</ele>
        <time>2018-12-02T11:16:35Z</time>
      </trkpt>
      <trkpt lat="45.7652" lon="4.81047">
        <ele>309.6</ele>
        <time>2018-12-02T11:16:40Z</time>
      </trkpt>
      <trkpt lat="45.76512" lon="4.81049">
        <ele>308.9</ele>
        <time>2018-12-02T11:16:45Z</time>
      </trkpt>
      <trkpt lat="45.76509" lon="4.8106">
        <ele>307.1</ele>
        <time>2018-12-02T11:16:52Z</time>
      </trkpt>
      <trkpt lat="45.76505" lon="4.8107">
        <ele>305.9</ele>
        <time>2018-12-02T11:16:56Z</time>
      </trkpt>
      <trkpt lat="45.765" lon="4.8108">
        <ele>305.1</ele>
        <time>2018-12-02T11:16:59Z</time>
      </trkpt>
      <trkpt lat="45.76495" lon="4.81086">
        <ele>304.4</ele>
        <time>2018-12-02T11:17:03Z</time>
      </trkpt>
      <trkpt lat="45.76489" lon="4.81093">
        <ele>303.5</ele>
        <time>2018-12-02T11:17:09Z</time>
      </trkpt>
      <trkpt lat="45.76485" lon="4.81103">
        <ele>302.5</ele>
        <time>2018-12-02T11:17:16Z</time>
      </trkpt>
      <trkpt lat="45.76482" lon="4.81112">
        <ele>301.5</ele>
        <time>2018-12-02T11:17:23Z</time>
      </trkpt>
      <trkpt lat="45.7648" lon="4.81117">
        <ele>300.8</ele>
        <time>2018-12-02T11:17:30Z</time>
      </trkpt>
      <trkpt lat="45.76479" lon="4.81116">
        <ele>301.3</ele>
        <time>2018-12-02T11:17:37Z</time>
      </trkpt>
      <trkpt lat="45.76479" lon="4.81104">
        <ele>302</ele>
        <time>2018-12-02T11:17:41Z</time>
      </trkpt>
      <trkpt lat="45.7648" lon="4.81092">
        <ele>302.8</ele>
        <time>2018-12-02T11:17:45Z</time>
      </trkpt>
      <trkpt lat="45.76478" lon="4.81081">
        <ele>304.3</ele>
        <time>2018-12-02T11:17:50Z</time>
      </trkpt>
      <trkpt lat="45.76479" lon="4.81067">
        <ele>305.9</ele>
        <time>2018-12-02T11:17:55Z</time>
      </trkpt>
      <trkpt lat="45.76477" lon="4.81056">
        <ele>307</ele>
        <time>2018-12-02T11:17:59Z</time>
      </trkpt>
      <trkpt lat="45.76474" lon="4.81047">
        <ele>307.9</ele>
        <time>2018-12-02T11:18:03Z</time>
      </trkpt>
      <trkpt lat="45.7647" lon="4.81035">
        <ele>309.2</ele>
        <time>2018-12-02T11:18:08Z</time>
      </trkpt>
      <trkpt lat="45.76467" lon="4.81025">
        <ele>309.9</ele>
        <time>2018-12-02T11:18:11Z</time>
      </trkpt>
      <trkpt lat="45.76464" lon="4.81013">
        <ele>310.8</ele>
        <time>2018-12-02T11:18:15Z</time>
      </trkpt>
      <trkpt lat="45.7646" lon="4.81002">
        <ele>311.5</ele>
        <time>2018-12-02T11:18:19Z</time>
      </trkpt>
      <trkpt lat="45.76455" lon="4.80993">
        <ele>312.1</ele>
        <time>2018-12-02T11:18:23Z</time>
      </trkpt>
      <trkpt lat="45.76451" lon="4.80985">
        <ele>312.7</ele>
        <time>2018-12-02T11:18:27Z</time>
      </trkpt>
      <trkpt lat="45.76446" lon="4.80977">
        <ele>313.1</ele>
        <time>2018-12-02T11:18:31Z</time>
      </trkpt>
      <trkpt lat="45.7644" lon="4.80967">
        <ele>313.5</ele>
        <time>2018-12-02T11:18:35Z</time>
      </trkpt>
      <trkpt lat="45.76436" lon="4.80956">
        <ele>314</ele>
        <time>2018-12-02T11:18:39Z</time>
      </trkpt>
      <trkpt lat="45.76432" lon="4.80945">
        <ele>314.6</ele>
        <time>2018-12-02T11:18:44Z</time>
      </trkpt>
      <trkpt lat="45.76424" lon="4.80941">
        <ele>315</ele>
        <time>2018-12-02T11:18:48Z</time>
      </trkpt>
      <trkpt lat="45.76416" lon="4.80942">
        <ele>315.6</ele>
        <time>2018-12-02T11:18:53Z</time>
      </trkpt>
      <trkpt lat="45.76408" lon="4.80943">
        <ele>316</ele>
        <time>2018-12-02T11:18:57Z</time>
      </trkpt>
      <trkpt lat="45.76401" lon="4.80946">
        <ele>316.5</ele>
        <time>2018-12-02T11:19:01Z</time>
      </trkpt>
      <trkpt lat="45.76394" lon="4.80949">
        <ele>316.9</ele>
        <time>2018-12-02T11:19:05Z</time>
      </trkpt>
      <trkpt lat="45.76386" lon="4.80951">
        <ele>317.2</ele>
        <time>2018-12-02T11:19:09Z</time>
      </trkpt>
      <trkpt lat="45.76378" lon="4.80953">
        <ele>317.5</ele>
        <time>2018-12-02T11:19:13Z</time>
      </trkpt>
      <trkpt lat="45.7637" lon="4.80956">
        <ele>317.7</ele>
        <time>2018-12-02T11:19:18Z</time>
      </trkpt>
      <trkpt lat="45.76362" lon="4.80958">
        <ele>317.8</ele>
        <time>2018-12-02T11:19:23Z</time>
      </trkpt>
      <trkpt lat="45.76355" lon="4.8096">
        <ele>317.6</ele>
        <time>2018-12-02T11:19:28Z</time>
      </trkpt>
      <trkpt lat="45.76346" lon="4.80961">
        <ele>317.2</ele>
        <time>2018-12-02T11:19:33Z</time>
      </trkpt>
      <trkpt lat="45.76338" lon="4.80964">
        <ele>316.9</ele>
        <time>2018-12-02T11:19:38Z</time>
      </trkpt>
      <trkpt lat="45.7633" lon="4.80965">
        <ele>316.5</ele>
        <time>2018-12-02T11:19:43Z</time>
      </trkpt>
      <trkpt lat="45.76323" lon="4.80966">
        <ele>315.8</ele>
        <time>2018-12-02T11:19:49Z</time>
      </trkpt>
      <trkpt lat="45.76315" lon="4.80966">
        <ele>314.8</ele>
        <time>2018-12-02T11:19:54Z</time>
      </trkpt>
      <trkpt lat="45.76307" lon="4.80966">
        <ele>313.7</ele>
        <time>2018-12-02T11:19:59Z</time>
      </trkpt>
      <trkpt lat="45.763" lon="4.80965">
        <ele>312.5</ele>
        <time>2018-12-02T11:20:04Z</time>
      </trkpt>
      <trkpt lat="45.76292" lon="4.80965">
        <ele>311.1</ele>
        <time>2018-12-02T11:20:09Z</time>
      </trkpt>
      <trkpt lat="45.76284" lon="4.80968">
        <ele>309.7</ele>
        <time>2018-12-02T11:20:14Z</time>
      </trkpt>
      <trkpt lat="45.76276" lon="4.80979">
        <ele>307.7</ele>
        <time>2018-12-02T11:20:21Z</time>
      </trkpt>
      <trkpt lat="45.7627" lon="4.80987">
        <ele>307.3</ele>
        <time>2018-12-02T11:20:23Z</time>
      </trkpt>
      <trkpt lat="45.76264" lon="4.80994">
        <ele>307.1</ele>
        <time>2018-12-02T11:20:25Z</time>
      </trkpt>
      <trkpt lat="45.76257" lon="4.81">
        <ele>307</ele>
        <time>2018-12-02T11:20:28Z</time>
      </trkpt>
      <trkpt lat="45.76248" lon="4.81008">
        <ele>307.1</ele>
        <time>2018-12-02T11:20:32Z</time>
      </trkpt>
      <trkpt lat="45.7624" lon="4.8101">
        <ele>307.4</ele>
        <time>2018-12-02T11:20:36Z</time>
      </trkpt>
      <trkpt lat="45.76232" lon="4.81011">
        <ele>307.6</ele>
        <time>2018-12-02T11:20:40Z</time>
      </trkpt>
      <trkpt lat="45.76225" lon="4.81016">
        <ele>307.7</ele>
        <time>2018-12-02T11:20:45Z</time>
      </trkpt>
      <trkpt lat="45.76218" lon="4.81021">
        <ele>307.9</ele>
        <time>2018-12-02T11:20:50Z</time>
      </trkpt>
      <trkpt lat="45.7621" lon="4.81024">
        <ele>308</ele>
        <time>2018-12-02T11:20:55Z</time>
      </trkpt>
      <trkpt lat="45.76203" lon="4.81025">
        <ele>307.8</ele>
        <time>2018-12-02T11:21:00Z</time>
      </trkpt>
      <trkpt lat="45.76194" lon="4.81026">
        <ele>307.3</ele>
        <time>2018-12-02T11:21:05Z</time>
      </trkpt>
      <trkpt lat="45.76186" lon="4.81028">
        <ele>306.9</ele>
        <time>2018-12-02T11:21:10Z</time>
      </trkpt>
      <trkpt lat="45.76179" lon="4.8103">
        <ele>306.6</ele>
        <time>2018-12-02T11:21:14Z</time>
      </trkpt>
      <trkpt lat="45.7617" lon="4.81032">
        <ele>306.2</ele>
        <time>2018-12-02T11:21:18Z</time>
      </trkpt>
      <trkpt lat="45.7616" lon="4.81028">
        <ele>305.9</ele>
        <time>2018-12-02T11:21:21Z</time>
      </trkpt>
      <trkpt lat="45.76153" lon="4.81028">
        <ele>305.8</ele>
        <time>2018-12-02T11:21:24Z</time>
      </trkpt>
      <trkpt lat="45.76146" lon="4.8103">
        <ele>305.7</ele>
        <time>2018-12-02T11:21:27Z</time>
      </trkpt>
      <trkpt lat="45.76138" lon="4.81034">
        <ele>305.6</ele>
        <time>2018-12-02T11:21:31Z</time>
      </trkpt>
      <trkpt lat="45.76131" lon="4.81037">
        <ele>305.5</ele>
        <time>2018-12-02T11:21:35Z</time>
      </trkpt>
      <trkpt lat="45.76123" lon="4.81036">
        <ele>305.3</ele>
        <time>2018-12-02T11:21:39Z</time>
      </trkpt>
      <trkpt lat="45.76115" lon="4.81037">
        <ele>304.9</ele>
        <time>2018-12-02T11:21:45Z</time>
      </trkpt>
      <trkpt lat="45.76107" lon="4.81038">
        <ele>304.5</ele>
        <time>2018-12-02T11:21:49Z</time>
      </trkpt>
      <trkpt lat="45.761" lon="4.8104">
        <ele>303.9</ele>
        <time>2018-12-02T11:21:53Z</time>
      </trkpt>
      <trkpt lat="45.76091" lon="4.8104">
        <ele>303.3</ele>
        <time>2018-12-02T11:21:57Z</time>
      </trkpt>
      <trkpt lat="45.76082" lon="4.81041">
        <ele>302.8</ele>
        <time>2018-12-02T11:22:01Z</time>
      </trkpt>
      <trkpt lat="45.76074" lon="4.81042">
        <ele>302.5</ele>
        <time>2018-12-02T11:22:04Z</time>
      </trkpt>
      <trkpt lat="45.76064" lon="4.81044">
        <ele>302.4</ele>
        <time>2018-12-02T11:22:07Z</time>
      </trkpt>
      <trkpt lat="45.76055" lon="4.81048">
        <ele>302.4</ele>
        <time>2018-12-02T11:22:11Z</time>
      </trkpt>
      <trkpt lat="45.76048" lon="4.81049">
        <ele>302.4</ele>
        <time>2018-12-02T11:22:15Z</time>
      </trkpt>
      <trkpt lat="45.76042" lon="4.8104">
        <ele>302.6</ele>
        <time>2018-12-02T11:22:20Z</time>
      </trkpt>
      <trkpt lat="45.76037" lon="4.8103">
        <ele>302.8</ele>
        <time>2018-12-02T11:22:26Z</time>
      </trkpt>
      <trkpt lat="45.76042" lon="4.8102">
        <ele>302.9</ele>
        <time>2018-12-02T11:22:33Z</time>
      </trkpt>
      <trkpt lat="45.7605" lon="4.81015">
        <ele>302.6</ele>
        <time>2018-12-02T11:22:36Z</time>
      </trkpt>
      <trkpt lat="45.76057" lon="4.8101">
        <ele>302.3</ele>
        <time>2018-12-02T11:22:39Z</time>
      </trkpt>
      <trkpt lat="45.76063" lon="4.81006">
        <ele>301.8</ele>
        <time>2018-12-02T11:22:42Z</time>
      </trkpt>
      <trkpt lat="45.7607" lon="4.81">
        <ele>301.4</ele>
        <time>2018-12-02T11:22:45Z</time>
      </trkpt>
      <trkpt lat="45.76077" lon="4.80993">
        <ele>300.6</ele>
        <time>2018-12-02T11:22:49Z</time>
      </trkpt>
      <trkpt lat="45.76082" lon="4.80984">
        <ele>300</ele>
        <time>2018-12-02T11:22:52Z</time>
      </trkpt>
      <trkpt lat="45.76087" lon="4.80975">
        <ele>299.4</ele>
        <time>2018-12-02T11:22:55Z</time>
      </trkpt>
      <trkpt lat="45.76092" lon="4.80968">
        <ele>298.9</ele>
        <time>2018-12-02T11:22:58Z</time>
      </trkpt>
      <trkpt lat="45.76097" lon="4.8096">
        <ele>298.5</ele>
        <time>2018-12-02T11:23:01Z</time>
      </trkpt>
      <trkpt lat="45.76102" lon="4.80951">
        <ele>298</ele>
        <time>2018-12-02T11:23:05Z</time>
      </trkpt>
      <trkpt lat="45.7611" lon="4.80949">
        <ele>297.4</ele>
        <time>2018-12-02T11:23:09Z</time>
      </trkpt>
      <trkpt lat="45.76118" lon="4.80943">
        <ele>296.7</ele>
        <time>2018-12-02T11:23:13Z</time>
      </trkpt>
      <trkpt lat="45.76125" lon="4.80938">
        <ele>295.9</ele>
        <time>2018-12-02T11:23:17Z</time>
      </trkpt>
      <trkpt lat="45.76132" lon="4.80933">
        <ele>295.3</ele>
        <time>2018-12-02T11:23:20Z</time>
      </trkpt>
      <trkpt lat="45.76139" lon="4.80925">
        <ele>294.4</ele>
        <time>2018-12-02T11:23:24Z</time>
      </trkpt>
      <trkpt lat="45.76143" lon="4.80916">
        <ele>293.6</ele>
        <time>2018-12-02T11:23:27Z</time>
      </trkpt>
      <trkpt lat="45.7615" lon="4.80908">
        <ele>292.5</ele>
        <time>2018-12-02T11:23:31Z</time>
      </trkpt>
      <trkpt lat="45.76158" lon="4.80902">
        <ele>291.6</ele>
        <time>2018-12-02T11:23:35Z</time>
      </trkpt>
      <trkpt lat="45.76165" lon="4.80895">
        <ele>290.7</ele>
        <time>2018-12-02T11:23:39Z</time>
      </trkpt>
      <trkpt lat="45.76174" lon="4.80893">
        <ele>289.9</ele>
        <time>2018-12-02T11:23:43Z</time>
      </trkpt>
      <trkpt lat="45.76182" lon="4.80887">
        <ele>289</ele>
        <time>2018-12-02T11:23:47Z</time>
      </trkpt>
      <trkpt lat="45.7619" lon="4.80884">
        <ele>288.2</ele>
        <time>2018-12-02T11:23:51Z</time>
      </trkpt>
      <trkpt lat="45.76197" lon="4.80882">
        <ele>287.6</ele>
        <time>2018-12-02T11:23:54Z</time>
      </trkpt>
      <trkpt lat="45.76205" lon="4.80877">
        <ele>286.6</ele>
        <time>2018-12-02T11:23:58Z</time>
      </trkpt>
      <trkpt lat="45.76212" lon="4.80872">
        <ele>285.9</ele>
        <time>2018-12-02T11:24:01Z</time>
      </trkpt>
      <trkpt lat="45.76219" lon="4.80866">
        <ele>285.3</ele>
        <time>2018-12-02T11:24:04Z</time>
      </trkpt>
      <trkpt lat="45.76227" lon="4.80863">
        <ele>284.5</ele>
        <time>2018-12-02T11:24:08Z</time>
      </trkpt>
      <trkpt lat="45.76234" lon="4.8086">
        <ele>283.8</ele>
        <time>2018-12-02T11:24:11Z</time>
      </trkpt>
      <trkpt lat="45.76242" lon="4.80856">
        <ele>283.2</ele>
        <time>2018-12-02T11:24:14Z</time>
      </trkpt>
      <trkpt lat="45.76249" lon="4.80852">
        <ele>282.4</ele>
        <time>2018-12-02T11:24:18Z</time>
      </trkpt>
      <trkpt lat="45.76257" lon="4.80849">
        <ele>281.5</ele>
        <time>2018-12-02T11:24:22Z</time>
      </trkpt>
      <trkpt lat="45.76266" lon="4.80846">
        <ele>280.8</ele>
        <time>2018-12-02T11:24:26Z</time>
      </trkpt>
      <trkpt lat="45.76268" lon="4.80834">
        <ele>280.2</ele>
        <time>2018-12-02T11:24:29Z</time>
      </trkpt>
      <trkpt lat="45.76272" lon="4.80823">
        <ele>279.5</ele>
        <time>2018-12-02T11:24:32Z</time>
      </trkpt>
      <trkpt lat="45.7628" lon="4.80816">
        <ele>278.7</ele>
        <time>2018-12-02T11:24:36Z</time>
      </trkpt>
      <trkpt lat="45.76286" lon="4.80806">
        <ele>278.1</ele>
        <time>2018-12-02T11:24:40Z</time>
      </trkpt>
      <trkpt lat="45.76293" lon="4.80798">
        <ele>277.5</ele>
        <time>2018-12-02T11:24:44Z</time>
      </trkpt>
      <trkpt lat="45.76301" lon="4.80791">
        <ele>276.8</ele>
        <time>2018-12-02T11:24:48Z</time>
      </trkpt>
      <trkpt lat="45.76307" lon="4.80784">
        <ele>276.2</ele>
        <time>2018-12-02T11:24:51Z</time>
      </trkpt>
      <trkpt lat="45.76315" lon="4.80777">
        <ele>275.5</ele>
        <time>2018-12-02T11:24:55Z</time>
      </trkpt>
      <trkpt lat="45.76323" lon="4.80771">
        <ele>274.8</ele>
        <time>2018-12-02T11:24:59Z</time>
      </trkpt>
      <trkpt lat="45.7633" lon="4.80765">
        <ele>274.2</ele>
        <time>2018-12-02T11:25:03Z</time>
      </trkpt>
      <trkpt lat="45.76338" lon="4.80759">
        <ele>273.5</ele>
        <time>2018-12-02T11:25:07Z</time>
      </trkpt>
      <trkpt lat="45.76346" lon="4.80754">
        <ele>272.5</ele>
        <time>2018-12-02T11:25:12Z</time>
      </trkpt>
      <trkpt lat="45.76354" lon="4.80748">
        <ele>271.7</ele>
        <time>2018-12-02T11:25:16Z</time>
      </trkpt>
      <trkpt lat="45.76361" lon="4.80739">
        <ele>270.8</ele>
        <time>2018-12-02T11:25:20Z</time>
      </trkpt>
      <trkpt lat="45.76368" lon="4.80734">
        <ele>270.2</ele>
        <time>2018-12-02T11:25:23Z</time>
      </trkpt>
      <trkpt lat="45.76375" lon="4.80727">
        <ele>269.6</ele>
        <time>2018-12-02T11:25:26Z</time>
      </trkpt>
      <trkpt lat="45.76383" lon="4.80722">
        <ele>268.6</ele>
        <time>2018-12-02T11:25:31Z</time>
      </trkpt>
      <trkpt lat="45.7639" lon="4.80717">
        <ele>267.8</ele>
        <time>2018-12-02T11:25:35Z</time>
      </trkpt>
      <trkpt lat="45.76398" lon="4.80713">
        <ele>267</ele>
        <time>2018-12-02T11:25:39Z</time>
      </trkpt>
      <trkpt lat="45.76406" lon="4.80709">
        <ele>266.1</ele>
        <time>2018-12-02T11:25:43Z</time>
      </trkpt>
      <trkpt lat="45.76413" lon="4.80704">
        <ele>265.2</ele>
        <time>2018-12-02T11:25:47Z</time>
      </trkpt>
      <trkpt lat="45.76421" lon="4.80698">
        <ele>264.4</ele>
        <time>2018-12-02T11:25:51Z</time>
      </trkpt>
      <trkpt lat="45.7643" lon="4.80692">
        <ele>263.5</ele>
        <time>2018-12-02T11:25:55Z</time>
      </trkpt>
      <trkpt lat="45.76437" lon="4.8069">
        <ele>262.9</ele>
        <time>2018-12-02T11:25:58Z</time>
      </trkpt>
      <trkpt lat="45.76446" lon="4.80684">
        <ele>262</ele>
        <time>2018-12-02T11:26:02Z</time>
      </trkpt>
      <trkpt lat="45.76454" lon="4.80679">
        <ele>261.1</ele>
        <time>2018-12-02T11:26:06Z</time>
      </trkpt>
      <trkpt lat="45.7646" lon="4.80674">
        <ele>260.3</ele>
        <time>2018-12-02T11:26:10Z</time>
      </trkpt>
      <trkpt lat="45.76468" lon="4.80669">
        <ele>259.5</ele>
        <time>2018-12-02T11:26:14Z</time>
      </trkpt>
      <trkpt lat="45.76476" lon="4.80665">
        <ele>258.7</ele>
        <time>2018-12-02T11:26:18Z</time>
      </trkpt>
      <trkpt lat="45.76483" lon="4.80664">
        <ele>257.7</ele>
        <time>2018-12-02T11:26:23Z</time>
      </trkpt>
      <trkpt lat="45.76491" lon="4.80659">
        <ele>256.7</ele>
        <time>2018-12-02T11:26:28Z</time>
      </trkpt>
      <trkpt lat="45.76498" lon="4.80655">
        <ele>255.9</ele>
        <time>2018-12-02T11:26:32Z</time>
      </trkpt>
      <trkpt lat="45.76505" lon="4.80649">
        <ele>255</ele>
        <time>2018-12-02T11:26:36Z</time>
      </trkpt>
      <trkpt lat="45.76512" lon="4.80644">
        <ele>254.1</ele>
        <time>2018-12-02T11:26:40Z</time>
      </trkpt>
      <trkpt lat="45.7652" lon="4.80638">
        <ele>253.2</ele>
        <time>2018-12-02T11:26:45Z</time>
      </trkpt>
      <trkpt lat="45.76527" lon="4.80632">
        <ele>252.4</ele>
        <time>2018-12-02T11:26:48Z</time>
      </trkpt>
      <trkpt lat="45.76533" lon="4.80626">
        <ele>251.8</ele>
        <time>2018-12-02T11:26:51Z</time>
      </trkpt>
      <trkpt lat="45.7654" lon="4.8062">
        <ele>251.2</ele>
        <time>2018-12-02T11:26:54Z</time>
      </trkpt>
      <trkpt lat="45.76548" lon="4.80617">
        <ele>250.4</ele>
        <time>2018-12-02T11:26:58Z</time>
      </trkpt>
      <trkpt lat="45.76555" lon="4.80612">
        <ele>249.6</ele>
        <time>2018-12-02T11:27:02Z</time>
      </trkpt>
      <trkpt lat="45.76561" lon="4.80604">
        <ele>248.9</ele>
        <time>2018-12-02T11:27:06Z</time>
      </trkpt>
      <trkpt lat="45.76568" lon="4.80596">
        <ele>248.4</ele>
        <time>2018-12-02T11:27:10Z</time>
      </trkpt>
      <trkpt lat="45.76575" lon="4.80587">
        <ele>247.9</ele>
        <time>2018-12-02T11:27:14Z</time>
      </trkpt>
      <trkpt lat="45.76582" lon="4.80579">
        <ele>247.3</ele>
        <time>2018-12-02T11:27:18Z</time>
      </trkpt>
      <trkpt lat="45.76589" lon="4.80571">
        <ele>246.6</ele>
        <time>2018-12-02T11:27:22Z</time>
      </trkpt>
      <trkpt lat="45.76595" lon="4.80568">
        <ele>246.2</ele>
        <time>2018-12-02T11:27:25Z</time>
      </trkpt>
      <trkpt lat="45.76603" lon="4.80565">
        <ele>245.8</ele>
        <time>2018-12-02T11:27:28Z</time>
      </trkpt>
      <trkpt lat="45.76611" lon="4.80564">
        <ele>245.4</ele>
        <time>2018-12-02T11:27:31Z</time>
      </trkpt>
      <trkpt lat="45.76618" lon="4.80562">
        <ele>244.8</ele>
        <time>2018-12-02T11:27:36Z</time>
      </trkpt>
      <trkpt lat="45.76626" lon="4.80562">
        <ele>244.2</ele>
        <time>2018-12-02T11:27:41Z</time>
      </trkpt>
      <trkpt lat="45.76635" lon="4.8056">
        <ele>243.7</ele>
        <time>2018-12-02T11:27:45Z</time>
      </trkpt>
      <trkpt lat="45.76642" lon="4.8056">
        <ele>243.3</ele>
        <time>2018-12-02T11:27:48Z</time>
      </trkpt>
      <trkpt lat="45.7665" lon="4.80558">
        <ele>242.9</ele>
        <time>2018-12-02T11:27:51Z</time>
      </trkpt>
      <trkpt lat="45.76658" lon="4.80554">
        <ele>242.4</ele>
        <time>2018-12-02T11:27:55Z</time>
      </trkpt>
      <trkpt lat="45.76666" lon="4.80553">
        <ele>242.2</ele>
        <time>2018-12-02T11:27:59Z</time>
      </trkpt>
      <trkpt lat="45.76676" lon="4.80554">
        <ele>241.8</ele>
        <time>2018-12-02T11:28:03Z</time>
      </trkpt>
      <trkpt lat="45.76684" lon="4.80556">
        <ele>241.4</ele>
        <time>2018-12-02T11:28:06Z</time>
      </trkpt>
      <trkpt lat="45.76693" lon="4.80557">
        <ele>240.9</ele>
        <time>2018-12-02T11:28:09Z</time>
      </trkpt>
      <trkpt lat="45.76701" lon="4.80557">
        <ele>240.4</ele>
        <time>2018-12-02T11:28:13Z</time>
      </trkpt>
      <trkpt lat="45.7671" lon="4.80557">
        <ele>239.9</ele>
        <time>2018-12-02T11:28:17Z</time>
      </trkpt>
      <trkpt lat="45.76719" lon="4.80556">
        <ele>239.4</ele>
        <time>2018-12-02T11:28:20Z</time>
      </trkpt>
      <trkpt lat="45.76727" lon="4.80555">
        <ele>238.9</ele>
        <time>2018-12-02T11:28:24Z</time>
      </trkpt>
      <trkpt lat="45.76734" lon="4.80555">
        <ele>238.6</ele>
        <time>2018-12-02T11:28:27Z</time>
      </trkpt>
      <trkpt lat="45.76743" lon="4.80553">
        <ele>238.3</ele>
        <time>2018-12-02T11:28:31Z</time>
      </trkpt>
      <trkpt lat="45.76751" lon="4.8055">
        <ele>238</ele>
        <time>2018-12-02T11:28:34Z</time>
      </trkpt>
      <trkpt lat="45.76759" lon="4.80545">
        <ele>237.6</ele>
        <time>2018-12-02T11:28:38Z</time>
      </trkpt>
      <trkpt lat="45.76764" lon="4.80536">
        <ele>237.1</ele>
        <time>2018-12-02T11:28:42Z</time>
      </trkpt>
      <trkpt lat="45.76768" lon="4.80527">
        <ele>236.6</ele>
        <time>2018-12-02T11:28:46Z</time>
      </trkpt>
      <trkpt lat="45.76776" lon="4.80526">
        <ele>236</ele>
        <time>2018-12-02T11:28:50Z</time>
      </trkpt>
      <trkpt lat="45.76784" lon="4.80527">
        <ele>235.4</ele>
        <time>2018-12-02T11:28:54Z</time>
      </trkpt>
      <trkpt lat="45.76793" lon="4.80527">
        <ele>234.7</ele>
        <time>2018-12-02T11:28:58Z</time>
      </trkpt>
      <trkpt lat="45.76801" lon="4.80527">
        <ele>233.9</ele>
        <time>2018-12-02T11:29:02Z</time>
      </trkpt>
      <trkpt lat="45.76805" lon="4.80518">
        <ele>233.2</ele>
        <time>2018-12-02T11:29:07Z</time>
      </trkpt>
      <trkpt lat="45.76804" lon="4.80507">
        <ele>232.9</ele>
        <time>2018-12-02T11:29:12Z</time>
      </trkpt>
      <trkpt lat="45.76805" lon="4.80495">
        <ele>233</ele>
        <time>2018-12-02T11:29:17Z</time>
      </trkpt>
      <trkpt lat="45.76804" lon="4.80483">
        <ele>233.4</ele>
        <time>2018-12-02T11:29:22Z</time>
      </trkpt>
      <trkpt lat="45.76805" lon="4.80469">
        <ele>234</ele>
        <time>2018-12-02T11:29:27Z</time>
      </trkpt>
      <trkpt lat="45.76805" lon="4.80457">
        <ele>234.5</ele>
        <time>2018-12-02T11:29:31Z</time>
      </trkpt>
      <trkpt lat="45.76803" lon="4.80438">
        <ele>235.2</ele>
        <time>2018-12-02T11:29:38Z</time>
      </trkpt>
      <trkpt lat="45.76803" lon="4.80425">
        <ele>235.5</ele>
        <time>2018-12-02T11:29:41Z</time>
      </trkpt>
      <trkpt lat="45.76802" lon="4.80413">
        <ele>235.8</ele>
        <time>2018-12-02T11:29:45Z</time>
      </trkpt>
      <trkpt lat="45.76804" lon="4.80402">
        <ele>236.2</ele>
        <time>2018-12-02T11:29:49Z</time>
      </trkpt>
      <trkpt lat="45.76807" lon="4.8039">
        <ele>236.6</ele>
        <time>2018-12-02T11:29:52Z</time>
      </trkpt>
      <trkpt lat="45.76806" lon="4.80375">
        <ele>237.2</ele>
        <time>2018-12-02T11:29:57Z</time>
      </trkpt>
      <trkpt lat="45.76805" lon="4.80363">
        <ele>237.7</ele>
        <time>2018-12-02T11:30:02Z</time>
      </trkpt>
      <trkpt lat="45.76805" lon="4.80352">
        <ele>237.9</ele>
        <time>2018-12-02T11:30:06Z</time>
      </trkpt>
      <trkpt lat="45.76805" lon="4.8034">
        <ele>238</ele>
        <time>2018-12-02T11:30:11Z</time>
      </trkpt>
      <trkpt lat="45.76807" lon="4.8033">
        <ele>238.2</ele>
        <time>2018-12-02T11:30:17Z</time>
      </trkpt>
      <trkpt lat="45.7681" lon="4.8032">
        <ele>238</ele>
        <time>2018-12-02T11:30:24Z</time>
      </trkpt>
      <trkpt lat="45.76811" lon="4.80316">
        <ele>237.7</ele>
        <time>2018-12-02T11:30:31Z</time>
      </trkpt>
    </trkseg>
  </trk>
</gpx>